Darstellungsparameter: Aktuell verwendete Einstellungen:
Skalierung der Graphiken ... ?
xyx+y,   Skalierungsfaktor:      Skalierung: Modus: x, Faktor: 1
Darstellungszeitraum ... ?
Vom - - bis: - -   Zeitraum: 09.06.2003 - 08.12.2003
Min/Max/Avg-Anzeige ... ?
Zeige MMA aktuell
Zeige MMA Monat
Zeige MMA alles
Zeige --A aktuell
Zeige --A Monat
Zeige --A alles
Keine MMA-Anzeige
MMA:
Keine MMA-Graphiken
MMA-Basis: 09.06.2003 - 08.12.2003
Quicknavigation für Darstellung... ?
Tage:      1T, 2T, 3T, 5T -1T -2T -3T -5T +1T +2T +3T +5T
Wochen: 1W, 2W, 3W -1W -2W -3W +1W +2W +3W
Monate: 1M, 3M, 6M -1M -3M -6M +1M +3M +6M
Jahre:    1J, 3J, 5J, 10J -1J -3J -5J -10J +1J +3J +5J +10J
Nutze für die Darstellung ... ?
Originaldaten oder Mittelwerte auf ...
Stundenbasis Tagesbasis Wochenbasis
Monatsbasis Jahresbasis      Datenbasis: Original-Daten
Darstellen als:
Statistik (Auto) Statistik J:M      Darstellung:
Zur Graphik,    zurück zur Übersicht aller Sensoren.
 
Tabellarische Datenbersicht: ?
 
Sensor: Nr:Datum:Temp:Abs-Feuchte:Windchill:Wind:
Aussen-T/F 1 09-06-2003 00:06:01 18.8 C 12.08 g/m*3 18.8 C 0 km/h
2 09-06-2003 00:16:01 18.4 C 10.07 g/m*3 18.4 C 0 km/h
3 09-06-2003 00:26:01 18.1 C 9.58 g/m*3 18.1 C 0 km/h
4 09-06-2003 00:36:01 17.8 C 9.71 g/m*3 17.8 C 0 km/h
5 09-06-2003 00:46:01 17.7 C 9.51 g/m*3 17.7 C 0 km/h
6 09-06-2003 00:56:01 17.5 C 9.09 g/m*3 17.5 C 0 km/h
7 09-06-2003 01:06:01 17.3 C 8.4 g/m*3 17.3 C 0 km/h
8 09-06-2003 01:16:01 16.9 C 9.21 g/m*3 16.9 C 0 km/h
9 09-06-2003 01:26:01 16.8 C 8.86 g/m*3 16.8 C 0 km/h
10 09-06-2003 01:36:01 16.8 C 9.15 g/m*3 16.8 C 0 km/h
11 09-06-2003 01:46:01 16.4 C 9.21 g/m*3 16.4 C 0 km/h
12 09-06-2003 01:56:01 16.2 C 8.55 g/m*3 16.2 C 0 km/h
13 09-06-2003 02:06:01 16.2 C 8.41 g/m*3 16.2 C 0 km/h
14 09-06-2003 02:16:01 16 C 8.58 g/m*3 16 C 0 km/h
15 09-06-2003 02:26:01 15.8 C 8.75 g/m*3 15.8 C 0 km/h
16 09-06-2003 02:36:01 15.5 C 8.33 g/m*3 15.5 C 0 km/h
17 09-06-2003 02:46:01 15.2 C 8.18 g/m*3 15.2 C 0 km/h
18 09-06-2003 02:56:01 14.8 C 8.49 g/m*3 14.8 C 0 km/h
19 09-06-2003 03:06:01 14.6 C 8.76 g/m*3 14.6 C 0 km/h
20 09-06-2003 03:16:01 14.5 C 8.71 g/m*3 14.5 C 0 km/h
21 09-06-2003 03:26:01 14.8 C 8.36 g/m*3 14.8 C 0 km/h
22 09-06-2003 03:36:01 14.7 C 8.31 g/m*3 14.7 C 0 km/h
23 09-06-2003 03:46:01 14.7 C 8.81 g/m*3 14.7 C 0 km/h
24 09-06-2003 03:56:01 14.6 C 8.63 g/m*3 14.6 C 0 km/h
25 09-06-2003 04:06:01 14.5 C 8.71 g/m*3 14.5 C 0 km/h
Sensor: Nr:Datum:Temp:Abs-Feuchte:Windchill:Wind:
Aussen-T/F 26 09-06-2003 04:16:01 14.2 C 8.3 g/m*3 14.2 C 0 km/h
27 09-06-2003 04:26:01 14 C 8.08 g/m*3 14 C 0 km/h
28 09-06-2003 04:36:01 13.6 C 8 g/m*3 13.6 C 0 km/h
29 09-06-2003 04:46:01 13.4 C 8.02 g/m*3 13.4 C 0 km/h
30 09-06-2003 04:56:01 13.2 C 8.27 g/m*3 13.2 C 0 km/h
31 09-06-2003 05:06:01 12.8 C 8.29 g/m*3 12.8 C 0 km/h
32 09-06-2003 05:16:01 12.7 C 8.57 g/m*3 12.7 C 0 km/h
33 09-06-2003 05:26:01 12.6 C 8.52 g/m*3 12.6 C 0 km/h
34 09-06-2003 05:36:01 12.6 C 8.52 g/m*3 12.6 C 0 km/h
35 09-06-2003 05:46:01 12.7 C 8.68 g/m*3 12.7 C 0 km/h
36 09-06-2003 05:56:01 12.6 C 8.63 g/m*3 12.6 C 0 km/h
37 09-06-2003 06:06:01 12.5 C 8.58 g/m*3 12.5 C 0 km/h
38 09-06-2003 06:16:01 12.4 C 8.63 g/m*3 12.4 C 0 km/h
39 09-06-2003 06:26:01 12.4 C 8.74 g/m*3 12.4 C 0 km/h
40 09-06-2003 06:36:01 12.7 C 9.02 g/m*3 12.7 C 0 km/h
41 09-06-2003 06:46:01 12.8 C 8.96 g/m*3 12.8 C 0 km/h
42 09-06-2003 06:56:01 13.3 C 8.9 g/m*3 13.3 C 0 km/h
43 09-06-2003 07:06:01 13.5 C 8.77 g/m*3 13.5 C 0 km/h
44 09-06-2003 07:16:01 13.6 C 8.36 g/m*3 13.6 C 0 km/h
45 09-06-2003 07:26:01 13.5 C 8.07 g/m*3 13.5 C 0 km/h
46 09-06-2003 07:36:01 13.6 C 8.24 g/m*3 13.6 C 0 km/h
47 09-06-2003 07:46:01 13.7 C 8.41 g/m*3 13.7 C 0 km/h
48 09-06-2003 07:56:01 13.7 C 8.05 g/m*3 13.7 C 0 km/h
49 09-06-2003 08:06:01 13.8 C 7.98 g/m*3 13.8 C 0 km/h
50 09-06-2003 08:16:01 13.9 C 7.79 g/m*3 13.9 C 0 km/h
Sensor: Nr:Datum:Temp:Abs-Feuchte:Windchill:Wind:
Aussen-T/F 51 09-06-2003 08:26:01 14.1 C 7.77 g/m*3 14.1 C 0 km/h
52 09-06-2003 08:36:01 14.4 C 7.42 g/m*3 14.4 C 0 km/h
53 09-06-2003 08:46:01 14.4 C 7.42 g/m*3 14.4 C 0 km/h
54 09-06-2003 08:56:01 14.7 C 7.3 g/m*3 14.7 C 0 km/h
55 09-06-2003 09:06:01 14.8 C 6.97 g/m*3 14.8 C 0 km/h
56 09-06-2003 09:16:01 15.2 C 7.01 g/m*3 15.2 C 0 km/h
57 09-06-2003 09:26:01 15.4 C 6.96 g/m*3 15.4 C 0 km/h
58 09-06-2003 09:36:01 15.6 C 6.92 g/m*3 15.6 C 0 km/h
59 09-06-2003 09:46:01 16 C 6.95 g/m*3 16 C 0 km/h
60 09-06-2003 09:56:01 16.4 C 7.26 g/m*3 16.4 C 0 km/h
61 09-06-2003 10:06:00 16.6 C 6.92 g/m*3 16.6 C 0 km/h
62 09-06-2003 10:16:00 16.9 C 7.19 g/m*3 16.9 C 0 km/h
63 09-06-2003 10:26:00 17.4 C 6.97 g/m*3 17.4 C 0 km/h
64 09-06-2003 10:36:08 17.5 C 6.86 g/m*3 17.5 C 0 km/h
65 09-06-2003 10:46:08 18.1 C 7.26 g/m*3 18.1 C 0 km/h
66 09-06-2003 10:56:01 18.3 C 7.19 g/m*3 18.3 C 0 km/h
67 09-06-2003 11:06:01 18.4 C 6.76 g/m*3 18.4 C 0 km/h
68 09-06-2003 11:16:01 18.9 C 6.97 g/m*3 18.9 C 0 km/h
69 09-06-2003 11:26:01 19 C 7.01 g/m*3 19 C 0 km/h
70 09-06-2003 11:36:01 19.3 C 6.97 g/m*3 19.3 C 0 km/h
71 09-06-2003 11:46:01 20.3 C 7.56 g/m*3 20.3 C 0 km/h
72 09-06-2003 11:56:01 20 C 7.09 g/m*3 20 C 0 km/h
73 09-06-2003 12:06:01 20.5 C 6.94 g/m*3 20.5 C 0 km/h
74 09-06-2003 12:16:01 21.3 C 6.9 g/m*3 21.3 C 0 km/h
75 09-06-2003 12:26:01 21.8 C 6.91 g/m*3 21.8 C 0 km/h
Sensor: Nr:Datum:Temp:Abs-Feuchte:Windchill:Wind:
Aussen-T/F 76 09-06-2003 12:36:01 21.6 C 6.83 g/m*3 21.6 C 0 km/h
77 09-06-2003 12:46:01 23.1 C 6.61 g/m*3 23.1 C 0 km/h
78 09-06-2003 12:56:01 23.1 C 6.82 g/m*3 23.1 C 0 km/h
79 09-06-2003 13:06:01 24.2 C 6.82 g/m*3 24.2 C 0 km/h
80 09-06-2003 13:16:01 24.4 C 6.68 g/m*3 24.4 C 0 km/h
81 09-06-2003 13:26:01 23.7 C 6.63 g/m*3 23.7 C 0 km/h
82 09-06-2003 13:36:53 23.8 C 6.67 g/m*3 23.8 C 0 km/h
83 09-06-2003 13:46:53 24.7 C 6.79 g/m*3 24.7 C 0 km/h
84 09-06-2003 13:56:53 24.1 C 6.78 g/m*3 24.1 C 0 km/h
85 09-06-2003 14:06:01 24.2 C 7.26 g/m*3 24.2 C 0 km/h
86 09-06-2003 14:16:01 24.5 C 7.16 g/m*3 24.5 C 0 km/h
87 09-06-2003 14:26:01 24.4 C 6.9 g/m*3 24.4 C 0 km/h
88 09-06-2003 14:36:01 25.3 C 7.49 g/m*3 25.3 C 0 km/h
89 09-06-2003 14:46:01 24.5 C 7.16 g/m*3 24.5 C 0 km/h
90 09-06-2003 14:56:01 25.9 C 7.75 g/m*3 25.9 C 0 km/h
91 09-06-2003 15:06:01 25.1 C 6.94 g/m*3 25.1 C 0 km/h
92 09-06-2003 15:16:01 25.8 C 7.22 g/m*3 25.8 C 0 km/h
93 09-06-2003 15:26:01 26 C 7.3 g/m*3 26 C 0 km/h
94 09-06-2003 15:36:01 26.4 C 6.97 g/m*3 26.4 C 0 km/h
95 09-06-2003 15:46:01 26.2 C 6.89 g/m*3 26.2 C 0 km/h
96 09-06-2003 15:56:01 26.1 C 6.61 g/m*3 26.1 C 0 km/h
97 09-06-2003 16:06:00 26.4 C 7.47 g/m*3 26.4 C 0 km/h
98 09-06-2003 16:16:00 26.7 C 7.59 g/m*3 26.7 C 0 km/h
99 09-06-2003 16:26:00 28.4 C 7.78 g/m*3 28.4 C 0 km/h
100 09-06-2003 16:36:01 28.6 C 7.03 g/m*3 28.6 C 0 km/h
Sensor: Nr:Datum:Temp:Abs-Feuchte:Windchill:Wind:
Aussen-T/F 101 09-06-2003 16:46:01 28.2 C 6.6 g/m*3 28.2 C 0 km/h
102 09-06-2003 16:56:01 27.8 C 6.72 g/m*3 27.8 C 0 km/h
103 09-06-2003 17:06:02 28.3 C 7.19 g/m*3 28.3 C 0 km/h
104 09-06-2003 17:16:00 27.6 C 6.92 g/m*3 27.6 C 0 km/h
105 09-06-2003 17:16:02 27.6 C 6.92 g/m*3 27.6 C 0 km/h
106 09-06-2003 17:26:00 28.7 C 7.06 g/m*3 28.7 C 0 km/h
107 09-06-2003 17:36:00 28.4 C 6.67 g/m*3 28.4 C 0 km/h
108 09-06-2003 17:46:00 27.8 C 6.99 g/m*3 27.8 C 0 km/h
109 09-06-2003 17:56:00 27.8 C 6.99 g/m*3 27.8 C 0 km/h
110 09-06-2003 18:06:01 27.5 C 6.35 g/m*3 27.5 C 0 km/h
111 09-06-2003 18:16:01 28 C 7.07 g/m*3 28 C 0 km/h
112 09-06-2003 18:26:01 27.9 C 6.22 g/m*3 27.9 C 0 km/h
113 09-06-2003 18:36:01 28.5 C 6.15 g/m*3 28.5 C 0 km/h
114 09-06-2003 18:46:01 28.4 C 6.67 g/m*3 28.4 C 0 km/h
115 09-06-2003 18:56:01 28.4 C 7.78 g/m*3 28.4 C 0 km/h
116 09-06-2003 19:06:01 28.3 C 7.74 g/m*3 28.3 C 0 km/h
117 09-06-2003 19:16:01 28.5 C 7.83 g/m*3 28.5 C 0 km/h
118 09-06-2003 19:26:01 27.6 C 7.71 g/m*3 27.6 C 0 km/h
119 09-06-2003 19:36:02 27.3 C 8.63 g/m*3 27.3 C 0 km/h
120 09-06-2003 19:46:02 27.1 C 8.28 g/m*3 27.1 C 0 km/h
121 09-06-2003 19:56:02 26.6 C 8.81 g/m*3 26.6 C 0 km/h
122 09-06-2003 20:06:02 25.9 C 8.96 g/m*3 25.9 C 0 km/h
123 09-06-2003 20:26:02 24.1 C 8.97 g/m*3 24.1 C 0 km/h
124 09-06-2003 20:36:01 23.8 C 9.03 g/m*3 23.8 C 0 km/h
125 09-06-2003 20:46:01 23.8 C 9.03 g/m*3 23.8 C 0 km/h
Sensor: Nr:Datum:Temp:Abs-Feuchte:Windchill:Wind:
Aussen-T/F 126 09-06-2003 20:56:01 23.8 C 9.25 g/m*3 23.8 C 0 km/h
127 09-06-2003 21:06:01 23.4 C 9.46 g/m*3 23.4 C 0 km/h
128 09-06-2003 21:16:01 22.4 C 8.74 g/m*3 22.4 C 0 km/h
129 09-06-2003 21:26:01 21.8 C 8.83 g/m*3 21.8 C 0 km/h
130 09-06-2003 21:36:00 21.5 C 8.49 g/m*3 21.5 C 0 km/h
131 09-06-2003 21:46:00 20.6 C 8.41 g/m*3 20.6 C 0 km/h
132 09-06-2003 21:56:00 20.3 C 8.27 g/m*3 20.3 C 0 km/h
133 09-06-2003 22:06:01 19.9 C 8.42 g/m*3 19.9 C 0 km/h
134 09-06-2003 22:16:01 19.9 C 8.25 g/m*3 19.9 C 0 km/h
135 09-06-2003 22:26:01 19.4 C 8.51 g/m*3 19.4 C 0 km/h
136 09-06-2003 22:36:39 19.3 C 8.63 g/m*3 19.3 C 0 km/h
137 09-06-2003 22:47:01 19 C 8.47 g/m*3 19 C 0 km/h
138 09-06-2003 22:57:01 18.8 C 8.54 g/m*3 18.8 C 0 km/h
139 09-06-2003 23:07:01 18.5 C 8.39 g/m*3 18.5 C 0 km/h
140 09-06-2003 23:17:01 18.3 C 8.6 g/m*3 18.3 C 0 km/h
141 09-06-2003 23:27:01 18.1 C 8.65 g/m*3 18.1 C 0 km/h
142 09-06-2003 23:37:01 17.8 C 8.8 g/m*3 17.8 C 0 km/h
143 09-06-2003 23:47:01 17.8 C 8.8 g/m*3 17.8 C 0 km/h
144 09-06-2003 23:57:01 17.2 C 8.79 g/m*3 17.2 C 0 km/h
145 10-06-2003 00:07:01 17.3 C 8.99 g/m*3 17.3 C 0 km/h
146 10-06-2003 00:17:01 17.1 C 9.03 g/m*3 17.1 C 0 km/h
147 10-06-2003 00:27:01 16.8 C 8.86 g/m*3 16.8 C 0 km/h
148 10-06-2003 00:37:01 16.7 C 8.95 g/m*3 16.7 C 0 km/h
149 10-06-2003 00:47:01 16.5 C 8.85 g/m*3 16.5 C 0 km/h
150 10-06-2003 00:57:01 16.3 C 9.02 g/m*3 16.3 C 0 km/h
Sensor: Nr:Datum:Temp:Abs-Feuchte:Windchill:Wind:
Aussen-T/F 151 10-06-2003 01:07:01 16.2 C 9.24 g/m*3 16.2 C 0 km/h
152 10-06-2003 01:17:01 15.9 C 9.21 g/m*3 15.9 C 0 km/h
153 10-06-2003 01:27:01 15.8 C 9.29 g/m*3 15.8 C 0 km/h
154 10-06-2003 01:37:01 15.6 C 9.31 g/m*3 15.6 C 0 km/h
155 10-06-2003 01:47:01 15.5 C 9.52 g/m*3 15.5 C 0 km/h
156 10-06-2003 01:57:01 15.3 C 9.4 g/m*3 15.3 C 0 km/h
157 10-06-2003 02:07:01 15.3 C 9.53 g/m*3 15.3 C 0 km/h
158 10-06-2003 02:17:01 15.2 C 9.35 g/m*3 15.2 C 0 km/h
159 10-06-2003 02:27:01 15.2 C 9.61 g/m*3 15.2 C 0 km/h
160 10-06-2003 02:37:01 15 C 9.36 g/m*3 15 C 0 km/h
161 10-06-2003 02:47:01 14.9 C 9.43 g/m*3 14.9 C 0 km/h
162 10-06-2003 02:57:01 14.8 C 9.75 g/m*3 14.8 C 0 km/h
163 10-06-2003 03:07:01 14.8 C 9.75 g/m*3 14.8 C 0 km/h
164 10-06-2003 03:17:01 14.7 C 9.82 g/m*3 14.7 C 0 km/h
165 10-06-2003 03:27:01 14.6 C 9.64 g/m*3 14.6 C 0 km/h
166 10-06-2003 03:37:01 14.5 C 9.58 g/m*3 14.5 C 0 km/h
167 10-06-2003 03:47:01 14.3 C 9.46 g/m*3 14.3 C 0 km/h
168 10-06-2003 03:57:01 14.2 C 9.52 g/m*3 14.2 C 0 km/h
169 10-06-2003 04:07:01 14.2 C 9.52 g/m*3 14.2 C 0 km/h
170 10-06-2003 04:17:01 13.9 C 9.47 g/m*3 13.9 C 0 km/h
171 10-06-2003 04:27:01 13.8 C 9.41 g/m*3 13.8 C 0 km/h
172 10-06-2003 04:37:01 13.6 C 9.3 g/m*3 13.6 C 0 km/h
173 10-06-2003 04:47:01 13.6 C 9.53 g/m*3 13.6 C 0 km/h
174 10-06-2003 04:57:01 13.5 C 9.36 g/m*3 13.5 C 0 km/h
175 10-06-2003 05:07:01 13.5 C 9.36 g/m*3 13.5 C 0 km/h
Sensor: Nr:Datum:Temp:Abs-Feuchte:Windchill:Wind:
Aussen-T/F 176 10-06-2003 05:17:01 13.4 C 9.65 g/m*3 13.4 C 0 km/h
177 10-06-2003 05:27:01 13.5 C 9.59 g/m*3 13.5 C 0 km/h
178 10-06-2003 05:37:01 13.5 C 9.59 g/m*3 13.5 C 0 km/h
179 10-06-2003 05:47:01 13.5 C 9.47 g/m*3 13.5 C 0 km/h
180 10-06-2003 05:57:01 13.4 C 9.42 g/m*3 13.4 C 0 km/h
181 10-06-2003 06:07:01 13.4 C 9.42 g/m*3 13.4 C 0 km/h
182 10-06-2003 06:17:01 13.4 C 9.53 g/m*3 13.4 C 0 km/h
183 10-06-2003 06:27:01 13.4 C 9.42 g/m*3 13.4 C 0 km/h
184 10-06-2003 06:37:01 13.6 C 9.65 g/m*3 13.6 C 0 km/h
185 10-06-2003 06:47:01 13.9 C 9.71 g/m*3 13.9 C 0 km/h
186 10-06-2003 06:57:01 14.3 C 9.83 g/m*3 14.3 C 0 km/h
187 10-06-2003 07:07:01 14.4 C 9.77 g/m*3 14.4 C 0 km/h
188 10-06-2003 07:17:01 14.3 C 9.83 g/m*3 14.3 C 0 km/h
189 10-06-2003 07:27:01 14.4 C 9.89 g/m*3 14.4 C 0 km/h
190 10-06-2003 07:37:01 14.6 C 9.89 g/m*3 14.6 C 0 km/h
191 10-06-2003 07:47:01 14.9 C 9.94 g/m*3 14.9 C 0 km/h
192 10-06-2003 07:57:01 15.1 C 9.93 g/m*3 15.1 C 0 km/h
193 10-06-2003 08:07:01 15.4 C 9.72 g/m*3 15.4 C 0 km/h
194 10-06-2003 08:17:01 16.1 C 9.87 g/m*3 16.1 C 0 km/h
195 10-06-2003 08:27:01 16.7 C 9.95 g/m*3 16.7 C 0 km/h
196 10-06-2003 08:37:01 17.2 C 10.1 g/m*3 17.2 C 0 km/h
197 10-06-2003 08:47:01 17.8 C 10.17 g/m*3 17.8 C 0 km/h
198 10-06-2003 08:57:01 18.4 C 10.22 g/m*3 18.4 C 0 km/h
199 10-06-2003 09:07:02 18.9 C 10.21 g/m*3 18.9 C 0 km/h
200 10-06-2003 09:17:02 19.2 C 9.56 g/m*3 19.2 C 0 km/h
Sensor: Nr:Datum:Temp:Abs-Feuchte:Windchill:Wind:
Aussen-T/F 201 10-06-2003 09:27:02 19.4 C 9.84 g/m*3 19.4 C 0 km/h
202 10-06-2003 09:37:01 20.1 C 10.08 g/m*3 20.1 C 0 km/h
203 10-06-2003 09:47:01 20.8 C 9.96 g/m*3 20.8 C 0 km/h
204 10-06-2003 09:57:01 21.8 C 10.17 g/m*3 21.8 C 0 km/h
205 10-06-2003 10:07:01 22.6 C 9.84 g/m*3 22.6 C 0 km/h
206 10-06-2003 10:17:01 22.8 C 9.75 g/m*3 22.8 C 0 km/h
207 10-06-2003 10:27:01 23.2 C 9.56 g/m*3 23.2 C 0 km/h
208 10-06-2003 10:37:01 24 C 10.01 g/m*3 24 C 0 km/h
209 10-06-2003 10:47:01 24 C 11.1 g/m*3 24 C 0 km/h
210 10-06-2003 10:57:01 24.2 C 9.9 g/m*3 24.2 C 0 km/h
211 10-06-2003 11:07:00 25.1 C 10.65 g/m*3 25.1 C 0 km/h
212 10-06-2003 11:17:00 25.3 C 11 g/m*3 25.3 C 0 km/h
213 10-06-2003 11:27:00 25.5 C 11.13 g/m*3 25.5 C 0 km/h
214 10-06-2003 11:37:01 25.9 C 11.62 g/m*3 25.9 C 0 km/h
215 10-06-2003 11:47:01 26.6 C 12.33 g/m*3 26.6 C 0 km/h
216 10-06-2003 11:57:01 27.6 C 12.77 g/m*3 27.6 C 0 km/h
217 10-06-2003 12:07:02 28.5 C 11.18 g/m*3 28.5 C 0 km/h
218 10-06-2003 12:17:02 29.2 C 11.91 g/m*3 29.2 C 0 km/h
219 10-06-2003 12:27:02 29.2 C 10.74 g/m*3 29.2 C 0 km/h
220 10-06-2003 12:37:01 30.1 C 12.2 g/m*3 30.1 C 0 km/h
221 10-06-2003 12:47:01 30.6 C 10.96 g/m*3 30.6 C 0 km/h
222 10-06-2003 12:57:01 31.2 C 10.67 g/m*3 31.2 C 0 km/h
223 10-06-2003 13:07:01 31.2 C 10.67 g/m*3 31.2 C 0 km/h
224 10-06-2003 13:17:01 31.4 C 10.14 g/m*3 31.4 C 0 km/h
225 10-06-2003 13:27:01 31.9 C 9.4 g/m*3 31.9 C 0 km/h
Sensor: Nr:Datum:Temp:Abs-Feuchte:Windchill:Wind:
Aussen-T/F 226 10-06-2003 13:37:02 32.1 C 9.5 g/m*3 32.1 C 0 km/h
227 10-06-2003 13:47:02 32 C 9.45 g/m*3 32 C 0 km/h
228 10-06-2003 13:57:02 32 C 10.13 g/m*3 32 C 0 km/h
229 10-06-2003 14:07:01 31.8 C 10.35 g/m*3 31.8 C 0 km/h
230 10-06-2003 14:17:01 31.9 C 10.41 g/m*3 31.9 C 0 km/h
231 10-06-2003 14:27:01 32 C 10.13 g/m*3 32 C 0 km/h
232 10-06-2003 14:37:01 32.1 C 11.54 g/m*3 32.1 C 0 km/h
233 10-06-2003 14:47:01 32 C 10.8 g/m*3 32 C 0 km/h
234 10-06-2003 14:57:01 32 C 10.8 g/m*3 32 C 0 km/h
235 10-06-2003 15:07:01 32.2 C 10.58 g/m*3 32.2 C 0 km/h
236 10-06-2003 15:17:01 32.4 C 10.35 g/m*3 32.4 C 0 km/h
237 10-06-2003 15:27:01 32.3 C 10.63 g/m*3 32.3 C 0 km/h
238 10-06-2003 15:37:01 32.3 C 10.98 g/m*3 32.3 C 0 km/h
239 10-06-2003 15:47:01 32.3 C 12.35 g/m*3 32.3 C 0 km/h
240 10-06-2003 15:57:01 32 C 13.17 g/m*3 32 C 0 km/h
241 10-06-2003 16:07:02 31.6 C 13.55 g/m*3 31.6 C 0 km/h
242 10-06-2003 16:17:02 31.3 C 13.98 g/m*3 31.3 C 0 km/h
243 10-06-2003 16:27:02 30.9 C 14.32 g/m*3 30.9 C 0 km/h
244 10-06-2003 16:37:01 30.5 C 14.64 g/m*3 30.5 C 0 km/h
245 10-06-2003 16:47:01 30.1 C 13.72 g/m*3 30.1 C 0 km/h
246 10-06-2003 16:57:01 30.2 C 14.1 g/m*3 30.2 C 0 km/h
247 10-06-2003 17:07:02 30.3 C 14.49 g/m*3 30.3 C 0 km/h
248 10-06-2003 17:17:02 30.4 C 13.94 g/m*3 30.4 C 0 km/h
249 10-06-2003 17:27:02 30.9 C 13.37 g/m*3 30.9 C 0 km/h
250 10-06-2003 17:37:02 30.9 C 14.64 g/m*3 30.9 C 0 km/h
Sensor: Nr:Datum:Temp:Abs-Feuchte:Windchill:Wind:
Aussen-T/F 251 10-06-2003 17:47:02 30.2 C 14.71 g/m*3 30.2 C 0 km/h
252 10-06-2003 17:57:02 29.2 C 15.1 g/m*3 29.2 C 0 km/h
253 10-06-2003 18:07:02 28 C 14.96 g/m*3 28 C 0 km/h
254 10-06-2003 18:17:02 26.6 C 15.1 g/m*3 26.6 C 0 km/h
255 10-06-2003 18:27:02 25.5 C 15.86 g/m*3 25.5 C 0 km/h
256 10-06-2003 18:37:02 25.1 C 15.51 g/m*3 25.1 C 0 km/h
257 10-06-2003 18:47:02 25 C 15.42 g/m*3 25 C 0 km/h
258 10-06-2003 18:57:02 25.3 C 15.22 g/m*3 25.3 C 0 km/h
259 10-06-2003 19:07:02 24.8 C 16.84 g/m*3 24.8 C 0 km/h
260 10-06-2003 19:17:02 21.3 C 13.61 g/m*3 21.3 C 0 km/h
261 10-06-2003 19:27:02 19.9 C 15.29 g/m*3 19.9 C 0 km/h
262 10-06-2003 19:37:02 19.9 C 15.63 g/m*3 19.9 C 0 km/h
263 10-06-2003 19:47:02 19.8 C 15.71 g/m*3 19.8 C 0 km/h
264 10-06-2003 19:57:01 19.7 C 15.62 g/m*3 19.7 C 0 km/h
265 10-06-2003 20:07:33 19.5 C 15.44 g/m*3 19.5 C 0 km/h
266 10-06-2003 20:17:07 20.1 C 15.99 g/m*3 20.1 C 0 km/h
267 10-06-2003 20:27:01 20 C 15.9 g/m*3 20 C 0 km/h
268 10-06-2003 20:37:01 20.3 C 16.18 g/m*3 20.3 C 0 km/h
269 10-06-2003 20:47:01 20.6 C 16.47 g/m*3 20.6 C 0 km/h
270 10-06-2003 20:57:01 20.4 C 16.28 g/m*3 20.4 C 0 km/h
271 10-06-2003 21:07:01 20.1 C 15.82 g/m*3 20.1 C 0 km/h
272 10-06-2003 21:17:01 20.1 C 15.99 g/m*3 20.1 C 0 km/h
273 10-06-2003 21:27:01 19.8 C 15.71 g/m*3 19.8 C 0 km/h
274 10-06-2003 21:37:01 19.7 C 15.62 g/m*3 19.7 C 0 km/h
275 10-06-2003 21:47:01 19.7 C 15.62 g/m*3 19.7 C 0 km/h
Sensor: Nr:Datum:Temp:Abs-Feuchte:Windchill:Wind:
Aussen-T/F 276 10-06-2003 21:57:01 19.6 C 15.53 g/m*3 19.6 C 0 km/h
277 10-06-2003 22:08:01 19.5 C 15.27 g/m*3 19.5 C 0 km/h
278 10-06-2003 22:18:01 19.5 C 15.27 g/m*3 19.5 C 0 km/h
279 10-06-2003 22:28:01 19.5 C 15.27 g/m*3 19.5 C 0 km/h
280 10-06-2003 22:38:01 19.5 C 15.27 g/m*3 19.5 C 0 km/h
281 10-06-2003 22:48:01 19.4 C 15.18 g/m*3 19.4 C 0 km/h
282 10-06-2003 22:58:01 19.3 C 15.09 g/m*3 19.3 C 0 km/h
283 10-06-2003 23:08:01 19.2 C 15.01 g/m*3 19.2 C 0 km/h
284 10-06-2003 23:18:01 19.3 C 15.09 g/m*3 19.3 C 0 km/h
285 10-06-2003 23:28:01 19.1 C 14.92 g/m*3 19.1 C 0 km/h
286 10-06-2003 23:38:01 19.1 C 14.92 g/m*3 19.1 C 0 km/h
287 10-06-2003 23:48:01 19.2 C 15.01 g/m*3 19.2 C 0 km/h
288 10-06-2003 23:58:01 19.2 C 15.01 g/m*3 19.2 C 0 km/h
289 11-06-2003 00:08:01 19.2 C 15.01 g/m*3 19.2 C 0 km/h
290 11-06-2003 00:18:01 19.2 C 14.84 g/m*3 19.2 C 0 km/h
291 11-06-2003 00:28:01 19.1 C 14.75 g/m*3 19.1 C 0 km/h
292 11-06-2003 00:38:01 19.3 C 14.93 g/m*3 19.3 C 0 km/h
293 11-06-2003 00:48:01 19.2 C 14.68 g/m*3 19.2 C 0 km/h
294 11-06-2003 00:58:01 19.2 C 14.68 g/m*3 19.2 C 0 km/h
295 11-06-2003 01:08:01 19.1 C 14.59 g/m*3 19.1 C 0 km/h
296 11-06-2003 01:18:01 19.1 C 14.59 g/m*3 19.1 C 0 km/h
297 11-06-2003 01:28:01 19.1 C 14.75 g/m*3 19.1 C 0 km/h
298 11-06-2003 01:38:01 19.2 C 14.84 g/m*3 19.2 C 0 km/h
299 11-06-2003 01:48:01 19.3 C 14.93 g/m*3 19.3 C 0 km/h
300 11-06-2003 01:58:01 19 C 14.67 g/m*3 19 C 0 km/h
Sensor: Nr:Datum:Temp:Abs-Feuchte:Windchill:Wind:
Aussen-T/F 301 11-06-2003 02:08:01 18.9 C 14.74 g/m*3 18.9 C 0 km/h
302 11-06-2003 02:18:01 18.9 C 14.74 g/m*3 18.9 C 0 km/h
303 11-06-2003 02:28:01 18.8 C 14.66 g/m*3 18.8 C 0 km/h
304 11-06-2003 02:38:01 18.8 C 14.66 g/m*3 18.8 C 0 km/h
305 11-06-2003 02:48:01 18.9 C 14.74 g/m*3 18.9 C 0 km/h
306 11-06-2003 02:58:01 18.9 C 14.74 g/m*3 18.9 C 0 km/h
307 11-06-2003 03:08:01 18.9 C 14.74 g/m*3 18.9 C 0 km/h
308 11-06-2003 03:18:01 18.9 C 14.74 g/m*3 18.9 C 0 km/h
309 11-06-2003 03:28:01 18.9 C 14.74 g/m*3 18.9 C 0 km/h
310 11-06-2003 03:38:01 18.9 C 14.74 g/m*3 18.9 C 0 km/h
311 11-06-2003 03:48:01 18.9 C 14.74 g/m*3 18.9 C 0 km/h
312 11-06-2003 03:58:01 18.8 C 14.66 g/m*3 18.8 C 0 km/h
313 11-06-2003 04:08:01 18.8 C 14.66 g/m*3 18.8 C 0 km/h
314 11-06-2003 04:18:01 18.8 C 14.66 g/m*3 18.8 C 0 km/h
315 11-06-2003 04:28:01 18.7 C 14.57 g/m*3 18.7 C 0 km/h
316 11-06-2003 04:38:01 18.6 C 14.48 g/m*3 18.6 C 0 km/h
317 11-06-2003 04:48:01 18.6 C 14.48 g/m*3 18.6 C 0 km/h
318 11-06-2003 04:58:01 18.6 C 14.48 g/m*3 18.6 C 0 km/h
319 11-06-2003 05:08:01 18.6 C 14.48 g/m*3 18.6 C 0 km/h
320 11-06-2003 05:18:01 18.7 C 14.57 g/m*3 18.7 C 0 km/h
321 11-06-2003 05:28:01 18.8 C 14.66 g/m*3 18.8 C 0 km/h
322 11-06-2003 05:38:01 19 C 14.67 g/m*3 19 C 0 km/h
323 11-06-2003 05:48:01 18.9 C 14.58 g/m*3 18.9 C 0 km/h
324 11-06-2003 05:58:01 19.3 C 14.76 g/m*3 19.3 C 0 km/h
325 11-06-2003 06:08:01 19.2 C 14.51 g/m*3 19.2 C 0 km/h
Sensor: Nr:Datum:Temp:Abs-Feuchte:Windchill:Wind:
Aussen-T/F 326 11-06-2003 06:18:01 19.2 C 14.51 g/m*3 19.2 C 0 km/h
327 11-06-2003 06:28:01 19.2 C 14.51 g/m*3 19.2 C 0 km/h
328 11-06-2003 06:38:01 19.3 C 14.6 g/m*3 19.3 C 0 km/h
329 11-06-2003 06:48:01 19.3 C 14.6 g/m*3 19.3 C 0 km/h
330 11-06-2003 06:58:01 19.4 C 14.52 g/m*3 19.4 C 0 km/h
331 11-06-2003 07:08:01 19.6 C 14.69 g/m*3 19.6 C 0 km/h
332 11-06-2003 07:18:01 19.7 C 14.77 g/m*3 19.7 C 0 km/h
333 11-06-2003 07:28:01 19.7 C 14.77 g/m*3 19.7 C 0 km/h
334 11-06-2003 07:38:01 19.7 C 14.77 g/m*3 19.7 C 0 km/h
335 11-06-2003 07:48:01 19.9 C 14.6 g/m*3 19.9 C 0 km/h
336 11-06-2003 07:58:01 20 C 14.52 g/m*3 20 C 0 km/h
337 11-06-2003 08:08:02 20.1 C 14.6 g/m*3 20.1 C 0 km/h
338 11-06-2003 08:18:02 20.1 C 14.6 g/m*3 20.1 C 0 km/h
339 11-06-2003 08:28:02 20.5 C 14.77 g/m*3 20.5 C 0 km/h
340 11-06-2003 08:58:02 20.9 C 14.39 g/m*3 20.9 C 0 km/h
341 11-06-2003 09:08:01 21.4 C 14.25 g/m*3 21.4 C 0 km/h
342 11-06-2003 09:08:02 21.4 C 14.25 g/m*3 21.4 C 0 km/h
343 11-06-2003 09:18:01 21.7 C 14.5 g/m*3 21.7 C 0 km/h
344 11-06-2003 09:28:01 22 C 13.78 g/m*3 22 C 0 km/h
345 11-06-2003 09:38:01 22.4 C 13.7 g/m*3 22.4 C 0 km/h
346 11-06-2003 09:48:01 22.7 C 13.54 g/m*3 22.7 C 0 km/h
347 11-06-2003 09:58:01 22.5 C 13.38 g/m*3 22.5 C 0 km/h
348 11-06-2003 10:08:01 22.8 C 13.41 g/m*3 22.8 C 0 km/h
349 11-06-2003 10:18:01 22.7 C 13.54 g/m*3 22.7 C 0 km/h
350 11-06-2003 10:28:01 23 C 13.77 g/m*3 23 C 0 km/h
Sensor: Nr:Datum:Temp:Abs-Feuchte:Windchill:Wind:
Aussen-T/F 351 11-06-2003 10:38:01 23.5 C 13.53 g/m*3 23.5 C 0 km/h
352 11-06-2003 10:48:01 24.2 C 12.98 g/m*3 24.2 C 0 km/h
353 11-06-2003 10:58:01 24.7 C 13.13 g/m*3 24.7 C 0 km/h
354 11-06-2003 11:08:01 25.1 C 12.5 g/m*3 25.1 C 0 km/h
355 11-06-2003 11:18:01 25.6 C 11.67 g/m*3 25.6 C 0 km/h
356 11-06-2003 11:28:01 25.3 C 11.71 g/m*3 25.3 C 0 km/h
357 11-06-2003 11:38:01 25.6 C 11.67 g/m*3 25.6 C 0 km/h
358 11-06-2003 11:48:01 25.1 C 10.88 g/m*3 25.1 C 0 km/h
359 11-06-2003 11:58:01 26.1 C 11.26 g/m*3 26.1 C 0 km/h
360 11-06-2003 12:08:01 25.9 C 10.65 g/m*3 25.9 C 0 km/h
361 11-06-2003 12:18:01 26.2 C 10.59 g/m*3 26.2 C 0 km/h
362 11-06-2003 12:28:01 27.5 C 10.58 g/m*3 27.5 C 0 km/h
363 11-06-2003 12:38:01 26.9 C 9.47 g/m*3 26.9 C 0 km/h
364 11-06-2003 12:48:01 27.3 C 9.16 g/m*3 27.3 C 0 km/h
365 11-06-2003 12:58:01 26.9 C 8.7 g/m*3 26.9 C 0 km/h
366 11-06-2003 13:08:01 27.7 C 8.83 g/m*3 27.7 C 0 km/h
367 11-06-2003 13:18:01 28.8 C 9.38 g/m*3 28.8 C 0 km/h
368 11-06-2003 13:28:01 27.8 C 8.61 g/m*3 27.8 C 0 km/h
369 11-06-2003 13:38:00 28.9 C 9.14 g/m*3 28.9 C 0 km/h
370 11-06-2003 13:48:00 28.3 C 9.12 g/m*3 28.3 C 0 km/h
371 11-06-2003 13:58:00 28 C 8.43 g/m*3 28 C 0 km/h
372 11-06-2003 14:08:01 27.7 C 8.83 g/m*3 27.7 C 0 km/h
373 11-06-2003 14:18:01 28.1 C 9.57 g/m*3 28.1 C 0 km/h
374 11-06-2003 14:28:01 28.3 C 9.4 g/m*3 28.3 C 0 km/h
375 11-06-2003 14:38:00 27.9 C 9.47 g/m*3 27.9 C 0 km/h
Sensor: Nr:Datum:Temp:Abs-Feuchte:Windchill:Wind:
Aussen-T/F 376 11-06-2003 14:48:00 28.1 C 9.3 g/m*3 28.1 C 0 km/h
377 11-06-2003 15:08:01 29.3 C 9.34 g/m*3 29.3 C 0 km/h
378 11-06-2003 15:18:01 29.4 C 9.1 g/m*3 29.4 C 0 km/h
379 11-06-2003 15:28:01 29.5 C 9.15 g/m*3 29.5 C 0 km/h
380 11-06-2003 15:38:01 29.2 C 9.29 g/m*3 29.2 C 0 km/h
381 11-06-2003 15:48:01 29.6 C 9.2 g/m*3 29.6 C 0 km/h
382 11-06-2003 15:58:01 29.5 C 8.85 g/m*3 29.5 C 0 km/h
383 11-06-2003 16:08:01 29.5 C 8.85 g/m*3 29.5 C 0 km/h
384 11-06-2003 16:18:01 29.6 C 8.9 g/m*3 29.6 C 0 km/h
385 11-06-2003 16:28:01 30 C 9.4 g/m*3 30 C 0 km/h
386 11-06-2003 16:38:02 30.1 C 9.15 g/m*3 30.1 C 0 km/h
387 11-06-2003 16:48:02 30.3 C 9.25 g/m*3 30.3 C 0 km/h
388 11-06-2003 16:58:02 30.6 C 9.4 g/m*3 30.6 C 0 km/h
389 11-06-2003 17:08:01 30.8 C 8.86 g/m*3 30.8 C 0 km/h
390 11-06-2003 17:18:01 30.3 C 8.94 g/m*3 30.3 C 0 km/h
391 11-06-2003 17:28:01 30.1 C 9.15 g/m*3 30.1 C 0 km/h
392 11-06-2003 17:38:02 30.1 C 9.45 g/m*3 30.1 C 0 km/h
393 11-06-2003 17:48:02 30 C 9.1 g/m*3 30 C 0 km/h
394 11-06-2003 17:58:02 30 C 8.79 g/m*3 30 C 0 km/h
395 11-06-2003 18:08:02 30.1 C 9.15 g/m*3 30.1 C 0 km/h
396 11-06-2003 18:18:02 30 C 8.79 g/m*3 30 C 0 km/h
397 11-06-2003 18:28:02 29.7 C 8.95 g/m*3 29.7 C 0 km/h
398 11-06-2003 18:38:01 29.4 C 9.39 g/m*3 29.4 C 0 km/h
399 11-06-2003 18:48:01 30 C 9.4 g/m*3 30 C 0 km/h
400 11-06-2003 18:58:01 29.9 C 9.35 g/m*3 29.9 C 0 km/h
Sensor: Nr:Datum:Temp:Abs-Feuchte:Windchill:Wind:
Aussen-T/F 401 11-06-2003 19:08:00 30 C 9.4 g/m*3 30 C 0 km/h
402 11-06-2003 19:18:00 30 C 9.4 g/m*3 30 C 0 km/h
403 11-06-2003 19:28:00 30 C 10.31 g/m*3 30 C 0 km/h
404 11-06-2003 19:37:44 30.3 C 10.48 g/m*3 30.3 C 0 km/h
405 11-06-2003 19:43:44 29.7 C 9.85 g/m*3 29.7 C 0 km/h
406 11-06-2003 19:49:44 29.9 C 10.56 g/m*3 29.9 C 0 km/h
407 11-06-2003 19:55:44 29 C 10.63 g/m*3 29 C 0 km/h
408 11-06-2003 20:01:01 29.2 C 11.03 g/m*3 29.2 C 0 km/h
409 11-06-2003 20:07:01 29.1 C 10.97 g/m*3 29.1 C 0 km/h
410 11-06-2003 20:13:01 29 C 11.2 g/m*3 29 C 0 km/h
411 11-06-2003 20:19:01 29 C 11.2 g/m*3 29 C 0 km/h
412 11-06-2003 20:25:01 28.4 C 11.12 g/m*3 28.4 C 0 km/h
413 11-06-2003 20:31:01 28.2 C 11.27 g/m*3 28.2 C 0 km/h
414 11-06-2003 20:37:02 28 C 11.42 g/m*3 28 C 0 km/h
415 11-06-2003 20:43:02 27.5 C 11.38 g/m*3 27.5 C 0 km/h
416 11-06-2003 20:49:02 27.3 C 11.51 g/m*3 27.3 C 0 km/h
417 11-06-2003 20:55:02 27.3 C 11.77 g/m*3 27.3 C 0 km/h
418 11-06-2003 21:01:02 26.8 C 11.71 g/m*3 26.8 C 0 km/h
419 11-06-2003 21:07:02 26.4 C 12.2 g/m*3 26.4 C 0 km/h
420 11-06-2003 21:19:02 25.6 C 12.62 g/m*3 25.6 C 0 km/h
421 11-06-2003 21:25:02 25.1 C 12.27 g/m*3 25.1 C 0 km/h
422 11-06-2003 21:31:02 24.8 C 12.29 g/m*3 24.8 C 0 km/h
423 11-06-2003 21:37:01 24.4 C 12.24 g/m*3 24.4 C 0 km/h
424 11-06-2003 21:43:01 23.9 C 12.11 g/m*3 23.9 C 0 km/h
425 11-06-2003 21:49:01 23.6 C 12.34 g/m*3 23.6 C 0 km/h
Sensor: Nr:Datum:Temp:Abs-Feuchte:Windchill:Wind:
Aussen-T/F 426 11-06-2003 21:55:01 23.5 C 12.48 g/m*3 23.5 C 0 km/h
427 11-06-2003 22:01:01 23.5 C 12.69 g/m*3 23.5 C 0 km/h
428 11-06-2003 22:08:02 23.2 C 12.27 g/m*3 23.2 C 0 km/h
429 11-06-2003 22:14:02 22.9 C 12.06 g/m*3 22.9 C 0 km/h
430 11-06-2003 22:20:02 22.7 C 11.92 g/m*3 22.7 C 0 km/h
431 11-06-2003 22:26:02 22.5 C 11.98 g/m*3 22.5 C 0 km/h
432 11-06-2003 22:32:02 22.1 C 11.91 g/m*3 22.1 C 0 km/h
433 11-06-2003 22:38:02 22 C 12.23 g/m*3 22 C 0 km/h
434 11-06-2003 22:44:02 21.9 C 11.96 g/m*3 21.9 C 0 km/h
435 11-06-2003 22:50:02 21.9 C 11.96 g/m*3 21.9 C 0 km/h
436 11-06-2003 22:56:02 21.7 C 12.02 g/m*3 21.7 C 0 km/h
437 11-06-2003 23:02:02 21.6 C 12.14 g/m*3 21.6 C 0 km/h
438 11-06-2003 23:08:02 21.6 C 12.14 g/m*3 21.6 C 0 km/h
439 11-06-2003 23:14:02 21.6 C 12.14 g/m*3 21.6 C 0 km/h
440 11-06-2003 23:20:02 21.6 C 11.95 g/m*3 21.6 C 0 km/h
441 11-06-2003 23:26:02 21.6 C 11.95 g/m*3 21.6 C 0 km/h
442 11-06-2003 23:32:02 21.6 C 11.95 g/m*3 21.6 C 0 km/h
443 11-06-2003 23:38:02 21.3 C 12.12 g/m*3 21.3 C 0 km/h
444 11-06-2003 23:44:02 21.2 C 12.05 g/m*3 21.2 C 0 km/h
445 11-06-2003 23:50:02 21 C 11.91 g/m*3 21 C 0 km/h
446 11-06-2003 23:56:02 20.8 C 12.13 g/m*3 20.8 C 0 km/h
447 12-06-2003 00:02:02 20.7 C 12.06 g/m*3 20.7 C 0 km/h
448 12-06-2003 00:08:02 20.6 C 12.17 g/m*3 20.6 C 0 km/h
449 12-06-2003 00:14:02 20.4 C 12.03 g/m*3 20.4 C 0 km/h
450 12-06-2003 00:20:02 20.4 C 12.03 g/m*3 20.4 C 0 km/h
Sensor: Nr:Datum:Temp:Abs-Feuchte:Windchill:Wind:
Aussen-T/F 451 12-06-2003 00:26:02 20.3 C 11.96 g/m*3 20.3 C 0 km/h
452 12-06-2003 00:32:02 20.1 C 12.17 g/m*3 20.1 C 0 km/h
453 12-06-2003 00:38:02 20 C 12.1 g/m*3 20 C 0 km/h
454 12-06-2003 00:44:02 19.8 C 12.3 g/m*3 19.8 C 0 km/h
455 12-06-2003 00:50:02 19.6 C 12.32 g/m*3 19.6 C 0 km/h
456 12-06-2003 00:56:02 19.5 C 12.25 g/m*3 19.5 C 0 km/h
457 12-06-2003 01:02:02 19.5 C 12.25 g/m*3 19.5 C 0 km/h
458 12-06-2003 01:08:02 19.5 C 12.25 g/m*3 19.5 C 0 km/h
459 12-06-2003 01:14:02 19.4 C 12.18 g/m*3 19.4 C 0 km/h
460 12-06-2003 01:20:02 19.3 C 12.11 g/m*3 19.3 C 0 km/h
461 12-06-2003 01:26:02 19.3 C 12.11 g/m*3 19.3 C 0 km/h
462 12-06-2003 01:32:02 19.2 C 12.04 g/m*3 19.2 C 0 km/h
463 12-06-2003 01:38:02 19.2 C 12.2 g/m*3 19.2 C 0 km/h
464 12-06-2003 01:44:02 19 C 12.22 g/m*3 19 C 0 km/h
465 12-06-2003 01:50:02 19 C 12.39 g/m*3 19 C 0 km/h
466 12-06-2003 01:56:02 18.7 C 12.33 g/m*3 18.7 C 0 km/h
467 12-06-2003 02:02:02 18.7 C 12.33 g/m*3 18.7 C 0 km/h
468 12-06-2003 02:08:02 18.5 C 12.34 g/m*3 18.5 C 0 km/h
469 12-06-2003 02:14:02 18.5 C 12.34 g/m*3 18.5 C 0 km/h
470 12-06-2003 02:20:02 18.4 C 12.27 g/m*3 18.4 C 0 km/h
471 12-06-2003 02:26:02 18.4 C 12.27 g/m*3 18.4 C 0 km/h
472 12-06-2003 02:32:02 18.2 C 12.28 g/m*3 18.2 C 0 km/h
473 12-06-2003 02:38:02 18.2 C 12.28 g/m*3 18.2 C 0 km/h
474 12-06-2003 02:44:02 18 C 12.13 g/m*3 18 C 0 km/h
475 12-06-2003 02:50:02 18.1 C 12.21 g/m*3 18.1 C 0 km/h
Sensor: Nr:Datum:Temp:Abs-Feuchte:Windchill:Wind:
Aussen-T/F 476 12-06-2003 02:56:02 18 C 12.13 g/m*3 18 C 0 km/h
477 12-06-2003 03:02:02 18 C 12.13 g/m*3 18 C 0 km/h
478 12-06-2003 03:08:02 18 C 12.13 g/m*3 18 C 0 km/h
479 12-06-2003 03:14:02 17.9 C 12.21 g/m*3 17.9 C 0 km/h
480 12-06-2003 03:20:02 17.9 C 12.21 g/m*3 17.9 C 0 km/h
481 12-06-2003 03:26:02 17.8 C 12.29 g/m*3 17.8 C 0 km/h
482 12-06-2003 03:32:02 17.7 C 12.22 g/m*3 17.7 C 0 km/h
483 12-06-2003 03:38:02 17.6 C 12.15 g/m*3 17.6 C 0 km/h
484 12-06-2003 03:44:02 17.5 C 12.23 g/m*3 17.5 C 0 km/h
485 12-06-2003 03:50:02 17.4 C 12.15 g/m*3 17.4 C 0 km/h
486 12-06-2003 03:56:02 17.3 C 11.93 g/m*3 17.3 C 0 km/h
487 12-06-2003 04:02:02 17.5 C 12.08 g/m*3 17.5 C 0 km/h
488 12-06-2003 04:08:02 17.4 C 12.15 g/m*3 17.4 C 0 km/h
489 12-06-2003 04:14:02 17.4 C 12.15 g/m*3 17.4 C 0 km/h
490 12-06-2003 04:20:02 17.3 C 12.08 g/m*3 17.3 C 0 km/h
491 12-06-2003 04:26:02 17.2 C 11.86 g/m*3 17.2 C 0 km/h
492 12-06-2003 04:32:02 17.2 C 11.86 g/m*3 17.2 C 0 km/h
493 12-06-2003 04:38:02 17.2 C 11.86 g/m*3 17.2 C 0 km/h
494 12-06-2003 04:44:02 17 C 11.72 g/m*3 17 C 0 km/h
495 12-06-2003 04:50:02 17 C 11.72 g/m*3 17 C 0 km/h
496 12-06-2003 04:56:02 16.9 C 11.94 g/m*3 16.9 C 0 km/h
497 12-06-2003 05:02:02 16.9 C 12.08 g/m*3 16.9 C 0 km/h
498 12-06-2003 05:08:02 16.7 C 11.94 g/m*3 16.7 C 0 km/h
499 12-06-2003 05:14:02 16.7 C 11.94 g/m*3 16.7 C 0 km/h
500 12-06-2003 05:20:02 16.7 C 11.94 g/m*3 16.7 C 0 km/h
Sensor: Nr:Datum:Temp:Abs-Feuchte:Windchill:Wind:
Aussen-T/F 501 12-06-2003 05:26:02 16.7 C 11.94 g/m*3 16.7 C 0 km/h
502 12-06-2003 05:32:02 16.7 C 11.94 g/m*3 16.7 C 0 km/h
503 12-06-2003 05:38:02 16.6 C 12.01 g/m*3 16.6 C 0 km/h
504 12-06-2003 05:44:02 16.6 C 11.87 g/m*3 16.6 C 0 km/h
505 12-06-2003 05:50:02 16.6 C 11.87 g/m*3 16.6 C 0 km/h
506 12-06-2003 05:56:02 16.7 C 12.08 g/m*3 16.7 C 0 km/h
507 12-06-2003 06:02:02 16.8 C 12.01 g/m*3 16.8 C 0 km/h
508 12-06-2003 06:08:02 16.9 C 12.08 g/m*3 16.9 C 0 km/h
509 12-06-2003 06:14:02 16.9 C 11.94 g/m*3 16.9 C 0 km/h
510 12-06-2003 06:20:02 17 C 12.01 g/m*3 17 C 0 km/h
511 12-06-2003 06:26:02 16.9 C 12.08 g/m*3 16.9 C 0 km/h
512 12-06-2003 06:32:02 16.8 C 12.01 g/m*3 16.8 C 0 km/h
513 12-06-2003 06:38:02 16.8 C 12.01 g/m*3 16.8 C 0 km/h
514 12-06-2003 06:44:02 16.7 C 11.94 g/m*3 16.7 C 0 km/h
515 12-06-2003 06:50:02 16.7 C 11.94 g/m*3 16.7 C 0 km/h
516 12-06-2003 06:56:02 16.8 C 12.15 g/m*3 16.8 C 0 km/h
517 12-06-2003 07:02:02 16.8 C 12.15 g/m*3 16.8 C 0 km/h
518 12-06-2003 07:08:02 17 C 12.15 g/m*3 17 C 0 km/h
519 12-06-2003 07:14:02 17.1 C 12.23 g/m*3 17.1 C 0 km/h
520 12-06-2003 07:20:02 17.2 C 12.3 g/m*3 17.2 C 0 km/h
521 12-06-2003 07:26:02 17.3 C 12.23 g/m*3 17.3 C 0 km/h
522 12-06-2003 07:32:01 17.4 C 12.15 g/m*3 17.4 C 0 km/h
523 12-06-2003 07:38:01 17.4 C 12.15 g/m*3 17.4 C 0 km/h
524 12-06-2003 07:44:01 17.6 C 12.3 g/m*3 17.6 C 0 km/h
525 12-06-2003 07:50:01 17.5 C 12.23 g/m*3 17.5 C 0 km/h
Sensor: Nr:Datum:Temp:Abs-Feuchte:Windchill:Wind:
Aussen-T/F 526 12-06-2003 07:56:01 17.7 C 12.22 g/m*3 17.7 C 0 km/h
527 12-06-2003 08:02:00 18 C 12.29 g/m*3 18 C 0 km/h
528 12-06-2003 08:08:00 18.1 C 12.36 g/m*3 18.1 C 0 km/h
529 12-06-2003 08:14:00 18.3 C 12.51 g/m*3 18.3 C 0 km/h
530 12-06-2003 08:20:00 18.5 C 12.5 g/m*3 18.5 C 0 km/h
531 12-06-2003 08:26:00 18.6 C 12.57 g/m*3 18.6 C 0 km/h
532 12-06-2003 08:32:01 18.7 C 12.49 g/m*3 18.7 C 0 km/h
533 12-06-2003 08:38:01 18.8 C 12.4 g/m*3 18.8 C 0 km/h
534 12-06-2003 08:44:01 19 C 12.39 g/m*3 19 C 0 km/h
535 12-06-2003 08:50:01 19.2 C 12.53 g/m*3 19.2 C 0 km/h
536 12-06-2003 08:56:01 19.4 C 12.51 g/m*3 19.4 C 0 km/h
537 12-06-2003 09:02:01 19.6 C 12.49 g/m*3 19.6 C 0 km/h
538 12-06-2003 09:08:01 19.9 C 12.54 g/m*3 19.9 C 0 km/h
539 12-06-2003 09:14:01 20.3 C 12.49 g/m*3 20.3 C 0 km/h
540 12-06-2003 09:20:01 20.8 C 12.86 g/m*3 20.8 C 0 km/h
541 12-06-2003 09:26:01 21.2 C 12.6 g/m*3 21.2 C 0 km/h
542 12-06-2003 09:32:02 21.5 C 12.07 g/m*3 21.5 C 0 km/h
543 12-06-2003 09:38:02 22 C 12.03 g/m*3 22 C 0 km/h
544 12-06-2003 09:44:02 22.3 C 12.05 g/m*3 22.3 C 0 km/h
545 12-06-2003 09:50:02 22.7 C 11.92 g/m*3 22.7 C 0 km/h
546 12-06-2003 09:56:02 22.9 C 12.06 g/m*3 22.9 C 0 km/h
547 12-06-2003 10:02:02 23.4 C 11.99 g/m*3 23.4 C 0 km/h
548 12-06-2003 10:08:02 23.8 C 12.05 g/m*3 23.8 C 0 km/h
549 12-06-2003 10:14:02 24.1 C 12.25 g/m*3 24.1 C 0 km/h
550 12-06-2003 10:20:02 24.1 C 11.6 g/m*3 24.1 C 0 km/h
Sensor: Nr:Datum:Temp:Abs-Feuchte:Windchill:Wind:
Aussen-T/F 551 12-06-2003 10:26:02 24.4 C 12.46 g/m*3 24.4 C 0 km/h
552 12-06-2003 10:32:01 24.8 C 12.97 g/m*3 24.8 C 0 km/h
553 12-06-2003 10:38:01 25 C 12.2 g/m*3 25 C 0 km/h
554 12-06-2003 10:44:01 25.3 C 12.17 g/m*3 25.3 C 0 km/h
555 12-06-2003 10:50:01 25.7 C 12.45 g/m*3 25.7 C 0 km/h
556 12-06-2003 10:56:01 26 C 12.17 g/m*3 26 C 0 km/h
557 12-06-2003 11:02:02 26.3 C 12.63 g/m*3 26.3 C 0 km/h
558 12-06-2003 11:08:02 26.6 C 12.59 g/m*3 26.6 C 0 km/h
559 12-06-2003 11:14:02 26.7 C 11.9 g/m*3 26.7 C 0 km/h
560 12-06-2003 11:20:02 27 C 12.1 g/m*3 27 C 0 km/h
561 12-06-2003 11:26:02 27.2 C 12.49 g/m*3 27.2 C 0 km/h
562 12-06-2003 11:32:01 27.5 C 12.7 g/m*3 27.5 C 0 km/h
563 12-06-2003 11:38:01 27.9 C 12.44 g/m*3 27.9 C 0 km/h
564 12-06-2003 11:44:01 27.9 C 12.17 g/m*3 27.9 C 0 km/h
565 12-06-2003 11:50:01 28.6 C 11.8 g/m*3 28.6 C 0 km/h
566 12-06-2003 11:56:01 29 C 12.35 g/m*3 29 C 0 km/h
567 12-06-2003 12:02:02 29.5 C 11.81 g/m*3 29.5 C 0 km/h
568 12-06-2003 12:08:02 29.7 C 11.34 g/m*3 29.7 C 0 km/h
569 12-06-2003 12:14:02 30 C 10.61 g/m*3 30 C 0 km/h
570 12-06-2003 12:20:02 30.4 C 10.85 g/m*3 30.4 C 0 km/h
571 12-06-2003 12:26:02 30.6 C 10.34 g/m*3 30.6 C 0 km/h
572 12-06-2003 12:32:01 30.9 C 10.5 g/m*3 30.9 C 0 km/h
573 12-06-2003 12:38:01 31 C 10.56 g/m*3 31 C 0 km/h
574 12-06-2003 12:44:01 30.9 C 9.55 g/m*3 30.9 C 0 km/h
575 12-06-2003 12:50:01 30.6 C 9.4 g/m*3 30.6 C 0 km/h
Sensor: Nr:Datum:Temp:Abs-Feuchte:Windchill:Wind:
Aussen-T/F 576 12-06-2003 12:56:01 31 C 9.28 g/m*3 31 C 0 km/h
577 12-06-2003 13:02:01 31.5 C 8.88 g/m*3 31.5 C 0 km/h
578 12-06-2003 13:08:01 31.6 C 8.26 g/m*3 31.6 C 0 km/h
579 12-06-2003 13:14:01 32 C 8.44 g/m*3 32 C 0 km/h
580 12-06-2003 13:20:01 32.2 C 8.53 g/m*3 32.2 C 0 km/h
581 12-06-2003 13:26:01 31.6 C 9.58 g/m*3 31.6 C 0 km/h
582 12-06-2003 13:32:01 32 C 9.11 g/m*3 32 C 0 km/h
583 12-06-2003 13:38:01 31.9 C 8.73 g/m*3 31.9 C 0 km/h
584 12-06-2003 13:44:01 32.3 C 8.58 g/m*3 32.3 C 0 km/h
585 12-06-2003 13:50:01 31.9 C 8.73 g/m*3 31.9 C 0 km/h
586 12-06-2003 13:56:01 31.7 C 8.97 g/m*3 31.7 C 0 km/h
587 12-06-2003 14:02:02 31.5 C 8.88 g/m*3 31.5 C 0 km/h
588 12-06-2003 14:08:02 31.3 C 9.43 g/m*3 31.3 C 0 km/h
589 12-06-2003 14:14:02 31.5 C 9.86 g/m*3 31.5 C 0 km/h
590 12-06-2003 14:20:02 31.8 C 10.02 g/m*3 31.8 C 0 km/h
591 12-06-2003 14:26:02 31.9 C 9.74 g/m*3 31.9 C 0 km/h
592 12-06-2003 14:32:01 31.8 C 9.69 g/m*3 31.8 C 0 km/h
593 12-06-2003 14:38:01 31.8 C 9.35 g/m*3 31.8 C 0 km/h
594 12-06-2003 14:44:01 31.8 C 9.69 g/m*3 31.8 C 0 km/h
595 12-06-2003 14:50:01 32 C 9.79 g/m*3 32 C 0 km/h
596 12-06-2003 14:56:01 32 C 9.79 g/m*3 32 C 0 km/h
597 12-06-2003 15:02:02 32.3 C 9.6 g/m*3 32.3 C 0 km/h
598 12-06-2003 15:08:02 32 C 9.11 g/m*3 32 C 0 km/h
599 12-06-2003 15:14:02 32 C 9.79 g/m*3 32 C 0 km/h
600 12-06-2003 15:20:02 31.8 C 9.35 g/m*3 31.8 C 0 km/h
Sensor: Nr:Datum:Temp:Abs-Feuchte:Windchill:Wind:
Aussen-T/F 601 12-06-2003 15:26:02 32.1 C 10.18 g/m*3 32.1 C 0 km/h
602 12-06-2003 15:32:01 32.1 C 9.84 g/m*3 32.1 C 0 km/h
603 12-06-2003 15:38:01 32 C 9.45 g/m*3 32 C 0 km/h
604 12-06-2003 15:44:01 32.1 C 9.84 g/m*3 32.1 C 0 km/h
605 12-06-2003 15:50:01 32.3 C 9.6 g/m*3 32.3 C 0 km/h
606 12-06-2003 15:56:01 32.5 C 9.71 g/m*3 32.5 C 0 km/h
607 12-06-2003 16:02:01 32.8 C 9.51 g/m*3 32.8 C 0 km/h
608 12-06-2003 16:08:01 32.8 C 9.16 g/m*3 32.8 C 0 km/h
609 12-06-2003 16:14:01 32.8 C 9.16 g/m*3 32.8 C 0 km/h
610 12-06-2003 16:20:01 32.5 C 9.71 g/m*3 32.5 C 0 km/h
611 12-06-2003 16:26:01 32 C 10.47 g/m*3 32 C 0 km/h
612 12-06-2003 16:32:20 31.5 C 10.52 g/m*3 31.5 C 0 km/h
613 12-06-2003 16:38:20 31 C 11.2 g/m*3 31 C 0 km/h
614 12-06-2003 16:44:20 30.6 C 11.59 g/m*3 30.6 C 0 km/h
615 12-06-2003 16:50:20 29.7 C 12.23 g/m*3 29.7 C 0 km/h
616 12-06-2003 16:56:45 27.4 C 13.94 g/m*3 27.4 C 0 km/h
617 12-06-2003 17:02:45 24.2 C 16.06 g/m*3 24.2 C 0 km/h
618 12-06-2003 17:08:45 23.1 C 16.54 g/m*3 23.1 C 0 km/h
619 12-06-2003 17:14:01 22.9 C 16.96 g/m*3 22.9 C 0 km/h
620 12-06-2003 17:20:01 23.1 C 17.78 g/m*3 23.1 C 0 km/h
621 12-06-2003 17:26:01 23.4 C 17.87 g/m*3 23.4 C 0 km/h
622 12-06-2003 17:32:21 23.8 C 17.85 g/m*3 23.8 C 0 km/h
623 12-06-2003 17:38:21 24.1 C 17.29 g/m*3 24.1 C 0 km/h
624 12-06-2003 17:50:02 24.4 C 17.36 g/m*3 24.4 C 0 km/h
625 12-06-2003 17:56:02 24.4 C 16.91 g/m*3 24.4 C 0 km/h
Sensor: Nr:Datum:Temp:Abs-Feuchte:Windchill:Wind:
Aussen-T/F 626 12-06-2003 18:03:02 24.5 C 17.46 g/m*3 24.5 C 0 km/h
627 12-06-2003 18:09:02 25.1 C 17.59 g/m*3 25.1 C 0 km/h
628 12-06-2003 18:15:02 25.4 C 17.42 g/m*3 25.4 C 0 km/h
629 12-06-2003 18:21:02 25.4 C 17.42 g/m*3 25.4 C 0 km/h
630 12-06-2003 18:27:02 25.7 C 17.72 g/m*3 25.7 C 0 km/h
631 12-06-2003 18:33:02 25.8 C 17.82 g/m*3 25.8 C 0 km/h
632 12-06-2003 18:39:02 25.6 C 17.14 g/m*3 25.6 C 0 km/h
633 12-06-2003 18:45:02 25.3 C 17.32 g/m*3 25.3 C 0 km/h
634 12-06-2003 18:51:02 25.2 C 17.23 g/m*3 25.2 C 0 km/h
635 12-06-2003 18:57:02 24.9 C 16.71 g/m*3 24.9 C 0 km/h
636 12-06-2003 19:03:02 24.8 C 17.3 g/m*3 24.8 C 0 km/h
637 12-06-2003 19:09:02 24.6 C 16.43 g/m*3 24.6 C 0 km/h
638 12-06-2003 19:15:02 24.6 C 16.66 g/m*3 24.6 C 0 km/h
639 12-06-2003 19:21:02 24.5 C 16.56 g/m*3 24.5 C 0 km/h
640 12-06-2003 19:27:02 24 C 16.32 g/m*3 24 C 0 km/h
641 12-06-2003 19:33:02 23.6 C 16.16 g/m*3 23.6 C 0 km/h
642 12-06-2003 19:39:02 23.3 C 15.47 g/m*3 23.3 C 0 km/h
643 12-06-2003 19:45:02 23.2 C 15.38 g/m*3 23.2 C 0 km/h
644 12-06-2003 19:51:02 22.9 C 15.33 g/m*3 22.9 C 0 km/h
645 12-06-2003 19:57:02 22.8 C 15.24 g/m*3 22.8 C 0 km/h
646 12-06-2003 20:03:02 23.2 C 15.8 g/m*3 23.2 C 0 km/h
647 12-06-2003 20:09:02 23.2 C 15.8 g/m*3 23.2 C 0 km/h
648 12-06-2003 20:15:02 23.3 C 15.89 g/m*3 23.3 C 0 km/h
649 12-06-2003 20:21:02 23.2 C 15.8 g/m*3 23.2 C 0 km/h
650 12-06-2003 20:27:02 23.1 C 15.92 g/m*3 23.1 C 0 km/h
Sensor: Nr:Datum:Temp:Abs-Feuchte:Windchill:Wind:
Aussen-T/F 651 12-06-2003 20:33:02 23.2 C 16.22 g/m*3 23.2 C 0 km/h
652 12-06-2003 20:39:02 23.1 C 16.33 g/m*3 23.1 C 0 km/h
653 12-06-2003 20:45:02 23.1 C 16.33 g/m*3 23.1 C 0 km/h
654 12-06-2003 20:51:02 23 C 16.24 g/m*3 23 C 0 km/h
655 12-06-2003 20:57:02 23 C 16.24 g/m*3 23 C 0 km/h
656 12-06-2003 21:03:02 22.8 C 16.26 g/m*3 22.8 C 0 km/h
657 12-06-2003 21:09:02 22.6 C 16.27 g/m*3 22.6 C 0 km/h
658 12-06-2003 21:15:02 22.5 C 16.38 g/m*3 22.5 C 0 km/h
659 12-06-2003 21:21:02 22.4 C 16.28 g/m*3 22.4 C 0 km/h
660 12-06-2003 21:27:02 22.5 C 16.58 g/m*3 22.5 C 0 km/h
661 12-06-2003 21:33:02 22.5 C 16.98 g/m*3 22.5 C 0 km/h
662 12-06-2003 21:39:02 22 C 16.89 g/m*3 22 C 0 km/h
663 12-06-2003 21:45:02 21.8 C 17.08 g/m*3 21.8 C 0 km/h
664 12-06-2003 21:51:02 21.3 C 16.78 g/m*3 21.3 C 0 km/h
665 12-06-2003 21:57:02 21.4 C 17.06 g/m*3 21.4 C 0 km/h
666 12-06-2003 22:03:02 21.1 C 16.77 g/m*3 21.1 C 0 km/h
667 12-06-2003 22:09:02 20.8 C 16.48 g/m*3 20.8 C 0 km/h
668 12-06-2003 22:15:02 20.7 C 16.38 g/m*3 20.7 C 0 km/h
669 12-06-2003 22:21:02 20.8 C 16.48 g/m*3 20.8 C 0 km/h
670 12-06-2003 22:27:02 20.7 C 16.38 g/m*3 20.7 C 0 km/h
671 12-06-2003 22:33:02 20.6 C 16.29 g/m*3 20.6 C 0 km/h
672 12-06-2003 22:39:02 20.4 C 16.1 g/m*3 20.4 C 0 km/h
673 12-06-2003 22:45:02 20.4 C 16.1 g/m*3 20.4 C 0 km/h
674 12-06-2003 22:57:02 20.1 C 15.82 g/m*3 20.1 C 0 km/h
675 12-06-2003 23:03:02 20 C 15.55 g/m*3 20 C 0 km/h
Sensor: Nr:Datum:Temp:Abs-Feuchte:Windchill:Wind:
Aussen-T/F 676 12-06-2003 23:09:02 20 C 15.55 g/m*3 20 C 0 km/h
677 12-06-2003 23:15:02 20 C 15.55 g/m*3 20 C 0 km/h
678 12-06-2003 23:21:02 19.9 C 15.63 g/m*3 19.9 C 0 km/h
679 12-06-2003 23:27:02 19.9 C 15.63 g/m*3 19.9 C 0 km/h
680 12-06-2003 23:33:02 20 C 15.55 g/m*3 20 C 0 km/h
681 12-06-2003 23:39:02 19.9 C 15.63 g/m*3 19.9 C 0 km/h
682 12-06-2003 23:45:02 19.9 C 15.63 g/m*3 19.9 C 0 km/h
683 12-06-2003 23:51:02 19.8 C 15.54 g/m*3 19.8 C 0 km/h
684 12-06-2003 23:57:02 19.8 C 15.54 g/m*3 19.8 C 0 km/h
685 13-06-2003 00:03:02 19.8 C 15.54 g/m*3 19.8 C 0 km/h
686 13-06-2003 00:09:02 19.8 C 15.54 g/m*3 19.8 C 0 km/h
687 13-06-2003 00:15:02 19.8 C 15.54 g/m*3 19.8 C 0 km/h
688 13-06-2003 00:21:02 19.7 C 15.45 g/m*3 19.7 C 0 km/h
689 13-06-2003 00:27:02 19.7 C 15.45 g/m*3 19.7 C 0 km/h
690 13-06-2003 00:33:02 19.7 C 15.45 g/m*3 19.7 C 0 km/h
691 13-06-2003 00:39:02 19.7 C 15.79 g/m*3 19.7 C 0 km/h
692 13-06-2003 00:45:02 19.7 C 15.45 g/m*3 19.7 C 0 km/h
693 13-06-2003 00:51:02 19.5 C 15.27 g/m*3 19.5 C 0 km/h
694 13-06-2003 00:57:02 19.5 C 15.27 g/m*3 19.5 C 0 km/h
695 13-06-2003 01:03:02 19.4 C 15.02 g/m*3 19.4 C 0 km/h
696 13-06-2003 01:09:02 19.3 C 14.93 g/m*3 19.3 C 0 km/h
697 13-06-2003 01:15:02 19.3 C 14.93 g/m*3 19.3 C 0 km/h
698 13-06-2003 01:21:02 19.2 C 14.84 g/m*3 19.2 C 0 km/h
699 13-06-2003 01:27:02 19 C 14.5 g/m*3 19 C 0 km/h
700 13-06-2003 01:33:02 18.9 C 14.42 g/m*3 18.9 C 0 km/h
Sensor: Nr:Datum:Temp:Abs-Feuchte:Windchill:Wind:
Aussen-T/F 701 13-06-2003 01:39:02 18.7 C 13.93 g/m*3 18.7 C 0 km/h
702 13-06-2003 01:45:02 18.6 C 13.85 g/m*3 18.6 C 0 km/h
703 13-06-2003 01:51:02 18.5 C 13.77 g/m*3 18.5 C 0 km/h
704 13-06-2003 01:57:02 18.4 C 13.68 g/m*3 18.4 C 0 km/h
705 13-06-2003 02:03:02 18.3 C 13.6 g/m*3 18.3 C 0 km/h
706 13-06-2003 02:09:02 18.2 C 13.37 g/m*3 18.2 C 0 km/h
707 13-06-2003 02:15:02 18.2 C 13.37 g/m*3 18.2 C 0 km/h
708 13-06-2003 02:21:02 18.2 C 13.37 g/m*3 18.2 C 0 km/h
709 13-06-2003 02:27:02 18.1 C 13.13 g/m*3 18.1 C 0 km/h
710 13-06-2003 02:33:02 18 C 12.75 g/m*3 18 C 0 km/h
711 13-06-2003 02:39:02 17.9 C 12.98 g/m*3 17.9 C 0 km/h
712 13-06-2003 02:45:02 17.6 C 12.75 g/m*3 17.6 C 0 km/h
713 13-06-2003 02:51:02 17.5 C 12.67 g/m*3 17.5 C 0 km/h
714 13-06-2003 02:57:02 17.4 C 12.6 g/m*3 17.4 C 0 km/h
715 13-06-2003 03:03:02 17.3 C 12.52 g/m*3 17.3 C 0 km/h
716 13-06-2003 03:09:02 17.4 C 12.45 g/m*3 17.4 C 0 km/h
717 13-06-2003 03:15:02 17.2 C 12.45 g/m*3 17.2 C 0 km/h
718 13-06-2003 03:21:02 17.2 C 12.3 g/m*3 17.2 C 0 km/h
719 13-06-2003 03:27:02 17 C 12.15 g/m*3 17 C 0 km/h
720 13-06-2003 03:33:02 16.9 C 12.37 g/m*3 16.9 C 0 km/h
721 13-06-2003 03:39:02 16.9 C 12.37 g/m*3 16.9 C 0 km/h
722 13-06-2003 03:45:02 16.8 C 12.3 g/m*3 16.8 C 0 km/h
723 13-06-2003 03:51:02 16.7 C 12.22 g/m*3 16.7 C 0 km/h
724 13-06-2003 03:57:02 16.7 C 12.22 g/m*3 16.7 C 0 km/h
725 13-06-2003 04:03:02 16.7 C 12.36 g/m*3 16.7 C 0 km/h
Sensor: Nr:Datum:Temp:Abs-Feuchte:Windchill:Wind:
Aussen-T/F 726 13-06-2003 04:09:02 16.7 C 12.36 g/m*3 16.7 C 0 km/h
727 13-06-2003 04:15:02 16.7 C 12.22 g/m*3 16.7 C 0 km/h
728 13-06-2003 04:21:02 16.8 C 12.01 g/m*3 16.8 C 0 km/h
729 13-06-2003 04:27:02 16.8 C 12.01 g/m*3 16.8 C 0 km/h
730 13-06-2003 04:33:02 16.6 C 12.01 g/m*3 16.6 C 0 km/h
731 13-06-2003 04:39:02 16.6 C 11.87 g/m*3 16.6 C 0 km/h
732 13-06-2003 04:45:02 16.6 C 11.87 g/m*3 16.6 C 0 km/h
733 13-06-2003 04:51:02 16.7 C 11.8 g/m*3 16.7 C 0 km/h
734 13-06-2003 04:57:02 16.7 C 11.8 g/m*3 16.7 C 0 km/h
735 13-06-2003 05:03:02 16.6 C 11.87 g/m*3 16.6 C 0 km/h
736 13-06-2003 05:09:02 16.6 C 11.87 g/m*3 16.6 C 0 km/h
737 13-06-2003 05:15:02 16.6 C 11.72 g/m*3 16.6 C 0 km/h
738 13-06-2003 05:21:02 16.6 C 11.58 g/m*3 16.6 C 0 km/h
739 13-06-2003 05:27:02 16.6 C 11.58 g/m*3 16.6 C 0 km/h
740 13-06-2003 05:33:02 16.6 C 11.72 g/m*3 16.6 C 0 km/h
741 13-06-2003 05:39:02 16.6 C 11.58 g/m*3 16.6 C 0 km/h
742 13-06-2003 05:45:02 16.5 C 11.65 g/m*3 16.5 C 0 km/h
743 13-06-2003 05:51:02 16.6 C 11.72 g/m*3 16.6 C 0 km/h
744 13-06-2003 05:57:02 16.6 C 11.58 g/m*3 16.6 C 0 km/h
745 13-06-2003 06:03:02 16.7 C 11.65 g/m*3 16.7 C 0 km/h
746 13-06-2003 06:09:02 16.7 C 11.8 g/m*3 16.7 C 0 km/h
747 13-06-2003 06:15:02 16.7 C 11.8 g/m*3 16.7 C 0 km/h
748 13-06-2003 06:21:02 16.6 C 11.72 g/m*3 16.6 C 0 km/h
749 13-06-2003 06:27:02 16.6 C 11.87 g/m*3 16.6 C 0 km/h
750 13-06-2003 06:33:02 16.6 C 11.87 g/m*3 16.6 C 0 km/h
Sensor: Nr:Datum:Temp:Abs-Feuchte:Windchill:Wind:
Aussen-T/F 751 13-06-2003 06:39:02 16.6 C 11.87 g/m*3 16.6 C 0 km/h
752 13-06-2003 06:45:02 16.7 C 11.94 g/m*3 16.7 C 0 km/h
753 13-06-2003 06:51:02 16.8 C 12.01 g/m*3 16.8 C 0 km/h
754 13-06-2003 06:57:02 16.9 C 12.23 g/m*3 16.9 C 0 km/h
755 13-06-2003 07:03:02 17 C 12.15 g/m*3 17 C 0 km/h
756 13-06-2003 07:09:02 17 C 12.15 g/m*3 17 C 0 km/h
757 13-06-2003 07:15:02 17.1 C 12.23 g/m*3 17.1 C 0 km/h
758 13-06-2003 07:21:02 17.2 C 12.15 g/m*3 17.2 C 0 km/h
759 13-06-2003 07:27:02 17.3 C 12.23 g/m*3 17.3 C 0 km/h
760 13-06-2003 07:33:00 17.4 C 12.15 g/m*3 17.4 C 0 km/h
761 13-06-2003 07:39:00 17.6 C 12.3 g/m*3 17.6 C 0 km/h
762 13-06-2003 07:45:00 17.5 C 12.08 g/m*3 17.5 C 0 km/h
763 13-06-2003 07:51:00 17.7 C 12.07 g/m*3 17.7 C 0 km/h
764 13-06-2003 07:57:00 17.7 C 11.77 g/m*3 17.7 C 0 km/h
765 13-06-2003 08:03:01 17.6 C 11.7 g/m*3 17.6 C 0 km/h
766 13-06-2003 08:09:01 17.6 C 11.85 g/m*3 17.6 C 0 km/h
767 13-06-2003 08:15:01 17.9 C 11.91 g/m*3 17.9 C 0 km/h
768 13-06-2003 08:21:01 18 C 11.52 g/m*3 18 C 0 km/h
769 13-06-2003 08:27:01 18.2 C 11.66 g/m*3 18.2 C 0 km/h
770 13-06-2003 08:39:01 18.6 C 11.78 g/m*3 18.6 C 0 km/h
771 13-06-2003 08:45:01 18.6 C 11.78 g/m*3 18.6 C 0 km/h
772 13-06-2003 08:51:01 18.8 C 11.92 g/m*3 18.8 C 0 km/h
773 13-06-2003 08:57:01 19.1 C 11.97 g/m*3 19.1 C 0 km/h
774 13-06-2003 09:03:01 19.4 C 11.85 g/m*3 19.4 C 0 km/h
775 13-06-2003 09:09:01 19.6 C 11.65 g/m*3 19.6 C 0 km/h
Sensor: Nr:Datum:Temp:Abs-Feuchte:Windchill:Wind:
Aussen-T/F 776 13-06-2003 09:15:01 19.2 C 11.54 g/m*3 19.2 C 0 km/h
777 13-06-2003 09:21:01 19.3 C 11.78 g/m*3 19.3 C 0 km/h
778 13-06-2003 09:27:01 19.6 C 12.15 g/m*3 19.6 C 0 km/h
779 13-06-2003 09:33:01 19.8 C 11.79 g/m*3 19.8 C 0 km/h
780 13-06-2003 09:39:01 20 C 11.75 g/m*3 20 C 0 km/h
781 13-06-2003 09:45:01 19.9 C 11.51 g/m*3 19.9 C 0 km/h
782 13-06-2003 09:51:01 19.7 C 11.38 g/m*3 19.7 C 0 km/h
783 13-06-2003 09:57:01 19.8 C 11.44 g/m*3 19.8 C 0 km/h
784 13-06-2003 10:09:55 20.5 C 11.74 g/m*3 20.5 C 0 km/h
785 13-06-2003 10:15:03 20.8 C 11.59 g/m*3 20.8 C 0 km/h
786 13-06-2003 10:21:03 21.6 C 12.14 g/m*3 21.6 C 0 km/h
787 13-06-2003 10:27:03 21.8 C 11.7 g/m*3 21.8 C 0 km/h
788 13-06-2003 10:33:01 21.6 C 11.57 g/m*3 21.6 C 0 km/h
789 13-06-2003 10:39:01 21.7 C 11.45 g/m*3 21.7 C 0 km/h
790 13-06-2003 10:45:01 21.9 C 11.58 g/m*3 21.9 C 0 km/h
791 13-06-2003 10:51:01 22.5 C 12.18 g/m*3 22.5 C 0 km/h
792 13-06-2003 10:57:01 22.5 C 11.58 g/m*3 22.5 C 0 km/h
793 13-06-2003 11:03:01 22.7 C 11.72 g/m*3 22.7 C 0 km/h
794 13-06-2003 11:09:01 22.9 C 11.85 g/m*3 22.9 C 0 km/h
795 13-06-2003 11:15:01 23.4 C 11.99 g/m*3 23.4 C 0 km/h
796 13-06-2003 11:21:01 22.9 C 11.85 g/m*3 22.9 C 0 km/h
797 13-06-2003 11:27:01 23.2 C 11.85 g/m*3 23.2 C 0 km/h
798 13-06-2003 11:33:01 23.6 C 12.34 g/m*3 23.6 C 0 km/h
799 13-06-2003 11:39:01 23.1 C 11.37 g/m*3 23.1 C 0 km/h
800 13-06-2003 11:45:01 23.7 C 12.19 g/m*3 23.7 C 0 km/h
Sensor: Nr:Datum:Temp:Abs-Feuchte:Windchill:Wind:
Aussen-T/F 801 13-06-2003 11:51:01 23.5 C 11.42 g/m*3 23.5 C 0 km/h
802 13-06-2003 11:57:01 23.5 C 11.84 g/m*3 23.5 C 0 km/h
803 13-06-2003 12:03:02 23.6 C 11.7 g/m*3 23.6 C 0 km/h
804 13-06-2003 12:09:02 24.4 C 11.79 g/m*3 24.4 C 0 km/h
805 13-06-2003 12:15:02 25.2 C 12.57 g/m*3 25.2 C 0 km/h
806 13-06-2003 12:21:02 25.9 C 12.1 g/m*3 25.9 C 0 km/h
807 13-06-2003 12:27:02 25.1 C 11.34 g/m*3 25.1 C 0 km/h
808 13-06-2003 12:33:01 25.7 C 11.49 g/m*3 25.7 C 0 km/h
809 13-06-2003 12:39:01 25.9 C 11.14 g/m*3 25.9 C 0 km/h
810 13-06-2003 12:45:01 25.3 C 11 g/m*3 25.3 C 0 km/h
811 13-06-2003 12:51:01 26.9 C 11.52 g/m*3 26.9 C 0 km/h
812 13-06-2003 12:57:01 27.7 C 11.23 g/m*3 27.7 C 0 km/h
813 13-06-2003 13:03:01 28.5 C 11.74 g/m*3 28.5 C 0 km/h
814 13-06-2003 13:09:01 28.3 C 10.78 g/m*3 28.3 C 0 km/h
815 13-06-2003 13:15:01 28.3 C 10.78 g/m*3 28.3 C 0 km/h
816 13-06-2003 13:21:01 28.3 C 9.95 g/m*3 28.3 C 0 km/h
817 13-06-2003 13:27:01 27.9 C 11.09 g/m*3 27.9 C 0 km/h
818 13-06-2003 13:33:01 27.8 C 10.49 g/m*3 27.8 C 0 km/h
819 13-06-2003 13:39:01 27.8 C 10.22 g/m*3 27.8 C 0 km/h
820 13-06-2003 13:45:01 28.6 C 10.4 g/m*3 28.6 C 0 km/h
821 13-06-2003 13:51:01 26.7 C 10.38 g/m*3 26.7 C 0 km/h
822 13-06-2003 13:57:01 26.3 C 10.4 g/m*3 26.3 C 0 km/h
823 13-06-2003 14:03:02 26.8 C 10.18 g/m*3 26.8 C 0 km/h
824 13-06-2003 14:09:02 27.4 C 9.74 g/m*3 27.4 C 0 km/h
825 13-06-2003 14:15:02 27.5 C 10.05 g/m*3 27.5 C 0 km/h
Sensor: Nr:Datum:Temp:Abs-Feuchte:Windchill:Wind:
Aussen-T/F 826 13-06-2003 14:21:02 27.5 C 10.05 g/m*3 27.5 C 0 km/h
827 13-06-2003 14:27:02 27.4 C 10 g/m*3 27.4 C 0 km/h
828 13-06-2003 14:33:01 27.9 C 10.82 g/m*3 27.9 C 0 km/h
829 13-06-2003 14:39:01 27.9 C 10.01 g/m*3 27.9 C 0 km/h
830 13-06-2003 14:45:01 28.5 C 10.06 g/m*3 28.5 C 0 km/h
831 13-06-2003 14:51:01 28.9 C 10 g/m*3 28.9 C 0 km/h
832 13-06-2003 14:57:01 28.3 C 9.68 g/m*3 28.3 C 0 km/h
833 13-06-2003 15:03:01 28.9 C 10 g/m*3 28.9 C 0 km/h
834 13-06-2003 15:09:01 28.4 C 9.73 g/m*3 28.4 C 0 km/h
835 13-06-2003 15:15:01 28.8 C 9.94 g/m*3 28.8 C 0 km/h
836 13-06-2003 15:21:01 29.3 C 9.34 g/m*3 29.3 C 0 km/h
837 13-06-2003 15:27:01 29.7 C 9.55 g/m*3 29.7 C 0 km/h
838 13-06-2003 15:33:01 30.3 C 9.55 g/m*3 30.3 C 0 km/h
839 13-06-2003 15:39:01 30.4 C 9.3 g/m*3 30.4 C 0 km/h
840 13-06-2003 15:45:01 30.6 C 9.4 g/m*3 30.6 C 0 km/h
841 13-06-2003 15:51:01 30.9 C 9.23 g/m*3 30.9 C 0 km/h
842 13-06-2003 15:57:01 30.4 C 8.68 g/m*3 30.4 C 0 km/h
843 13-06-2003 16:03:01 30.6 C 8.46 g/m*3 30.6 C 0 km/h
844 13-06-2003 16:09:01 30.3 C 8.94 g/m*3 30.3 C 0 km/h
845 13-06-2003 16:15:01 30.1 C 8.54 g/m*3 30.1 C 0 km/h
846 13-06-2003 16:21:01 30.1 C 8.84 g/m*3 30.1 C 0 km/h
847 13-06-2003 16:27:01 30.3 C 9.25 g/m*3 30.3 C 0 km/h
848 13-06-2003 16:33:00 31 C 8.64 g/m*3 31 C 0 km/h
849 13-06-2003 16:39:00 31.2 C 8.09 g/m*3 31.2 C 0 km/h
850 13-06-2003 16:45:00 30.8 C 8.23 g/m*3 30.8 C 0 km/h
Sensor: Nr:Datum:Temp:Abs-Feuchte:Windchill:Wind:
Aussen-T/F 851 13-06-2003 16:51:00 30.6 C 7.83 g/m*3 30.6 C 0 km/h
852 13-06-2003 16:57:00 30.8 C 8.23 g/m*3 30.8 C 0 km/h
853 13-06-2003 17:03:08 30.8 C 8.23 g/m*3 30.8 C 0 km/h
854 13-06-2003 17:09:08 30.6 C 8.14 g/m*3 30.6 C 0 km/h
855 13-06-2003 17:15:08 30.3 C 7.7 g/m*3 30.3 C 0 km/h
856 13-06-2003 17:21:08 30.6 C 7.83 g/m*3 30.6 C 0 km/h
857 13-06-2003 17:27:02 31 C 8 g/m*3 31 C 0 km/h
858 13-06-2003 17:33:00 31 C 7.68 g/m*3 31 C 0 km/h
859 13-06-2003 17:39:00 30 C 7.58 g/m*3 30 C 0 km/h
860 13-06-2003 17:45:00 30.3 C 8.01 g/m*3 30.3 C 0 km/h
861 13-06-2003 17:51:00 30.4 C 8.37 g/m*3 30.4 C 0 km/h
862 13-06-2003 17:57:00 30.9 C 7.96 g/m*3 30.9 C 0 km/h
863 13-06-2003 18:03:01 30.7 C 7.56 g/m*3 30.7 C 0 km/h
864 13-06-2003 18:09:01 30.4 C 7.75 g/m*3 30.4 C 0 km/h
865 13-06-2003 18:15:01 30.4 C 7.75 g/m*3 30.4 C 0 km/h
866 13-06-2003 18:21:01 30.4 C 8.06 g/m*3 30.4 C 0 km/h
867 13-06-2003 18:27:01 31 C 7.36 g/m*3 31 C 0 km/h
868 13-06-2003 18:33:01 31.3 C 7.48 g/m*3 31.3 C 0 km/h
869 13-06-2003 18:39:01 31.4 C 7.19 g/m*3 31.4 C 0 km/h
870 13-06-2003 18:45:01 31.3 C 7.15 g/m*3 31.3 C 0 km/h
871 13-06-2003 18:51:01 30.7 C 7.24 g/m*3 30.7 C 0 km/h
872 13-06-2003 18:57:01 30.5 C 7.17 g/m*3 30.5 C 0 km/h
873 13-06-2003 19:03:01 30.6 C 7.2 g/m*3 30.6 C 0 km/h
874 13-06-2003 19:09:01 30.4 C 7.44 g/m*3 30.4 C 0 km/h
875 13-06-2003 19:15:01 30.4 C 7.75 g/m*3 30.4 C 0 km/h
Sensor: Nr:Datum:Temp:Abs-Feuchte:Windchill:Wind:
Aussen-T/F 876 13-06-2003 19:21:01 30.4 C 7.75 g/m*3 30.4 C 0 km/h
877 13-06-2003 19:27:01 30 C 7.28 g/m*3 30 C 0 km/h
878 13-06-2003 19:33:00 30 C 7.28 g/m*3 30 C 0 km/h
879 13-06-2003 19:39:00 30.4 C 7.75 g/m*3 30.4 C 0 km/h
880 13-06-2003 19:45:00 30.4 C 7.13 g/m*3 30.4 C 0 km/h
881 13-06-2003 19:51:00 30.3 C 7.4 g/m*3 30.3 C 0 km/h
882 13-06-2003 19:57:00 30.1 C 7.32 g/m*3 30.1 C 0 km/h
883 13-06-2003 20:03:00 29.8 C 7.2 g/m*3 29.8 C 0 km/h
884 13-06-2003 20:09:00 29.2 C 7.55 g/m*3 29.2 C 0 km/h
885 13-06-2003 20:15:00 29.1 C 7.22 g/m*3 29.1 C 0 km/h
886 13-06-2003 20:21:00 28.5 C 6.99 g/m*3 28.5 C 0 km/h
887 13-06-2003 20:27:00 28.1 C 7.11 g/m*3 28.1 C 0 km/h
888 13-06-2003 20:33:02 28.1 C 8.75 g/m*3 28.1 C 0 km/h
889 13-06-2003 20:39:02 28.1 C 9.57 g/m*3 28.1 C 0 km/h
890 13-06-2003 20:45:02 27.7 C 9.9 g/m*3 27.7 C 0 km/h
891 13-06-2003 20:51:02 27.1 C 9.83 g/m*3 27.1 C 0 km/h
892 13-06-2003 20:57:02 26.3 C 9.41 g/m*3 26.3 C 0 km/h
893 13-06-2003 21:03:01 25.1 C 9.49 g/m*3 25.1 C 0 km/h
894 13-06-2003 21:09:01 24.6 C 9.45 g/m*3 24.6 C 0 km/h
895 13-06-2003 21:15:01 24 C 8.92 g/m*3 24 C 0 km/h
896 13-06-2003 21:21:01 23.4 C 8.83 g/m*3 23.4 C 0 km/h
897 13-06-2003 21:27:01 23 C 8.84 g/m*3 23 C 0 km/h
898 13-06-2003 21:33:01 22.8 C 8.53 g/m*3 22.8 C 0 km/h
899 13-06-2003 21:39:01 22.4 C 8.54 g/m*3 22.4 C 0 km/h
900 13-06-2003 21:45:01 22.1 C 8.2 g/m*3 22.1 C 0 km/h
Sensor: Nr:Datum:Temp:Abs-Feuchte:Windchill:Wind:
Aussen-T/F 901 13-06-2003 21:51:01 21.8 C 8.63 g/m*3 21.8 C 0 km/h
902 13-06-2003 21:57:01 21.6 C 8.53 g/m*3 21.6 C 0 km/h
903 13-06-2003 22:04:01 21.3 C 8.57 g/m*3 21.3 C 0 km/h
904 13-06-2003 22:10:01 21.1 C 9.21 g/m*3 21.1 C 0 km/h
905 13-06-2003 22:16:01 21.2 C 8.9 g/m*3 21.2 C 0 km/h
906 13-06-2003 22:22:01 20.9 C 8.74 g/m*3 20.9 C 0 km/h
907 13-06-2003 22:28:01 20.8 C 9.05 g/m*3 20.8 C 0 km/h
908 13-06-2003 22:34:01 20.6 C 9.13 g/m*3 20.6 C 0 km/h
909 13-06-2003 22:40:01 20.3 C 8.79 g/m*3 20.3 C 0 km/h
910 13-06-2003 22:46:01 20.4 C 9.02 g/m*3 20.4 C 0 km/h
911 13-06-2003 22:52:01 20.2 C 8.92 g/m*3 20.2 C 0 km/h
912 13-06-2003 22:58:01 20 C 8.99 g/m*3 20 C 0 km/h
913 13-06-2003 23:04:01 20.1 C 9.21 g/m*3 20.1 C 0 km/h
914 13-06-2003 23:10:01 19.7 C 9 g/m*3 19.7 C 0 km/h
915 13-06-2003 23:16:01 19.6 C 8.95 g/m*3 19.6 C 0 km/h
916 13-06-2003 23:22:01 19.6 C 9.12 g/m*3 19.6 C 0 km/h
917 13-06-2003 23:28:01 19.5 C 9.23 g/m*3 19.5 C 0 km/h
918 13-06-2003 23:34:01 19.5 C 9.06 g/m*3 19.5 C 0 km/h
919 13-06-2003 23:40:01 19.5 C 8.73 g/m*3 19.5 C 0 km/h
920 13-06-2003 23:46:01 19.4 C 8.84 g/m*3 19.4 C 0 km/h
921 13-06-2003 23:52:01 19.2 C 8.74 g/m*3 19.2 C 0 km/h
922 13-06-2003 23:58:01 19.1 C 8.85 g/m*3 19.1 C 0 km/h
923 14-06-2003 00:04:01 19 C 9.29 g/m*3 19 C 0 km/h
924 14-06-2003 00:10:01 18.7 C 8.81 g/m*3 18.7 C 0 km/h
925 14-06-2003 00:16:01 18.7 C 8.97 g/m*3 18.7 C 0 km/h
Sensor: Nr:Datum:Temp:Abs-Feuchte:Windchill:Wind:
Aussen-T/F 926 14-06-2003 00:22:01 18.6 C 8.91 g/m*3 18.6 C 0 km/h
927 14-06-2003 00:34:01 18.5 C 9.18 g/m*3 18.5 C 0 km/h
928 14-06-2003 00:40:01 18.3 C 9.07 g/m*3 18.3 C 0 km/h
929 14-06-2003 00:46:01 18.1 C 9.12 g/m*3 18.1 C 0 km/h
930 14-06-2003 00:52:01 18 C 9.22 g/m*3 18 C 0 km/h
931 14-06-2003 00:58:01 17.7 C 9.35 g/m*3 17.7 C 0 km/h
932 14-06-2003 01:04:01 17.7 C 9.35 g/m*3 17.7 C 0 km/h
933 14-06-2003 01:10:01 17.6 C 9.45 g/m*3 17.6 C 0 km/h
934 14-06-2003 01:16:01 17.4 C 9.19 g/m*3 17.4 C 0 km/h
935 14-06-2003 01:22:01 17.3 C 9.28 g/m*3 17.3 C 0 km/h
936 14-06-2003 01:28:01 17.2 C 9.23 g/m*3 17.2 C 0 km/h
937 14-06-2003 01:34:01 17.1 C 9.32 g/m*3 17.1 C 0 km/h
938 14-06-2003 01:40:01 17 C 9.26 g/m*3 17 C 0 km/h
939 14-06-2003 01:46:01 16.9 C 9.35 g/m*3 16.9 C 0 km/h
940 14-06-2003 01:52:01 16.9 C 9.49 g/m*3 16.9 C 0 km/h
941 14-06-2003 01:58:01 16.8 C 9.44 g/m*3 16.8 C 0 km/h
942 14-06-2003 02:04:01 16.8 C 9.44 g/m*3 16.8 C 0 km/h
943 14-06-2003 02:10:01 16.6 C 9.32 g/m*3 16.6 C 0 km/h
944 14-06-2003 02:16:01 16.6 C 9.46 g/m*3 16.6 C 0 km/h
945 14-06-2003 02:22:01 16.4 C 9.35 g/m*3 16.4 C 0 km/h
946 14-06-2003 02:28:01 16.2 C 9.38 g/m*3 16.2 C 0 km/h
947 14-06-2003 02:34:01 16.3 C 9.43 g/m*3 16.3 C 0 km/h
948 14-06-2003 02:40:01 16.2 C 9.38 g/m*3 16.2 C 0 km/h
949 14-06-2003 02:46:01 16.1 C 9.46 g/m*3 16.1 C 0 km/h
950 14-06-2003 02:52:01 15.9 C 9.34 g/m*3 15.9 C 0 km/h
Sensor: Nr:Datum:Temp:Abs-Feuchte:Windchill:Wind:
Aussen-T/F 951 14-06-2003 02:58:01 15.9 C 9.62 g/m*3 15.9 C 0 km/h
952 14-06-2003 03:04:01 15.8 C 9.69 g/m*3 15.8 C 0 km/h
953 14-06-2003 03:10:01 15.6 C 9.44 g/m*3 15.6 C 0 km/h
954 14-06-2003 03:16:01 15.4 C 9.46 g/m*3 15.4 C 0 km/h
955 14-06-2003 03:22:01 15.4 C 9.46 g/m*3 15.4 C 0 km/h
956 14-06-2003 03:28:01 15.4 C 9.46 g/m*3 15.4 C 0 km/h
957 14-06-2003 03:34:01 15.3 C 9.66 g/m*3 15.3 C 0 km/h
958 14-06-2003 03:40:01 15.3 C 9.53 g/m*3 15.3 C 0 km/h
959 14-06-2003 03:46:01 15.3 C 9.53 g/m*3 15.3 C 0 km/h
960 14-06-2003 03:52:01 15.4 C 9.59 g/m*3 15.4 C 0 km/h
961 14-06-2003 03:58:01 15.3 C 9.53 g/m*3 15.3 C 0 km/h
962 14-06-2003 04:04:01 15.2 C 9.48 g/m*3 15.2 C 0 km/h
963 14-06-2003 04:10:01 15.1 C 9.29 g/m*3 15.1 C 0 km/h
964 14-06-2003 04:16:01 15.1 C 9.42 g/m*3 15.1 C 0 km/h
965 14-06-2003 04:22:01 15 C 9.36 g/m*3 15 C 0 km/h
966 14-06-2003 04:28:01 15 C 9.36 g/m*3 15 C 0 km/h
967 14-06-2003 04:34:01 15 C 9.49 g/m*3 15 C 0 km/h
968 14-06-2003 04:40:01 14.8 C 9.5 g/m*3 14.8 C 0 km/h
969 14-06-2003 04:46:01 14.8 C 9.5 g/m*3 14.8 C 0 km/h
970 14-06-2003 04:52:01 14.6 C 9.39 g/m*3 14.6 C 0 km/h
971 14-06-2003 04:58:01 14.5 C 9.58 g/m*3 14.5 C 0 km/h
972 14-06-2003 05:04:01 14.4 C 9.52 g/m*3 14.4 C 0 km/h
973 14-06-2003 05:10:01 14.5 C 9.58 g/m*3 14.5 C 0 km/h
974 14-06-2003 05:16:01 14.5 C 9.58 g/m*3 14.5 C 0 km/h
975 14-06-2003 05:22:01 14.4 C 9.64 g/m*3 14.4 C 0 km/h
Sensor: Nr:Datum:Temp:Abs-Feuchte:Windchill:Wind:
Aussen-T/F 976 14-06-2003 05:28:01 14.4 C 9.52 g/m*3 14.4 C 0 km/h
977 14-06-2003 05:34:01 14.3 C 9.58 g/m*3 14.3 C 0 km/h
978 14-06-2003 05:40:01 14.3 C 9.58 g/m*3 14.3 C 0 km/h
979 14-06-2003 05:46:01 14.4 C 9.64 g/m*3 14.4 C 0 km/h
980 14-06-2003 05:52:01 14.4 C 9.64 g/m*3 14.4 C 0 km/h
981 14-06-2003 05:58:01 14.5 C 9.58 g/m*3 14.5 C 0 km/h
982 14-06-2003 06:04:01 14.5 C 9.7 g/m*3 14.5 C 0 km/h
983 14-06-2003 06:10:01 14.5 C 9.7 g/m*3 14.5 C 0 km/h
984 14-06-2003 06:16:01 14.5 C 9.83 g/m*3 14.5 C 0 km/h
985 14-06-2003 06:22:01 14.4 C 9.89 g/m*3 14.4 C 0 km/h
986 14-06-2003 06:28:01 14.5 C 9.95 g/m*3 14.5 C 0 km/h
987 14-06-2003 06:34:01 14.5 C 9.95 g/m*3 14.5 C 0 km/h
988 14-06-2003 06:40:01 14.5 C 9.95 g/m*3 14.5 C 0 km/h
989 14-06-2003 06:46:01 14.5 C 9.95 g/m*3 14.5 C 0 km/h
990 14-06-2003 06:52:01 14.5 C 9.95 g/m*3 14.5 C 0 km/h
991 14-06-2003 06:58:01 14.5 C 9.95 g/m*3 14.5 C 0 km/h
992 14-06-2003 07:04:01 14.6 C 10.01 g/m*3 14.6 C 0 km/h
993 14-06-2003 07:10:01 14.6 C 10.01 g/m*3 14.6 C 0 km/h
994 14-06-2003 07:16:01 14.5 C 9.95 g/m*3 14.5 C 0 km/h
995 14-06-2003 07:22:01 14.7 C 10.07 g/m*3 14.7 C 0 km/h
996 14-06-2003 07:28:01 14.7 C 10.07 g/m*3 14.7 C 0 km/h
997 14-06-2003 07:34:01 14.8 C 10.01 g/m*3 14.8 C 0 km/h
998 14-06-2003 07:40:01 14.9 C 10.07 g/m*3 14.9 C 0 km/h
999 14-06-2003 07:46:01 15 C 10 g/m*3 15 C 0 km/h
1000 14-06-2003 07:52:01 15.2 C 10.12 g/m*3 15.2 C 0 km/h
Sensor: Nr:Datum:Temp:Abs-Feuchte:Windchill:Wind:
Aussen-T/F 1001 14-06-2003 07:58:01 15.4 C 10.12 g/m*3 15.4 C 0 km/h
1002 14-06-2003 08:04:01 15.7 C 10.17 g/m*3 15.7 C 0 km/h
1003 14-06-2003 08:10:01 15.9 C 10.16 g/m*3 15.9 C 0 km/h
1004 14-06-2003 08:16:01 16.2 C 10.07 g/m*3 16.2 C 0 km/h
1005 14-06-2003 08:22:01 16.5 C 10.11 g/m*3 16.5 C 0 km/h
1006 14-06-2003 08:28:01 16.8 C 10.01 g/m*3 16.8 C 0 km/h
1007 14-06-2003 08:34:01 17 C 9.98 g/m*3 17 C 0 km/h
1008 14-06-2003 08:40:01 17.1 C 9.9 g/m*3 17.1 C 0 km/h
1009 14-06-2003 08:46:01 17.4 C 10.08 g/m*3 17.4 C 0 km/h
1010 14-06-2003 08:52:01 17.7 C 10.26 g/m*3 17.7 C 0 km/h
1011 14-06-2003 08:58:01 18.2 C 10.41 g/m*3 18.2 C 0 km/h
1012 14-06-2003 09:04:01 18.5 C 10.44 g/m*3 18.5 C 0 km/h
1013 14-06-2003 09:10:01 18.7 C 10.57 g/m*3 18.7 C 0 km/h
1014 14-06-2003 09:16:01 18.9 C 10.53 g/m*3 18.9 C 0 km/h
1015 14-06-2003 09:22:01 19.2 C 10.55 g/m*3 19.2 C 0 km/h
1016 14-06-2003 09:28:01 19.5 C 10.57 g/m*3 19.5 C 0 km/h
1017 14-06-2003 09:34:01 19.8 C 10.42 g/m*3 19.8 C 0 km/h
1018 14-06-2003 09:40:01 20.2 C 10.14 g/m*3 20.2 C 0 km/h
1019 14-06-2003 09:46:01 20.5 C 10.32 g/m*3 20.5 C 0 km/h
1020 14-06-2003 09:52:01 21.1 C 10.5 g/m*3 21.1 C 0 km/h
1021 14-06-2003 09:58:01 21.6 C 10.43 g/m*3 21.6 C 0 km/h
1022 14-06-2003 10:04:00 21.9 C 10.03 g/m*3 21.9 C 0 km/h
1023 14-06-2003 10:10:00 22.2 C 10.01 g/m*3 22.2 C 0 km/h
1024 14-06-2003 10:16:00 22.7 C 10.3 g/m*3 22.7 C 0 km/h
1025 14-06-2003 10:22:00 23.4 C 10.3 g/m*3 23.4 C 0 km/h
Sensor: Nr:Datum:Temp:Abs-Feuchte:Windchill:Wind:
Aussen-T/F 1026 14-06-2003 10:28:00 23.7 C 10.05 g/m*3 23.7 C 0 km/h
1027 14-06-2003 10:34:01 23.9 C 10.38 g/m*3 23.9 C 0 km/h
1028 14-06-2003 10:40:01 24.1 C 10.5 g/m*3 24.1 C 0 km/h
1029 14-06-2003 10:46:01 24 C 10.23 g/m*3 24 C 0 km/h
1030 14-06-2003 10:52:01 23.8 C 10.11 g/m*3 23.8 C 0 km/h
1031 14-06-2003 10:58:01 23.7 C 10.48 g/m*3 23.7 C 0 km/h
1032 14-06-2003 11:04:01 24.3 C 10.4 g/m*3 24.3 C 0 km/h
1033 14-06-2003 11:10:01 25.1 C 10.65 g/m*3 25.1 C 0 km/h
1034 14-06-2003 11:16:01 25.7 C 10.77 g/m*3 25.7 C 0 km/h
1035 14-06-2003 11:22:01 26 C 10.47 g/m*3 26 C 0 km/h
1036 14-06-2003 11:28:01 26.3 C 10.15 g/m*3 26.3 C 0 km/h
1037 14-06-2003 11:34:02 26.3 C 10.15 g/m*3 26.3 C 0 km/h
1038 14-06-2003 11:40:02 26.4 C 10.46 g/m*3 26.4 C 0 km/h
1039 14-06-2003 11:46:02 26.5 C 11.01 g/m*3 26.5 C 0 km/h
1040 14-06-2003 11:52:02 26.4 C 11.45 g/m*3 26.4 C 0 km/h
1041 14-06-2003 11:58:02 26.3 C 11.39 g/m*3 26.3 C 0 km/h
1042 14-06-2003 12:04:01 26 C 10.47 g/m*3 26 C 0 km/h
1043 14-06-2003 12:10:01 25.3 C 11 g/m*3 25.3 C 0 km/h
1044 14-06-2003 12:16:01 24.7 C 12.22 g/m*3 24.7 C 0 km/h
1045 14-06-2003 12:22:01 24 C 12.62 g/m*3 24 C 0 km/h
1046 14-06-2003 12:28:01 23.5 C 12.27 g/m*3 23.5 C 0 km/h
1047 14-06-2003 12:34:01 23.1 C 12.82 g/m*3 23.1 C 0 km/h
1048 14-06-2003 12:40:01 22.8 C 13 g/m*3 22.8 C 0 km/h
1049 14-06-2003 12:46:01 22.5 C 12.78 g/m*3 22.5 C 0 km/h
1050 14-06-2003 12:52:01 22.2 C 12.96 g/m*3 22.2 C 0 km/h
Sensor: Nr:Datum:Temp:Abs-Feuchte:Windchill:Wind:
Aussen-T/F 1051 14-06-2003 12:58:01 21.9 C 13.12 g/m*3 21.9 C 0 km/h
1052 14-06-2003 13:04:03 21.8 C 13.24 g/m*3 21.8 C 0 km/h
1053 14-06-2003 13:10:03 21 C 12.09 g/m*3 21 C 0 km/h
1054 14-06-2003 13:16:01 20.7 C 11.88 g/m*3 20.7 C 0 km/h
1055 14-06-2003 13:22:01 20.2 C 11.89 g/m*3 20.2 C 0 km/h
1056 14-06-2003 13:28:01 19.5 C 12.42 g/m*3 19.5 C 0 km/h
1057 14-06-2003 13:34:02 18.9 C 12.47 g/m*3 18.9 C 0 km/h
1058 14-06-2003 13:40:02 18.3 C 12.2 g/m*3 18.3 C 0 km/h
1059 14-06-2003 13:46:02 17.8 C 12.45 g/m*3 17.8 C 0 km/h
1060 14-06-2003 13:52:02 17.4 C 12.45 g/m*3 17.4 C 0 km/h
1061 14-06-2003 13:58:02 17.2 C 12.45 g/m*3 17.2 C 0 km/h
1062 14-06-2003 14:04:02 17 C 12.59 g/m*3 17 C 0 km/h
1063 14-06-2003 14:10:02 16.6 C 12.43 g/m*3 16.6 C 0 km/h
1064 14-06-2003 14:16:02 16.8 C 12.72 g/m*3 16.8 C 0 km/h
1065 14-06-2003 14:22:02 17 C 12.88 g/m*3 17 C 0 km/h
1066 14-06-2003 14:28:02 17.3 C 13.26 g/m*3 17.3 C 0 km/h
1067 14-06-2003 14:34:02 17.6 C 13.5 g/m*3 17.6 C 0 km/h
1068 14-06-2003 14:40:02 18.6 C 14.17 g/m*3 18.6 C 0 km/h
1069 14-06-2003 14:46:02 18.8 C 14.01 g/m*3 18.8 C 0 km/h
1070 14-06-2003 14:52:02 18.8 C 13.37 g/m*3 18.8 C 0 km/h
1071 14-06-2003 14:58:02 19 C 13.36 g/m*3 19 C 0 km/h
1072 14-06-2003 15:04:01 19.6 C 14.01 g/m*3 19.6 C 0 km/h
1073 14-06-2003 15:10:01 20 C 14 g/m*3 20 C 0 km/h
1074 14-06-2003 15:16:01 20.4 C 14.15 g/m*3 20.4 C 0 km/h
1075 14-06-2003 15:22:01 20.7 C 14.04 g/m*3 20.7 C 0 km/h
Sensor: Nr:Datum:Temp:Abs-Feuchte:Windchill:Wind:
Aussen-T/F 1076 14-06-2003 15:28:01 21 C 13.56 g/m*3 21 C 0 km/h
1077 14-06-2003 15:34:00 21.2 C 13.16 g/m*3 21.2 C 0 km/h
1078 14-06-2003 15:40:00 21.3 C 13.61 g/m*3 21.3 C 0 km/h
1079 14-06-2003 15:46:00 21.6 C 13.09 g/m*3 21.6 C 0 km/h
1080 14-06-2003 15:52:00 21.8 C 13.24 g/m*3 21.8 C 0 km/h
1081 14-06-2003 15:58:00 22 C 13.39 g/m*3 22 C 0 km/h
1082 14-06-2003 16:04:01 22.2 C 13.15 g/m*3 22.2 C 0 km/h
1083 14-06-2003 16:10:01 22.4 C 13.11 g/m*3 22.4 C 0 km/h
1084 14-06-2003 16:16:01 23.3 C 12.75 g/m*3 23.3 C 0 km/h
1085 14-06-2003 16:22:01 23.3 C 12.34 g/m*3 23.3 C 0 km/h
1086 14-06-2003 16:28:01 23.4 C 12.41 g/m*3 23.4 C 0 km/h
1087 14-06-2003 16:34:02 24.7 C 12.68 g/m*3 24.7 C 0 km/h
1088 14-06-2003 16:40:02 24.6 C 12.6 g/m*3 24.6 C 0 km/h
1089 14-06-2003 16:46:02 23.9 C 12.33 g/m*3 23.9 C 0 km/h
1090 14-06-2003 16:52:02 23.3 C 11.92 g/m*3 23.3 C 0 km/h
1091 14-06-2003 16:58:02 22.8 C 11.99 g/m*3 22.8 C 0 km/h
1092 14-06-2003 17:04:02 22.8 C 12.4 g/m*3 22.8 C 0 km/h
1093 14-06-2003 17:10:02 22.9 C 12.47 g/m*3 22.9 C 0 km/h
1094 14-06-2003 17:16:02 22.9 C 12.47 g/m*3 22.9 C 0 km/h
1095 14-06-2003 17:22:02 23.3 C 12.55 g/m*3 23.3 C 0 km/h
1096 14-06-2003 17:28:02 23.8 C 12.91 g/m*3 23.8 C 0 km/h
1097 14-06-2003 17:34:01 24.1 C 12.03 g/m*3 24.1 C 0 km/h
1098 14-06-2003 17:40:01 24.3 C 11.95 g/m*3 24.3 C 0 km/h
1099 14-06-2003 17:46:01 24.3 C 12.39 g/m*3 24.3 C 0 km/h
1100 14-06-2003 17:52:01 23.7 C 11.98 g/m*3 23.7 C 0 km/h
Sensor: Nr:Datum:Temp:Abs-Feuchte:Windchill:Wind:
Aussen-T/F 1101 14-06-2003 17:58:01 23.5 C 12.27 g/m*3 23.5 C 0 km/h
1102 14-06-2003 18:04:01 24.2 C 12.76 g/m*3 24.2 C 0 km/h
1103 14-06-2003 18:10:01 24.1 C 12.25 g/m*3 24.1 C 0 km/h
1104 14-06-2003 18:16:01 23.7 C 12.62 g/m*3 23.7 C 0 km/h
1105 14-06-2003 18:22:01 23.7 C 12.62 g/m*3 23.7 C 0 km/h
1106 14-06-2003 18:28:01 23.7 C 13.26 g/m*3 23.7 C 0 km/h
1107 14-06-2003 18:34:01 23.7 C 13.69 g/m*3 23.7 C 0 km/h
1108 14-06-2003 18:40:01 23.3 C 13.59 g/m*3 23.3 C 0 km/h
1109 14-06-2003 18:46:01 23 C 13.57 g/m*3 23 C 0 km/h
1110 14-06-2003 18:52:01 22.7 C 13.74 g/m*3 22.7 C 0 km/h
1111 14-06-2003 18:58:01 22.5 C 13.58 g/m*3 22.5 C 0 km/h
1112 14-06-2003 19:04:02 22 C 13.2 g/m*3 22 C 0 km/h
1113 14-06-2003 19:10:02 21.6 C 13.47 g/m*3 21.6 C 0 km/h
1114 14-06-2003 19:16:02 21.4 C 13.5 g/m*3 21.4 C 0 km/h
1115 14-06-2003 19:22:02 21.4 C 13.5 g/m*3 21.4 C 0 km/h
1116 14-06-2003 19:28:02 21.6 C 13.66 g/m*3 21.6 C 0 km/h
1117 14-06-2003 19:34:02 21.7 C 13.73 g/m*3 21.7 C 0 km/h
1118 14-06-2003 19:40:02 21.8 C 13.81 g/m*3 21.8 C 0 km/h
1119 14-06-2003 19:46:02 21.7 C 13.73 g/m*3 21.7 C 0 km/h
1120 14-06-2003 19:52:02 21.7 C 13.93 g/m*3 21.7 C 0 km/h
1121 14-06-2003 19:58:02 21.4 C 13.87 g/m*3 21.4 C 0 km/h
1122 14-06-2003 20:04:00 21.3 C 13.79 g/m*3 21.3 C 0 km/h
1123 14-06-2003 20:10:00 21.3 C 13.98 g/m*3 21.3 C 0 km/h
1124 14-06-2003 20:16:00 21.1 C 13.63 g/m*3 21.1 C 0 km/h
1125 14-06-2003 20:22:00 20.9 C 13.48 g/m*3 20.9 C 0 km/h
Sensor: Nr:Datum:Temp:Abs-Feuchte:Windchill:Wind:
Aussen-T/F 1126 14-06-2003 20:28:00 20.8 C 13.58 g/m*3 20.8 C 0 km/h
1127 14-06-2003 20:34:00 20.6 C 13.24 g/m*3 20.6 C 0 km/h
1128 14-06-2003 20:40:00 20.4 C 13.27 g/m*3 20.4 C 0 km/h
1129 14-06-2003 20:46:00 20.4 C 13.27 g/m*3 20.4 C 0 km/h
1130 14-06-2003 20:52:00 20.3 C 13.19 g/m*3 20.3 C 0 km/h
1131 14-06-2003 20:58:00 20.2 C 13.29 g/m*3 20.2 C 0 km/h
1132 14-06-2003 21:04:02 20.2 C 13.29 g/m*3 20.2 C 0 km/h
1133 14-06-2003 21:10:02 20.1 C 13.39 g/m*3 20.1 C 0 km/h
1134 14-06-2003 21:16:02 20.1 C 13.21 g/m*3 20.1 C 0 km/h
1135 14-06-2003 21:22:02 20.1 C 13.21 g/m*3 20.1 C 0 km/h
1136 14-06-2003 21:28:02 20.1 C 13.21 g/m*3 20.1 C 0 km/h
1137 14-06-2003 21:34:00 20 C 13.31 g/m*3 20 C 0 km/h
1138 14-06-2003 21:40:00 20 C 13.31 g/m*3 20 C 0 km/h
1139 14-06-2003 21:46:00 19.9 C 13.4 g/m*3 19.9 C 0 km/h
1140 14-06-2003 21:52:00 19.9 C 13.4 g/m*3 19.9 C 0 km/h
1141 14-06-2003 21:58:00 19.8 C 13.32 g/m*3 19.8 C 0 km/h
1142 14-06-2003 22:04:01 19.8 C 13.32 g/m*3 19.8 C 0 km/h
1143 14-06-2003 22:10:01 19.8 C 13.32 g/m*3 19.8 C 0 km/h
1144 14-06-2003 22:16:01 19.5 C 13.26 g/m*3 19.5 C 0 km/h
1145 14-06-2003 22:22:01 19.4 C 13.18 g/m*3 19.4 C 0 km/h
1146 14-06-2003 22:28:01 19.3 C 13.1 g/m*3 19.3 C 0 km/h
1147 14-06-2003 22:35:02 19.3 C 12.94 g/m*3 19.3 C 0 km/h
1148 14-06-2003 22:41:02 19.3 C 12.94 g/m*3 19.3 C 0 km/h
1149 14-06-2003 22:47:02 19.3 C 13.1 g/m*3 19.3 C 0 km/h
1150 14-06-2003 22:53:02 19.2 C 13.19 g/m*3 19.2 C 0 km/h
Sensor: Nr:Datum:Temp:Abs-Feuchte:Windchill:Wind:
Aussen-T/F 1151 14-06-2003 22:59:02 19.1 C 12.95 g/m*3 19.1 C 0 km/h
1152 14-06-2003 23:05:02 19.1 C 12.79 g/m*3 19.1 C 0 km/h
1153 14-06-2003 23:11:02 18.9 C 12.8 g/m*3 18.9 C 0 km/h
1154 14-06-2003 23:17:02 18.8 C 12.72 g/m*3 18.8 C 0 km/h
1155 14-06-2003 23:23:02 18.8 C 12.72 g/m*3 18.8 C 0 km/h
1156 14-06-2003 23:29:02 18.7 C 12.81 g/m*3 18.7 C 0 km/h
1157 14-06-2003 23:35:02 18.6 C 12.73 g/m*3 18.6 C 0 km/h
1158 14-06-2003 23:41:02 18.5 C 12.66 g/m*3 18.5 C 0 km/h
1159 14-06-2003 23:47:02 18.3 C 12.51 g/m*3 18.3 C 0 km/h
1160 14-06-2003 23:53:02 18.2 C 12.43 g/m*3 18.2 C 0 km/h
1161 14-06-2003 23:59:02 18.1 C 12.36 g/m*3 18.1 C 0 km/h
1162 15-06-2003 00:05:02 18 C 12.13 g/m*3 18 C 0 km/h
1163 15-06-2003 00:11:02 18 C 11.98 g/m*3 18 C 0 km/h
1164 15-06-2003 00:17:02 18 C 11.98 g/m*3 18 C 0 km/h
1165 15-06-2003 00:23:02 17.9 C 11.91 g/m*3 17.9 C 0 km/h
1166 15-06-2003 00:29:02 17.8 C 11.99 g/m*3 17.8 C 0 km/h
1167 15-06-2003 00:35:02 17.7 C 11.92 g/m*3 17.7 C 0 km/h
1168 15-06-2003 00:41:02 17.6 C 11.85 g/m*3 17.6 C 0 km/h
1169 15-06-2003 00:47:02 17.5 C 11.93 g/m*3 17.5 C 0 km/h
1170 15-06-2003 00:53:02 17.4 C 11.86 g/m*3 17.4 C 0 km/h
1171 15-06-2003 00:59:02 17.4 C 11.86 g/m*3 17.4 C 0 km/h
1172 15-06-2003 01:05:02 17.2 C 11.72 g/m*3 17.2 C 0 km/h
1173 15-06-2003 01:11:02 17.2 C 11.72 g/m*3 17.2 C 0 km/h
1174 15-06-2003 01:17:02 17.3 C 11.79 g/m*3 17.3 C 0 km/h
1175 15-06-2003 01:23:02 17.3 C 11.79 g/m*3 17.3 C 0 km/h
Sensor: Nr:Datum:Temp:Abs-Feuchte:Windchill:Wind:
Aussen-T/F 1176 15-06-2003 01:29:02 17.4 C 11.86 g/m*3 17.4 C 0 km/h
1177 15-06-2003 01:35:02 17.4 C 11.86 g/m*3 17.4 C 0 km/h
1178 15-06-2003 01:41:02 17.5 C 11.93 g/m*3 17.5 C 0 km/h
1179 15-06-2003 01:47:02 17.5 C 11.93 g/m*3 17.5 C 0 km/h
1180 15-06-2003 01:53:02 17.3 C 11.79 g/m*3 17.3 C 0 km/h
1181 15-06-2003 01:59:02 17.2 C 11.57 g/m*3 17.2 C 0 km/h
1182 15-06-2003 02:11:02 16.9 C 11.65 g/m*3 16.9 C 0 km/h
1183 15-06-2003 02:17:02 16.8 C 11.58 g/m*3 16.8 C 0 km/h
1184 15-06-2003 02:23:02 16.8 C 11.72 g/m*3 16.8 C 0 km/h
1185 15-06-2003 02:29:02 16.6 C 11.58 g/m*3 16.6 C 0 km/h
1186 15-06-2003 02:35:02 16.6 C 11.44 g/m*3 16.6 C 0 km/h
1187 15-06-2003 02:41:02 16.6 C 11.3 g/m*3 16.6 C 0 km/h
1188 15-06-2003 02:47:02 16.6 C 11.16 g/m*3 16.6 C 0 km/h
1189 15-06-2003 02:53:02 16.7 C 11.23 g/m*3 16.7 C 0 km/h
1190 15-06-2003 02:59:02 16.6 C 11.16 g/m*3 16.6 C 0 km/h
1191 15-06-2003 03:05:02 16.4 C 11.17 g/m*3 16.4 C 0 km/h
1192 15-06-2003 03:11:02 16.2 C 10.89 g/m*3 16.2 C 0 km/h
1193 15-06-2003 03:17:02 16.1 C 10.83 g/m*3 16.1 C 0 km/h
1194 15-06-2003 03:23:02 16 C 10.9 g/m*3 16 C 0 km/h
1195 15-06-2003 03:29:02 15.8 C 10.9 g/m*3 15.8 C 0 km/h
1196 15-06-2003 03:35:02 15.7 C 10.97 g/m*3 15.7 C 0 km/h
1197 15-06-2003 03:41:02 15.6 C 10.91 g/m*3 15.6 C 0 km/h
1198 15-06-2003 03:47:02 15.6 C 10.91 g/m*3 15.6 C 0 km/h
1199 15-06-2003 03:53:02 15.6 C 10.91 g/m*3 15.6 C 0 km/h
1200 15-06-2003 03:59:02 15.7 C 10.97 g/m*3 15.7 C 0 km/h
Sensor: Nr:Datum:Temp:Abs-Feuchte:Windchill:Wind:
Aussen-T/F 1201 15-06-2003 04:05:02 15.8 C 10.9 g/m*3 15.8 C 0 km/h
1202 15-06-2003 04:11:02 15.9 C 10.97 g/m*3 15.9 C 0 km/h
1203 15-06-2003 04:17:02 16 C 10.76 g/m*3 16 C 0 km/h
1204 15-06-2003 04:23:02 16 C 10.63 g/m*3 16 C 0 km/h
1205 15-06-2003 04:29:02 16 C 10.63 g/m*3 16 C 0 km/h
1206 15-06-2003 04:35:02 16 C 10.63 g/m*3 16 C 0 km/h
1207 15-06-2003 04:41:02 15.9 C 10.7 g/m*3 15.9 C 0 km/h
1208 15-06-2003 04:47:02 15.8 C 10.77 g/m*3 15.8 C 0 km/h
1209 15-06-2003 04:53:02 15.7 C 10.84 g/m*3 15.7 C 0 km/h
1210 15-06-2003 04:59:02 15.6 C 10.77 g/m*3 15.6 C 0 km/h
1211 15-06-2003 05:05:02 15.5 C 10.71 g/m*3 15.5 C 0 km/h
1212 15-06-2003 05:11:02 15.4 C 10.64 g/m*3 15.4 C 0 km/h
1213 15-06-2003 05:17:02 15.4 C 10.77 g/m*3 15.4 C 0 km/h
1214 15-06-2003 05:23:02 15.2 C 10.64 g/m*3 15.2 C 0 km/h
1215 15-06-2003 05:29:02 15.1 C 10.58 g/m*3 15.1 C 0 km/h
1216 15-06-2003 05:35:02 15 C 10.51 g/m*3 15 C 0 km/h
1217 15-06-2003 05:41:02 15 C 10.51 g/m*3 15 C 0 km/h
1218 15-06-2003 05:47:02 15 C 10.51 g/m*3 15 C 0 km/h
1219 15-06-2003 05:53:02 14.9 C 10.71 g/m*3 14.9 C 0 km/h
1220 15-06-2003 05:59:02 14.9 C 10.58 g/m*3 14.9 C 0 km/h
1221 15-06-2003 06:05:02 14.8 C 10.51 g/m*3 14.8 C 0 km/h
1222 15-06-2003 06:11:02 14.9 C 10.58 g/m*3 14.9 C 0 km/h
1223 15-06-2003 06:17:02 14.9 C 10.58 g/m*3 14.9 C 0 km/h
1224 15-06-2003 06:23:02 14.9 C 10.58 g/m*3 14.9 C 0 km/h
1225 15-06-2003 06:29:02 14.9 C 10.58 g/m*3 14.9 C 0 km/h
Sensor: Nr:Datum:Temp:Abs-Feuchte:Windchill:Wind:
Aussen-T/F 1226 15-06-2003 06:35:02 15 C 10.64 g/m*3 15 C 0 km/h
1227 15-06-2003 06:41:02 15.1 C 10.45 g/m*3 15.1 C 0 km/h
1228 15-06-2003 06:47:02 15.1 C 10.58 g/m*3 15.1 C 0 km/h
1229 15-06-2003 06:53:02 15.1 C 10.45 g/m*3 15.1 C 0 km/h
1230 15-06-2003 06:59:02 15.2 C 10.64 g/m*3 15.2 C 0 km/h
1231 15-06-2003 07:05:02 15.2 C 10.64 g/m*3 15.2 C 0 km/h
1232 15-06-2003 07:11:02 15.3 C 10.58 g/m*3 15.3 C 0 km/h
1233 15-06-2003 07:17:02 15.4 C 10.64 g/m*3 15.4 C 0 km/h
1234 15-06-2003 07:23:02 15.6 C 10.64 g/m*3 15.6 C 0 km/h
1235 15-06-2003 07:29:02 15.6 C 10.64 g/m*3 15.6 C 0 km/h
1236 15-06-2003 07:35:02 15.6 C 10.51 g/m*3 15.6 C 0 km/h
1237 15-06-2003 07:41:02 15.6 C 10.51 g/m*3 15.6 C 0 km/h
1238 15-06-2003 07:47:02 15.8 C 10.63 g/m*3 15.8 C 0 km/h
1239 15-06-2003 07:53:02 15.9 C 10.7 g/m*3 15.9 C 0 km/h
1240 15-06-2003 07:59:02 16 C 10.63 g/m*3 16 C 0 km/h
1241 15-06-2003 08:05:02 16.2 C 10.76 g/m*3 16.2 C 0 km/h
1242 15-06-2003 08:11:02 16.3 C 10.68 g/m*3 16.3 C 0 km/h
1243 15-06-2003 08:17:02 16.4 C 10.89 g/m*3 16.4 C 0 km/h
1244 15-06-2003 08:23:02 16.5 C 10.81 g/m*3 16.5 C 0 km/h
1245 15-06-2003 08:29:02 16.6 C 10.88 g/m*3 16.6 C 0 km/h
1246 15-06-2003 08:35:02 16.7 C 10.94 g/m*3 16.7 C 0 km/h
1247 15-06-2003 08:41:02 16.9 C 10.93 g/m*3 16.9 C 0 km/h
1248 15-06-2003 08:47:02 17.1 C 11.06 g/m*3 17.1 C 0 km/h
1249 15-06-2003 08:53:02 17.3 C 10.9 g/m*3 17.3 C 0 km/h
1250 15-06-2003 08:59:02 17.6 C 10.8 g/m*3 17.6 C 0 km/h
Sensor: Nr:Datum:Temp:Abs-Feuchte:Windchill:Wind:
Aussen-T/F 1251 15-06-2003 09:05:02 17.8 C 11.08 g/m*3 17.8 C 0 km/h
1252 15-06-2003 09:11:02 17.9 C 10.99 g/m*3 17.9 C 0 km/h
1253 15-06-2003 09:17:02 18.3 C 11.1 g/m*3 18.3 C 0 km/h
1254 15-06-2003 09:23:02 18.6 C 11.14 g/m*3 18.6 C 0 km/h
1255 15-06-2003 09:29:02 18.9 C 11.34 g/m*3 18.9 C 0 km/h
1256 15-06-2003 09:35:01 19.1 C 10.98 g/m*3 19.1 C 0 km/h
1257 15-06-2003 09:41:01 19.4 C 11.18 g/m*3 19.4 C 0 km/h
1258 15-06-2003 09:47:01 19.7 C 10.87 g/m*3 19.7 C 0 km/h
1259 15-06-2003 09:53:01 19.9 C 11 g/m*3 19.9 C 0 km/h
1260 15-06-2003 09:59:01 20.3 C 10.73 g/m*3 20.3 C 0 km/h
1261 15-06-2003 10:05:02 20.5 C 10.68 g/m*3 20.5 C 0 km/h
1262 15-06-2003 10:11:02 20.8 C 10.86 g/m*3 20.8 C 0 km/h
1263 15-06-2003 10:17:02 21.1 C 10.69 g/m*3 21.1 C 0 km/h
1264 15-06-2003 10:23:02 21.6 C 10.81 g/m*3 21.6 C 0 km/h
1265 15-06-2003 10:29:02 22 C 10.87 g/m*3 22 C 0 km/h
1266 15-06-2003 10:35:02 21.8 C 10.55 g/m*3 21.8 C 0 km/h
1267 15-06-2003 10:41:02 22.3 C 10.86 g/m*3 22.3 C 0 km/h
1268 15-06-2003 10:47:02 22.7 C 11.11 g/m*3 22.7 C 0 km/h
1269 15-06-2003 10:53:02 22.5 C 10.39 g/m*3 22.5 C 0 km/h
1270 15-06-2003 10:59:02 23 C 10.69 g/m*3 23 C 0 km/h
1271 15-06-2003 11:05:01 23.1 C 10.34 g/m*3 23.1 C 0 km/h
1272 15-06-2003 11:11:01 23.4 C 10.3 g/m*3 23.4 C 0 km/h
1273 15-06-2003 11:17:01 23.4 C 10.09 g/m*3 23.4 C 0 km/h
1274 15-06-2003 11:23:01 24 C 10.23 g/m*3 24 C 0 km/h
1275 15-06-2003 11:29:01 23.8 C 10.11 g/m*3 23.8 C 0 km/h
Sensor: Nr:Datum:Temp:Abs-Feuchte:Windchill:Wind:
Aussen-T/F 1276 15-06-2003 11:35:01 24.3 C 10.18 g/m*3 24.3 C 0 km/h
1277 15-06-2003 11:41:01 24.7 C 10.19 g/m*3 24.7 C 0 km/h
1278 15-06-2003 11:47:01 24.9 C 10.07 g/m*3 24.9 C 0 km/h
1279 15-06-2003 11:53:01 25.1 C 9.49 g/m*3 25.1 C 0 km/h
1280 15-06-2003 11:59:01 25.9 C 10.41 g/m*3 25.9 C 0 km/h
1281 15-06-2003 12:05:01 26.7 C 9.62 g/m*3 26.7 C 0 km/h
1282 15-06-2003 12:11:01 26.6 C 9.31 g/m*3 26.6 C 0 km/h
1283 15-06-2003 12:17:01 26.5 C 9.76 g/m*3 26.5 C 0 km/h
1284 15-06-2003 12:23:01 27.2 C 9.63 g/m*3 27.2 C 0 km/h
1285 15-06-2003 12:29:01 27.4 C 9.74 g/m*3 27.4 C 0 km/h
1286 15-06-2003 12:35:01 27.3 C 9.94 g/m*3 27.3 C 0 km/h
1287 15-06-2003 12:41:01 27 C 9.01 g/m*3 27 C 0 km/h
1288 15-06-2003 12:47:01 27.7 C 9.09 g/m*3 27.7 C 0 km/h
1289 15-06-2003 12:53:01 28.8 C 8.81 g/m*3 28.8 C 0 km/h
1290 15-06-2003 12:59:01 27.5 C 9.79 g/m*3 27.5 C 0 km/h
1291 15-06-2003 13:05:00 28.3 C 8.85 g/m*3 28.3 C 0 km/h
1292 15-06-2003 13:11:00 27.5 C 9.26 g/m*3 27.5 C 0 km/h
1293 15-06-2003 13:17:00 26.7 C 9.11 g/m*3 26.7 C 0 km/h
1294 15-06-2003 13:23:00 26.4 C 9.46 g/m*3 26.4 C 0 km/h
1295 15-06-2003 13:29:00 26.3 C 9.9 g/m*3 26.3 C 0 km/h
1296 15-06-2003 13:35:02 26 C 9.49 g/m*3 26 C 0 km/h
1297 15-06-2003 13:41:02 25.8 C 10.83 g/m*3 25.8 C 0 km/h
1298 15-06-2003 13:47:02 25.7 C 11.01 g/m*3 25.7 C 0 km/h
1299 15-06-2003 13:53:02 27.2 C 9.37 g/m*3 27.2 C 0 km/h
1300 15-06-2003 13:59:02 26.9 C 9.73 g/m*3 26.9 C 0 km/h
Sensor: Nr:Datum:Temp:Abs-Feuchte:Windchill:Wind:
Aussen-T/F 1301 15-06-2003 14:05:01 27.2 C 9.37 g/m*3 27.2 C 0 km/h
1302 15-06-2003 14:11:01 27.3 C 10.2 g/m*3 27.3 C 0 km/h
1303 15-06-2003 14:17:01 27.2 C 9.89 g/m*3 27.2 C 0 km/h
1304 15-06-2003 14:23:01 27.3 C 10.47 g/m*3 27.3 C 0 km/h
1305 15-06-2003 14:29:01 27.1 C 10.35 g/m*3 27.1 C 0 km/h
1306 15-06-2003 14:35:01 27.1 C 11.13 g/m*3 27.1 C 0 km/h
1307 15-06-2003 14:41:01 27.6 C 10.11 g/m*3 27.6 C 0 km/h
1308 15-06-2003 14:47:01 28 C 10.33 g/m*3 28 C 0 km/h
1309 15-06-2003 14:53:01 29.3 C 9.93 g/m*3 29.3 C 0 km/h
1310 15-06-2003 14:59:01 30 C 9.7 g/m*3 30 C 0 km/h
1311 15-06-2003 15:05:02 29.9 C 9.95 g/m*3 29.9 C 0 km/h
1312 15-06-2003 15:11:02 30 C 9.7 g/m*3 30 C 0 km/h
1313 15-06-2003 15:17:02 29.9 C 9.65 g/m*3 29.9 C 0 km/h
1314 15-06-2003 15:23:02 29.6 C 9.5 g/m*3 29.6 C 0 km/h
1315 15-06-2003 15:29:02 29.3 C 9.34 g/m*3 29.3 C 0 km/h
1316 15-06-2003 15:35:02 29.4 C 9.39 g/m*3 29.4 C 0 km/h
1317 15-06-2003 15:41:02 29.8 C 9.3 g/m*3 29.8 C 0 km/h
1318 15-06-2003 15:47:02 30 C 9.4 g/m*3 30 C 0 km/h
1319 15-06-2003 15:53:02 30 C 9.4 g/m*3 30 C 0 km/h
1320 15-06-2003 15:59:02 30 C 9.4 g/m*3 30 C 0 km/h
1321 15-06-2003 16:05:02 30.2 C 9.2 g/m*3 30.2 C 0 km/h
1322 15-06-2003 16:11:02 30.1 C 9.45 g/m*3 30.1 C 0 km/h
1323 15-06-2003 16:17:02 30 C 9.1 g/m*3 30 C 0 km/h
1324 15-06-2003 16:23:02 30.3 C 9.55 g/m*3 30.3 C 0 km/h
1325 15-06-2003 16:29:02 30.3 C 9.55 g/m*3 30.3 C 0 km/h
Sensor: Nr:Datum:Temp:Abs-Feuchte:Windchill:Wind:
Aussen-T/F 1326 15-06-2003 16:35:01 30.9 C 9.23 g/m*3 30.9 C 0 km/h
1327 15-06-2003 16:41:01 30.6 C 9.4 g/m*3 30.6 C 0 km/h
1328 15-06-2003 16:47:01 30.1 C 9.15 g/m*3 30.1 C 0 km/h
1329 15-06-2003 16:53:01 29.3 C 9.34 g/m*3 29.3 C 0 km/h
1330 15-06-2003 16:59:01 29.2 C 9 g/m*3 29.2 C 0 km/h
1331 15-06-2003 17:05:00 28.4 C 8.9 g/m*3 28.4 C 0 km/h
1332 15-06-2003 17:11:00 28.8 C 9.09 g/m*3 28.8 C 0 km/h
1333 15-06-2003 17:17:00 29.5 C 9.15 g/m*3 29.5 C 0 km/h
1334 15-06-2003 17:23:00 28.9 C 9.43 g/m*3 28.9 C 0 km/h
1335 15-06-2003 17:29:00 28.9 C 8.86 g/m*3 28.9 C 0 km/h
1336 15-06-2003 17:35:01 29.4 C 9.69 g/m*3 29.4 C 0 km/h
1337 15-06-2003 17:41:01 30 C 10.31 g/m*3 30 C 0 km/h
1338 15-06-2003 17:47:01 30 C 10.31 g/m*3 30 C 0 km/h
1339 15-06-2003 17:53:01 30.1 C 10.06 g/m*3 30.1 C 0 km/h
1340 15-06-2003 17:59:01 30.4 C 9.3 g/m*3 30.4 C 0 km/h
1341 15-06-2003 18:05:01 30.4 C 8.68 g/m*3 30.4 C 0 km/h
1342 15-06-2003 18:11:01 30.5 C 9.03 g/m*3 30.5 C 0 km/h
1343 15-06-2003 18:17:01 30.6 C 10.02 g/m*3 30.6 C 0 km/h
1344 15-06-2003 18:23:01 30.6 C 9.4 g/m*3 30.6 C 0 km/h
1345 15-06-2003 18:29:01 30 C 9.1 g/m*3 30 C 0 km/h
1346 15-06-2003 18:35:01 29.9 C 8.75 g/m*3 29.9 C 0 km/h
1347 15-06-2003 18:41:01 30.1 C 10.06 g/m*3 30.1 C 0 km/h
1348 15-06-2003 18:47:01 30.2 C 10.12 g/m*3 30.2 C 0 km/h
1349 15-06-2003 18:53:01 30.3 C 9.25 g/m*3 30.3 C 0 km/h
1350 15-06-2003 18:59:01 30.3 C 9.25 g/m*3 30.3 C 0 km/h
Sensor: Nr:Datum:Temp:Abs-Feuchte:Windchill:Wind:
Aussen-T/F 1351 15-06-2003 19:05:01 30 C 8.49 g/m*3 30 C 0 km/h
1352 15-06-2003 19:11:01 29.5 C 9.74 g/m*3 29.5 C 0 km/h
1353 15-06-2003 19:17:01 29 C 9.48 g/m*3 29 C 0 km/h
1354 15-06-2003 19:23:01 28.4 C 9.73 g/m*3 28.4 C 0 km/h
1355 15-06-2003 19:29:01 28 C 11.42 g/m*3 28 C 0 km/h
1356 15-06-2003 19:35:01 27.4 C 11.31 g/m*3 27.4 C 0 km/h
1357 15-06-2003 19:41:01 26.9 C 11.52 g/m*3 26.9 C 0 km/h
1358 15-06-2003 19:47:01 26.5 C 11.51 g/m*3 26.5 C 0 km/h
1359 15-06-2003 19:53:01 26.1 C 11.75 g/m*3 26.1 C 0 km/h
1360 15-06-2003 19:59:01 25.8 C 12.04 g/m*3 25.8 C 0 km/h
1361 15-06-2003 20:05:01 25.5 C 12.07 g/m*3 25.5 C 0 km/h
1362 15-06-2003 20:11:01 25 C 11.51 g/m*3 25 C 0 km/h
1363 15-06-2003 20:17:01 24.9 C 11.45 g/m*3 24.9 C 0 km/h
1364 15-06-2003 20:23:01 24.5 C 11.64 g/m*3 24.5 C 0 km/h
1365 15-06-2003 20:29:01 24.3 C 11.29 g/m*3 24.3 C 0 km/h
1366 15-06-2003 20:50:00 23.4 C 11.14 g/m*3 23.4 C 0 km/h
1367 15-06-2003 21:12:02 23.3 C 11.29 g/m*3 23.3 C 0 km/h
1368 15-06-2003 21:34:00 22.6 C 11.05 g/m*3 22.6 C 0 km/h
1369 15-06-2003 21:56:00 22.6 C 10.25 g/m*3 22.6 C 0 km/h
1370 15-06-2003 22:32:11 22.4 C 10.33 g/m*3 22.4 C 0 km/h
1371 15-06-2003 22:54:11 22 C 10.09 g/m*3 22 C 0 km/h
1372 15-06-2003 23:16:11 21.4 C 9.94 g/m*3 21.4 C 0 km/h
1373 15-06-2003 23:38:11 20.7 C 9.72 g/m*3 20.7 C 0 km/h
1374 16-06-2003 00:00:11 20.4 C 10.26 g/m*3 20.4 C 0 km/h
1375 16-06-2003 00:22:11 19.8 C 10.25 g/m*3 19.8 C 0 km/h
Sensor: Nr:Datum:Temp:Abs-Feuchte:Windchill:Wind:
Aussen-T/F 1376 16-06-2003 00:44:11 19.4 C 10.18 g/m*3 19.4 C 0 km/h
1377 16-06-2003 01:06:11 19 C 9.78 g/m*3 19 C 0 km/h
1378 16-06-2003 01:28:11 18.5 C 9.81 g/m*3 18.5 C 0 km/h
1379 16-06-2003 01:50:11 18.4 C 10.07 g/m*3 18.4 C 0 km/h
1380 16-06-2003 02:12:11 18.6 C 10.03 g/m*3 18.6 C 0 km/h
1381 16-06-2003 02:34:11 18.4 C 9.59 g/m*3 18.4 C 0 km/h
1382 16-06-2003 03:18:11 17.4 C 9.63 g/m*3 17.4 C 0 km/h
1383 16-06-2003 03:40:11 17.3 C 9.72 g/m*3 17.3 C 0 km/h
1384 16-06-2003 04:02:11 17.2 C 9.96 g/m*3 17.2 C 0 km/h
1385 16-06-2003 04:24:11 16.8 C 9.87 g/m*3 16.8 C 0 km/h
1386 16-06-2003 04:46:11 16.3 C 9.57 g/m*3 16.3 C 0 km/h
1387 16-06-2003 05:08:11 15.8 C 9.42 g/m*3 15.8 C 0 km/h
1388 16-06-2003 05:30:11 15.6 C 9.31 g/m*3 15.6 C 0 km/h
1389 16-06-2003 05:52:11 15.5 C 9.39 g/m*3 15.5 C 0 km/h
1390 16-06-2003 06:14:11 15.3 C 9.4 g/m*3 15.3 C 0 km/h
1391 16-06-2003 06:36:11 15.2 C 9.48 g/m*3 15.2 C 0 km/h
1392 16-06-2003 06:58:11 15.3 C 9.92 g/m*3 15.3 C 0 km/h
1393 16-06-2003 07:20:11 15.6 C 10.11 g/m*3 15.6 C 0 km/h
1394 16-06-2003 07:42:11 15.6 C 9.97 g/m*3 15.6 C 0 km/h
1395 16-06-2003 08:04:11 16 C 9.81 g/m*3 16 C 0 km/h
1396 16-06-2003 08:26:11 16.5 C 9.69 g/m*3 16.5 C 0 km/h
1397 16-06-2003 08:48:11 17 C 9.84 g/m*3 17 C 0 km/h
1398 16-06-2003 09:10:11 17.7 C 9.96 g/m*3 17.7 C 0 km/h
1399 16-06-2003 09:32:11 18.5 C 10.28 g/m*3 18.5 C 0 km/h
1400 16-06-2003 09:54:11 19.7 C 9.68 g/m*3 19.7 C 0 km/h
Sensor: Nr:Datum:Temp:Abs-Feuchte:Windchill:Wind:
Aussen-T/F 1401 16-06-2003 10:16:11 20.8 C 9.42 g/m*3 20.8 C 0 km/h
1402 16-06-2003 10:38:11 21.7 C 8.77 g/m*3 21.7 C 0 km/h
1403 16-06-2003 11:00:11 22.8 C 8.74 g/m*3 22.8 C 0 km/h
1404 16-06-2003 11:22:11 23.7 C 7.91 g/m*3 23.7 C 0 km/h
1405 16-06-2003 11:44:11 23.9 C 7.36 g/m*3 23.9 C 0 km/h
1406 16-06-2003 12:06:11 24.8 C 6.83 g/m*3 24.8 C 0 km/h
1407 16-06-2003 12:28:11 25 C 6.22 g/m*3 25 C 0 km/h
1408 16-06-2003 12:50:11 26.9 C 7.17 g/m*3 26.9 C 0 km/h
1409 16-06-2003 13:12:11 26.6 C 5.79 g/m*3 26.6 C 0 km/h
1410 16-06-2003 13:34:11 27.5 C 5.82 g/m*3 27.5 C 0 km/h
1411 16-06-2003 13:56:11 28.5 C 5.87 g/m*3 28.5 C 0 km/h
1412 16-06-2003 14:18:11 27.9 C 5.68 g/m*3 27.9 C 0 km/h
1413 16-06-2003 14:40:11 28.1 C 5.74 g/m*3 28.1 C 0 km/h
1414 16-06-2003 15:02:11 27.3 C 6.02 g/m*3 27.3 C 0 km/h
1415 16-06-2003 15:24:11 29.2 C 6.1 g/m*3 29.2 C 0 km/h
1416 16-06-2003 15:24:25 29.2 C 6.1 g/m*3 29.2 C 0 km/h
1417 16-06-2003 15:46:25 29.3 C 6.42 g/m*3 29.3 C 0 km/h
1418 16-06-2003 16:08:25 29.7 C 6.27 g/m*3 29.7 C 0 km/h
1419 16-06-2003 16:30:25 29.4 C 5.87 g/m*3 29.4 C 0 km/h
1420 16-06-2003 16:52:25 29.6 C 6.23 g/m*3 29.6 C 0 km/h
1421 16-06-2003 17:14:25 30.6 C 6.26 g/m*3 30.6 C 0 km/h
1422 16-06-2003 17:36:25 30.4 C 6.51 g/m*3 30.4 C 0 km/h
1423 16-06-2003 17:58:25 30.1 C 6.71 g/m*3 30.1 C 0 km/h
1424 16-06-2003 18:20:25 30 C 6.67 g/m*3 30 C 0 km/h
1425 16-06-2003 18:42:25 30.4 C 6.51 g/m*3 30.4 C 0 km/h
Sensor: Nr:Datum:Temp:Abs-Feuchte:Windchill:Wind:
Aussen-T/F 1426 16-06-2003 19:04:25 30.1 C 7.01 g/m*3 30.1 C 0 km/h
1427 16-06-2003 19:26:25 30.5 C 6.85 g/m*3 30.5 C 0 km/h
1428 16-06-2003 19:48:25 30 C 6.37 g/m*3 30 C 0 km/h
1429 16-06-2003 20:10:25 29.2 C 7.55 g/m*3 29.2 C 0 km/h
1430 16-06-2003 20:32:25 28.5 C 7.27 g/m*3 28.5 C 0 km/h
1431 16-06-2003 20:54:25 27.8 C 9.41 g/m*3 27.8 C 0 km/h
1432 16-06-2003 21:16:25 25.9 C 9.2 g/m*3 25.9 C 0 km/h
1433 16-06-2003 21:38:25 23.1 C 8.89 g/m*3 23.1 C 0 km/h
1434 16-06-2003 22:00:25 22.7 C 9.29 g/m*3 22.7 C 0 km/h
1435 16-06-2003 22:22:25 21.5 C 8.86 g/m*3 21.5 C 0 km/h
1436 16-06-2003 22:44:25 20.9 C 9.11 g/m*3 20.9 C 0 km/h
1437 16-06-2003 23:06:25 20.7 C 9 g/m*3 20.7 C 0 km/h
1438 16-06-2003 23:28:25 20.2 C 9.62 g/m*3 20.2 C 0 km/h
1439 16-06-2003 23:50:25 19.7 C 9.34 g/m*3 19.7 C 0 km/h
1440 17-06-2003 00:12:25 19.1 C 9.34 g/m*3 19.1 C 0 km/h
1441 17-06-2003 00:34:25 18.8 C 9.5 g/m*3 18.8 C 0 km/h
1442 17-06-2003 00:56:25 18.2 C 9.48 g/m*3 18.2 C 0 km/h
1443 17-06-2003 01:18:25 17.4 C 9.63 g/m*3 17.4 C 0 km/h
1444 17-06-2003 01:40:25 17.3 C 9.58 g/m*3 17.3 C 0 km/h
1445 17-06-2003 02:02:25 16.8 C 9.72 g/m*3 16.8 C 0 km/h
1446 17-06-2003 02:24:25 16.2 C 9.65 g/m*3 16.2 C 0 km/h
1447 17-06-2003 02:46:25 16.3 C 9.85 g/m*3 16.3 C 0 km/h
1448 17-06-2003 03:08:25 16 C 10.08 g/m*3 16 C 0 km/h
1449 17-06-2003 03:30:25 15.5 C 9.78 g/m*3 15.5 C 0 km/h
1450 17-06-2003 03:52:25 15.2 C 9.73 g/m*3 15.2 C 0 km/h
Sensor: Nr:Datum:Temp:Abs-Feuchte:Windchill:Wind:
Aussen-T/F 1451 17-06-2003 04:14:25 15 C 9.75 g/m*3 15 C 0 km/h
1452 17-06-2003 04:36:25 14.6 C 9.64 g/m*3 14.6 C 0 km/h
1453 17-06-2003 04:58:25 14.5 C 9.7 g/m*3 14.5 C 0 km/h
1454 17-06-2003 05:20:25 14.3 C 9.46 g/m*3 14.3 C 0 km/h
1455 17-06-2003 05:42:25 14.2 C 9.52 g/m*3 14.2 C 0 km/h
1456 17-06-2003 06:04:25 14 C 9.41 g/m*3 14 C 0 km/h
1457 17-06-2003 06:26:25 14.1 C 9.59 g/m*3 14.1 C 0 km/h
1458 17-06-2003 06:48:25 14.2 C 9.77 g/m*3 14.2 C 0 km/h
1459 17-06-2003 07:10:25 14.4 C 9.77 g/m*3 14.4 C 0 km/h
1460 17-06-2003 07:32:25 14.8 C 9.88 g/m*3 14.8 C 0 km/h
1461 17-06-2003 07:54:25 15.3 C 9.92 g/m*3 15.3 C 0 km/h
1462 17-06-2003 08:16:25 15.6 C 9.97 g/m*3 15.6 C 0 km/h
1463 17-06-2003 08:38:25 16.4 C 10.05 g/m*3 16.4 C 0 km/h
1464 17-06-2003 09:00:25 17.2 C 10.1 g/m*3 17.2 C 0 km/h
1465 17-06-2003 09:22:25 17.9 C 10.08 g/m*3 17.9 C 0 km/h
1466 17-06-2003 09:44:25 19.7 C 10.02 g/m*3 19.7 C 0 km/h
1467 17-06-2003 10:06:25 20.8 C 9.6 g/m*3 20.8 C 0 km/h
1468 17-06-2003 10:28:25 22 C 9.32 g/m*3 22 C 0 km/h
1469 17-06-2003 10:50:25 23.6 C 9.78 g/m*3 23.6 C 0 km/h
1470 17-06-2003 11:12:25 24.6 C 9.45 g/m*3 24.6 C 0 km/h
1471 17-06-2003 11:34:25 25.4 C 9.42 g/m*3 25.4 C 0 km/h
1472 17-06-2003 11:56:25 26.4 C 9.21 g/m*3 26.4 C 0 km/h
1473 17-06-2003 12:18:25 28 C 9.52 g/m*3 28 C 0 km/h
1474 17-06-2003 12:40:25 28.8 C 8.81 g/m*3 28.8 C 0 km/h
1475 17-06-2003 13:02:25 30 C 8.79 g/m*3 30 C 0 km/h
Sensor: Nr:Datum:Temp:Abs-Feuchte:Windchill:Wind:
Aussen-T/F 1476 17-06-2003 13:24:25 29.4 C 7.93 g/m*3 29.4 C 0 km/h
1477 17-06-2003 13:46:25 30.5 C 9.35 g/m*3 30.5 C 0 km/h
1478 17-06-2003 14:08:25 31.3 C 7.48 g/m*3 31.3 C 0 km/h
1479 17-06-2003 14:30:25 30.3 C 8.32 g/m*3 30.3 C 0 km/h
1480 17-06-2003 14:52:25 30.3 C 8.32 g/m*3 30.3 C 0 km/h
1481 17-06-2003 15:14:25 30.6 C 8.14 g/m*3 30.6 C 0 km/h
1482 17-06-2003 15:36:25 31.2 C 7.76 g/m*3 31.2 C 0 km/h
1483 17-06-2003 15:58:25 31.7 C 7.31 g/m*3 31.7 C 0 km/h
1484 17-06-2003 16:20:25 31.4 C 7.85 g/m*3 31.4 C 0 km/h
1485 17-06-2003 16:42:25 32.3 C 7.55 g/m*3 32.3 C 0 km/h
1486 17-06-2003 17:04:25 32.7 C 7.71 g/m*3 32.7 C 0 km/h
1487 17-06-2003 17:26:25 32.1 C 7.47 g/m*3 32.1 C 0 km/h
1488 17-06-2003 17:48:25 32.8 C 7.4 g/m*3 32.8 C 0 km/h
1489 17-06-2003 18:10:25 32.3 C 7.2 g/m*3 32.3 C 0 km/h
1490 17-06-2003 18:32:25 32 C 9.11 g/m*3 32 C 0 km/h
1491 17-06-2003 18:54:25 31.5 C 10.52 g/m*3 31.5 C 0 km/h
1492 17-06-2003 19:16:25 30.1 C 10.98 g/m*3 30.1 C 0 km/h
1493 17-06-2003 19:38:25 28.9 C 11.14 g/m*3 28.9 C 0 km/h
1494 17-06-2003 20:00:25 27.5 C 11.11 g/m*3 27.5 C 0 km/h
1495 17-06-2003 20:22:25 27.1 C 10.87 g/m*3 27.1 C 0 km/h
1496 17-06-2003 20:44:25 26.1 C 10.28 g/m*3 26.1 C 0 km/h
1497 17-06-2003 21:06:25 25.4 C 10.83 g/m*3 25.4 C 0 km/h
1498 17-06-2003 21:28:25 24.5 C 10.52 g/m*3 24.5 C 0 km/h
1499 17-06-2003 21:50:25 22.9 C 11.24 g/m*3 22.9 C 0 km/h
1500 17-06-2003 22:12:25 20.4 C 13.09 g/m*3 20.4 C 0 km/h
Sensor: Nr:Datum:Temp:Abs-Feuchte:Windchill:Wind:
Aussen-T/F 1501 17-06-2003 22:34:25 20 C 13.31 g/m*3 20 C 0 km/h
1502 17-06-2003 22:56:25 20.3 C 13.01 g/m*3 20.3 C 0 km/h
1503 17-06-2003 23:18:25 19.9 C 12.89 g/m*3 19.9 C 0 km/h
1504 17-06-2003 23:40:25 20.1 C 12.52 g/m*3 20.1 C 0 km/h
1505 18-06-2003 00:02:25 20.2 C 12.76 g/m*3 20.2 C 0 km/h
1506 18-06-2003 00:24:25 19.7 C 12.57 g/m*3 19.7 C 0 km/h
1507 18-06-2003 00:46:25 19.5 C 12.42 g/m*3 19.5 C 0 km/h
1508 18-06-2003 01:08:25 19.3 C 12.27 g/m*3 19.3 C 0 km/h
1509 18-06-2003 01:30:25 19.3 C 12.44 g/m*3 19.3 C 0 km/h
1510 18-06-2003 01:52:25 19.1 C 12.62 g/m*3 19.1 C 0 km/h
1511 18-06-2003 02:14:25 18.7 C 12.65 g/m*3 18.7 C 0 km/h
1512 18-06-2003 02:36:25 18.7 C 12.81 g/m*3 18.7 C 0 km/h
1513 18-06-2003 02:58:25 18.8 C 12.88 g/m*3 18.8 C 0 km/h
1514 18-06-2003 03:20:25 18.5 C 12.66 g/m*3 18.5 C 0 km/h
1515 18-06-2003 03:42:25 18.4 C 12.9 g/m*3 18.4 C 0 km/h
1516 18-06-2003 04:04:25 18.5 C 12.82 g/m*3 18.5 C 0 km/h
1517 18-06-2003 04:26:25 18.8 C 12.88 g/m*3 18.8 C 0 km/h
1518 18-06-2003 04:48:25 18.2 C 13.06 g/m*3 18.2 C 0 km/h
1519 18-06-2003 05:10:25 18.5 C 12.97 g/m*3 18.5 C 0 km/h
1520 18-06-2003 05:32:25 18.6 C 12.73 g/m*3 18.6 C 0 km/h
1521 18-06-2003 05:54:25 17.7 C 13.28 g/m*3 17.7 C 0 km/h
1522 18-06-2003 06:16:25 17.6 C 13.35 g/m*3 17.6 C 0 km/h
1523 18-06-2003 06:38:25 17.5 C 12.67 g/m*3 17.5 C 0 km/h
1524 18-06-2003 07:00:25 17.6 C 12.6 g/m*3 17.6 C 0 km/h
1525 18-06-2003 07:22:25 17.7 C 12.52 g/m*3 17.7 C 0 km/h
Sensor: Nr:Datum:Temp:Abs-Feuchte:Windchill:Wind:
Aussen-T/F 1526 18-06-2003 07:44:25 17.8 C 12.14 g/m*3 17.8 C 0 km/h
1527 18-06-2003 08:06:25 17.8 C 12.14 g/m*3 17.8 C 0 km/h
1528 18-06-2003 08:28:25 17.7 C 12.07 g/m*3 17.7 C 0 km/h
1529 18-06-2003 08:50:25 17.8 C 12.14 g/m*3 17.8 C 0 km/h
1530 18-06-2003 09:12:25 18.3 C 12.04 g/m*3 18.3 C 0 km/h
1531 18-06-2003 09:34:25 18.6 C 11.94 g/m*3 18.6 C 0 km/h
1532 18-06-2003 09:56:25 18 C 11.67 g/m*3 18 C 0 km/h
1533 18-06-2003 10:18:25 18.4 C 11.8 g/m*3 18.4 C 0 km/h
1534 18-06-2003 10:40:25 19.9 C 11.85 g/m*3 19.9 C 0 km/h
1535 18-06-2003 11:02:25 20.2 C 11.37 g/m*3 20.2 C 0 km/h
1536 18-06-2003 11:24:25 19.9 C 11.68 g/m*3 19.9 C 0 km/h
1537 18-06-2003 11:46:25 19.7 C 11.55 g/m*3 19.7 C 0 km/h
1538 18-06-2003 12:08:25 19.9 C 11.85 g/m*3 19.9 C 0 km/h
1539 18-06-2003 12:30:25 19.9 C 12.2 g/m*3 19.9 C 0 km/h
1540 18-06-2003 12:52:25 21.7 C 11.06 g/m*3 21.7 C 0 km/h
1541 18-06-2003 13:14:25 22.8 C 10.77 g/m*3 22.8 C 0 km/h
1542 18-06-2003 13:36:25 22.5 C 10.79 g/m*3 22.5 C 0 km/h
1543 18-06-2003 13:58:25 23.1 C 10.75 g/m*3 23.1 C 0 km/h
1544 18-06-2003 14:20:25 22 C 10.67 g/m*3 22 C 0 km/h
1545 18-06-2003 14:42:25 21.3 C 11.56 g/m*3 21.3 C 0 km/h
1546 18-06-2003 15:04:25 21.9 C 11.77 g/m*3 21.9 C 0 km/h
1547 18-06-2003 15:26:25 23.1 C 11.78 g/m*3 23.1 C 0 km/h
1548 18-06-2003 15:48:25 20 C 12.44 g/m*3 20 C 0 km/h
1549 18-06-2003 16:10:25 20.9 C 14.93 g/m*3 20.9 C 0 km/h
1550 18-06-2003 16:32:25 20.4 C 14.15 g/m*3 20.4 C 0 km/h
Sensor: Nr:Datum:Temp:Abs-Feuchte:Windchill:Wind:
Aussen-T/F 1551 18-06-2003 16:54:25 20.1 C 13.91 g/m*3 20.1 C 0 km/h
1552 18-06-2003 17:16:25 22.5 C 13.78 g/m*3 22.5 C 0 km/h
1553 18-06-2003 17:38:25 24.3 C 12.17 g/m*3 24.3 C 0 km/h
1554 18-06-2003 18:00:25 25.8 C 11.07 g/m*3 25.8 C 0 km/h
1555 18-06-2003 18:22:25 25.7 C 10.77 g/m*3 25.7 C 0 km/h
1556 18-06-2003 18:44:25 26 C 10.47 g/m*3 26 C 0 km/h
1557 18-06-2003 19:06:25 24.3 C 11.95 g/m*3 24.3 C 0 km/h
1558 18-06-2003 19:28:25 25.5 C 9.47 g/m*3 25.5 C 0 km/h
1559 18-06-2003 19:50:25 24.3 C 10.4 g/m*3 24.3 C 0 km/h
1560 18-06-2003 20:12:25 23.5 C 10.15 g/m*3 23.5 C 0 km/h
1561 18-06-2003 20:34:25 23 C 10.48 g/m*3 23 C 0 km/h
1562 18-06-2003 20:56:25 22.7 C 10.71 g/m*3 22.7 C 0 km/h
1563 18-06-2003 21:18:25 22.2 C 10.8 g/m*3 22.2 C 0 km/h
1564 18-06-2003 21:40:25 21.9 C 11.19 g/m*3 21.9 C 0 km/h
1565 18-06-2003 22:02:25 21.5 C 10.94 g/m*3 21.5 C 0 km/h
1566 18-06-2003 22:24:25 21.2 C 10.75 g/m*3 21.2 C 0 km/h
1567 18-06-2003 22:46:25 20.8 C 11.05 g/m*3 20.8 C 0 km/h
1568 18-06-2003 23:08:25 20.5 C 10.85 g/m*3 20.5 C 0 km/h
1569 18-06-2003 23:30:25 20.2 C 10.84 g/m*3 20.2 C 0 km/h
1570 18-06-2003 23:52:25 19.8 C 10.93 g/m*3 19.8 C 0 km/h
1571 19-06-2003 00:14:25 19.6 C 11.14 g/m*3 19.6 C 0 km/h
1572 19-06-2003 00:36:25 19.6 C 10.8 g/m*3 19.6 C 0 km/h
1573 19-06-2003 00:58:25 19.5 C 10.91 g/m*3 19.5 C 0 km/h
1574 19-06-2003 01:20:25 19.2 C 11.05 g/m*3 19.2 C 0 km/h
1575 19-06-2003 01:42:25 19.1 C 10.98 g/m*3 19.1 C 0 km/h
Sensor: Nr:Datum:Temp:Abs-Feuchte:Windchill:Wind:
Aussen-T/F 1576 19-06-2003 02:04:25 19 C 11.08 g/m*3 19 C 0 km/h
1577 19-06-2003 02:26:25 18.4 C 11.48 g/m*3 18.4 C 0 km/h
1578 19-06-2003 02:48:25 18.5 C 10.92 g/m*3 18.5 C 0 km/h
1579 19-06-2003 03:10:25 18.6 C 10.82 g/m*3 18.6 C 0 km/h
1580 19-06-2003 03:32:25 18.5 C 10.44 g/m*3 18.5 C 0 km/h
1581 19-06-2003 03:54:25 18.5 C 9.81 g/m*3 18.5 C 0 km/h
1582 19-06-2003 04:16:25 18.4 C 9.59 g/m*3 18.4 C 0 km/h
1583 19-06-2003 04:38:25 17.9 C 9.92 g/m*3 17.9 C 0 km/h
1584 19-06-2003 05:00:25 17.8 C 10.32 g/m*3 17.8 C 0 km/h
1585 19-06-2003 05:22:25 17.9 C 10.23 g/m*3 17.9 C 0 km/h
1586 19-06-2003 05:44:25 18 C 10.14 g/m*3 18 C 0 km/h
1587 19-06-2003 06:06:25 18.2 C 9.79 g/m*3 18.2 C 0 km/h
1588 19-06-2003 06:28:25 18.3 C 9.69 g/m*3 18.3 C 0 km/h
1589 19-06-2003 06:50:25 18.2 C 9.95 g/m*3 18.2 C 0 km/h
1590 19-06-2003 07:12:25 18.4 C 10.07 g/m*3 18.4 C 0 km/h
1591 19-06-2003 07:34:25 18.5 C 10.13 g/m*3 18.5 C 0 km/h
1592 19-06-2003 07:56:25 18.7 C 10.25 g/m*3 18.7 C 0 km/h
1593 19-06-2003 08:18:25 18.9 C 10.37 g/m*3 18.9 C 0 km/h
1594 19-06-2003 08:40:25 19 C 10.43 g/m*3 19 C 0 km/h
1595 19-06-2003 09:02:25 19.5 C 10.74 g/m*3 19.5 C 0 km/h
1596 19-06-2003 09:24:25 19.9 C 11 g/m*3 19.9 C 0 km/h
1597 19-06-2003 09:46:25 19.6 C 10.97 g/m*3 19.6 C 0 km/h
1598 19-06-2003 10:08:25 19.4 C 11.35 g/m*3 19.4 C 0 km/h
1599 19-06-2003 10:30:25 20.2 C 11.89 g/m*3 20.2 C 0 km/h
1600 19-06-2003 10:52:25 20.6 C 11.28 g/m*3 20.6 C 0 km/h
Sensor: Nr:Datum:Temp:Abs-Feuchte:Windchill:Wind:
Aussen-T/F 1601 19-06-2003 11:14:25 21.2 C 11.49 g/m*3 21.2 C 0 km/h
1602 19-06-2003 11:36:25 20.8 C 11.23 g/m*3 20.8 C 0 km/h
1603 19-06-2003 11:58:25 20.9 C 11.66 g/m*3 20.9 C 0 km/h
1604 19-06-2003 12:20:25 20.9 C 11.66 g/m*3 20.9 C 0 km/h
1605 19-06-2003 12:42:25 21 C 11.36 g/m*3 21 C 0 km/h
1606 19-06-2003 13:04:25 21.2 C 11.49 g/m*3 21.2 C 0 km/h
1607 19-06-2003 13:26:25 22.6 C 11.25 g/m*3 22.6 C 0 km/h
1608 19-06-2003 13:48:25 21.7 C 11.64 g/m*3 21.7 C 0 km/h
1609 19-06-2003 14:10:25 22 C 11.65 g/m*3 22 C 0 km/h
1610 19-06-2003 14:32:25 22.7 C 11.72 g/m*3 22.7 C 0 km/h
1611 19-06-2003 14:54:25 22.8 C 11.58 g/m*3 22.8 C 0 km/h
1612 19-06-2003 15:16:25 23.4 C 10.51 g/m*3 23.4 C 0 km/h
1613 19-06-2003 15:38:25 24.2 C 10.12 g/m*3 24.2 C 0 km/h
1614 19-06-2003 16:00:25 24.6 C 10.35 g/m*3 24.6 C 0 km/h
1615 19-06-2003 16:22:25 24.4 C 10.68 g/m*3 24.4 C 0 km/h
1616 19-06-2003 16:44:25 24.4 C 10.46 g/m*3 24.4 C 0 km/h
1617 19-06-2003 17:06:25 24.4 C 10.68 g/m*3 24.4 C 0 km/h
1618 19-06-2003 17:28:25 23.7 C 10.48 g/m*3 23.7 C 0 km/h
1619 19-06-2003 17:50:25 23.9 C 11.47 g/m*3 23.9 C 0 km/h
1620 19-06-2003 18:12:25 23.9 C 12.11 g/m*3 23.9 C 0 km/h
1621 19-06-2003 18:34:25 23.6 C 12.12 g/m*3 23.6 C 0 km/h
1622 19-06-2003 18:56:25 23.3 C 12.13 g/m*3 23.3 C 0 km/h
1623 19-06-2003 19:18:25 23.1 C 12.2 g/m*3 23.1 C 0 km/h
1624 19-06-2003 19:40:25 22.7 C 12.32 g/m*3 22.7 C 0 km/h
1625 19-06-2003 20:02:25 22.5 C 12.18 g/m*3 22.5 C 0 km/h
Sensor: Nr:Datum:Temp:Abs-Feuchte:Windchill:Wind:
Aussen-T/F 1626 19-06-2003 20:24:25 22.3 C 12.24 g/m*3 22.3 C 0 km/h
1627 19-06-2003 20:46:25 22.1 C 11.52 g/m*3 22.1 C 0 km/h
1628 19-06-2003 21:08:25 21.9 C 11.96 g/m*3 21.9 C 0 km/h
1629 19-06-2003 21:30:25 21.8 C 11.7 g/m*3 21.8 C 0 km/h
1630 19-06-2003 21:52:25 21.8 C 11.9 g/m*3 21.8 C 0 km/h
1631 19-06-2003 22:14:25 21.1 C 11.79 g/m*3 21.1 C 0 km/h
1632 19-06-2003 22:36:25 20.6 C 12.35 g/m*3 20.6 C 0 km/h
1633 19-06-2003 22:58:25 20.5 C 12.28 g/m*3 20.5 C 0 km/h
1634 19-06-2003 23:20:25 20.1 C 12.52 g/m*3 20.1 C 0 km/h
1635 19-06-2003 23:42:25 20 C 12.44 g/m*3 20 C 0 km/h
1636 20-06-2003 00:04:25 20 C 12.44 g/m*3 20 C 0 km/h
1637 20-06-2003 00:26:25 20 C 12.44 g/m*3 20 C 0 km/h
1638 20-06-2003 01:10:25 20 C 12.44 g/m*3 20 C 0 km/h
1639 20-06-2003 01:32:25 19.9 C 12.54 g/m*3 19.9 C 0 km/h
1640 20-06-2003 01:54:25 19.9 C 12.71 g/m*3 19.9 C 0 km/h
1641 20-06-2003 02:16:25 19.9 C 12.71 g/m*3 19.9 C 0 km/h
1642 20-06-2003 02:38:25 19.7 C 12.57 g/m*3 19.7 C 0 km/h
1643 20-06-2003 03:00:25 19.1 C 12.95 g/m*3 19.1 C 0 km/h
1644 20-06-2003 03:22:25 19 C 13.04 g/m*3 19 C 0 km/h
1645 20-06-2003 03:44:25 19.1 C 12.95 g/m*3 19.1 C 0 km/h
1646 20-06-2003 04:06:25 18.4 C 13.05 g/m*3 18.4 C 0 km/h
1647 20-06-2003 04:28:25 18.8 C 12.24 g/m*3 18.8 C 0 km/h
1648 20-06-2003 04:50:25 18.9 C 11.99 g/m*3 18.9 C 0 km/h
1649 20-06-2003 05:12:25 18.5 C 11.71 g/m*3 18.5 C 0 km/h
1650 20-06-2003 05:34:25 18.6 C 11.14 g/m*3 18.6 C 0 km/h
Sensor: Nr:Datum:Temp:Abs-Feuchte:Windchill:Wind:
Aussen-T/F 1651 20-06-2003 05:56:25 18.5 C 10.92 g/m*3 18.5 C 0 km/h
1652 20-06-2003 06:18:25 18.3 C 11.26 g/m*3 18.3 C 0 km/h
1653 20-06-2003 06:40:25 18.5 C 11.08 g/m*3 18.5 C 0 km/h
1654 20-06-2003 07:02:25 18.4 C 11.01 g/m*3 18.4 C 0 km/h
1655 20-06-2003 07:24:25 18.5 C 11.39 g/m*3 18.5 C 0 km/h
1656 20-06-2003 07:46:25 17.5 C 8.8 g/m*3 17.5 C 0 km/h
1657 20-06-2003 08:08:25 17.5 C 8.65 g/m*3 17.5 C 0 km/h
1658 20-06-2003 08:30:25 17.6 C 8.55 g/m*3 17.6 C 0 km/h
1659 20-06-2003 08:52:25 17.5 C 8.5 g/m*3 17.5 C 0 km/h
1660 20-06-2003 09:14:25 17.9 C 8.55 g/m*3 17.9 C 0 km/h
1661 20-06-2003 09:36:25 18.3 C 8.29 g/m*3 18.3 C 0 km/h
1662 20-06-2003 09:58:25 18.7 C 8.33 g/m*3 18.7 C 0 km/h
1663 20-06-2003 10:20:25 19.8 C 8.88 g/m*3 19.8 C 0 km/h
1664 20-06-2003 10:42:25 19.9 C 8.59 g/m*3 19.9 C 0 km/h
1665 20-06-2003 11:04:25 20.4 C 8.49 g/m*3 20.4 C 0 km/h
1666 20-06-2003 11:26:25 21.4 C 8.44 g/m*3 21.4 C 0 km/h
1667 20-06-2003 11:48:25 22.1 C 8.2 g/m*3 22.1 C 0 km/h
1668 20-06-2003 12:10:25 22.7 C 7.27 g/m*3 22.7 C 0 km/h
1669 20-06-2003 12:32:25 22.5 C 7.59 g/m*3 22.5 C 0 km/h
1670 20-06-2003 12:54:25 23.2 C 7.28 g/m*3 23.2 C 0 km/h
1671 20-06-2003 13:16:25 23.4 C 6.73 g/m*3 23.4 C 0 km/h
1672 20-06-2003 13:38:25 23.1 C 6.41 g/m*3 23.1 C 0 km/h
1673 20-06-2003 14:00:25 24 C 6.53 g/m*3 24 C 0 km/h
1674 20-06-2003 14:22:25 25.1 C 6.48 g/m*3 25.1 C 0 km/h
1675 20-06-2003 14:44:25 23.9 C 6.71 g/m*3 23.9 C 0 km/h
Sensor: Nr:Datum:Temp:Abs-Feuchte:Windchill:Wind:
Aussen-T/F 1676 20-06-2003 15:06:25 25.7 C 7.18 g/m*3 25.7 C 0 km/h
1677 20-06-2003 15:28:25 25.2 C 5.82 g/m*3 25.2 C 0 km/h
1678 20-06-2003 15:50:25 24.2 C 6.16 g/m*3 24.2 C 0 km/h
1679 20-06-2003 16:12:25 25.4 C 6.59 g/m*3 25.4 C 0 km/h
1680 20-06-2003 16:34:25 25.5 C 6.39 g/m*3 25.5 C 0 km/h
1681 20-06-2003 16:56:25 25.5 C 6.87 g/m*3 25.5 C 0 km/h
1682 20-06-2003 17:18:25 25 C 6.45 g/m*3 25 C 0 km/h
1683 20-06-2003 17:40:25 25.2 C 6.52 g/m*3 25.2 C 0 km/h
1684 20-06-2003 18:02:25 25.4 C 6.36 g/m*3 25.4 C 0 km/h
1685 20-06-2003 18:24:25 24.8 C 6.15 g/m*3 24.8 C 0 km/h
1686 20-06-2003 18:46:25 25.1 C 6.02 g/m*3 25.1 C 0 km/h
1687 20-06-2003 19:08:25 24.3 C 5.97 g/m*3 24.3 C 0 km/h
1688 20-06-2003 19:30:25 23.8 C 6.24 g/m*3 23.8 C 0 km/h
1689 20-06-2003 19:52:25 22.6 C 6.43 g/m*3 22.6 C 0 km/h
1690 20-06-2003 20:14:25 22.5 C 6.39 g/m*3 22.5 C 0 km/h
1691 20-06-2003 20:36:25 21.5 C 6.6 g/m*3 21.5 C 0 km/h
1692 20-06-2003 20:58:25 20.8 C 6.7 g/m*3 20.8 C 0 km/h
1693 20-06-2003 21:20:25 19.5 C 6.71 g/m*3 19.5 C 0 km/h
1694 20-06-2003 21:42:25 18.5 C 6.65 g/m*3 18.5 C 0 km/h
1695 20-06-2003 22:04:25 18 C 6.76 g/m*3 18 C 0 km/h
1696 20-06-2003 22:26:25 17.3 C 6.48 g/m*3 17.3 C 0 km/h
1697 20-06-2003 22:48:25 16.8 C 6.58 g/m*3 16.8 C 0 km/h
1698 20-06-2003 23:10:25 16.6 C 6.64 g/m*3 16.6 C 0 km/h
1699 20-06-2003 23:32:25 16.4 C 6.7 g/m*3 16.4 C 0 km/h
1700 20-06-2003 23:54:25 15.8 C 6.6 g/m*3 15.8 C 0 km/h
Sensor: Nr:Datum:Temp:Abs-Feuchte:Windchill:Wind:
Aussen-T/F 1701 21-06-2003 00:16:25 15.5 C 6.61 g/m*3 15.5 C 0 km/h
1702 21-06-2003 00:38:25 15.1 C 6.71 g/m*3 15.1 C 0 km/h
1703 21-06-2003 01:00:25 14.7 C 6.8 g/m*3 14.7 C 0 km/h
1704 21-06-2003 01:22:25 14.5 C 6.84 g/m*3 14.5 C 0 km/h
1705 21-06-2003 01:44:25 14.1 C 7.04 g/m*3 14.1 C 0 km/h
1706 21-06-2003 02:06:25 13.7 C 7.34 g/m*3 13.7 C 0 km/h
1707 21-06-2003 02:28:25 13.3 C 7.51 g/m*3 13.3 C 0 km/h
1708 21-06-2003 02:50:25 12.7 C 7.46 g/m*3 12.7 C 0 km/h
1709 21-06-2003 03:12:25 12.2 C 7.45 g/m*3 12.2 C 0 km/h
1710 21-06-2003 03:34:25 11.8 C 7.47 g/m*3 11.8 C 0 km/h
1711 21-06-2003 03:56:25 11.5 C 7.44 g/m*3 11.5 C 0 km/h
1712 21-06-2003 04:18:25 11.1 C 7.55 g/m*3 11.1 C 0 km/h
1713 21-06-2003 04:40:25 10.7 C 7.56 g/m*3 10.7 C 0 km/h
1714 21-06-2003 05:02:25 10.3 C 7.47 g/m*3 10.3 C 0 km/h
1715 21-06-2003 05:24:25 10 C 7.42 g/m*3 10 C 0 km/h
1716 21-06-2003 05:46:25 9.8 C 7.52 g/m*3 9.8 C 0 km/h
1717 21-06-2003 06:08:25 9.8 C 7.61 g/m*3 9.8 C 0 km/h
1718 21-06-2003 06:30:25 9.8 C 7.61 g/m*3 9.8 C 0 km/h
1719 21-06-2003 06:52:25 9.9 C 7.66 g/m*3 9.9 C 0 km/h
1720 21-06-2003 07:14:25 10.1 C 7.56 g/m*3 10.1 C 0 km/h
1721 21-06-2003 07:36:25 10.5 C 7.76 g/m*3 10.5 C 0 km/h
1722 21-06-2003 07:58:25 11.1 C 7.76 g/m*3 11.1 C 0 km/h
1723 21-06-2003 08:20:25 11.7 C 7.74 g/m*3 11.7 C 0 km/h
1724 21-06-2003 08:42:25 12.4 C 7.54 g/m*3 12.4 C 0 km/h
1725 21-06-2003 09:04:25 13 C 7.6 g/m*3 13 C 0 km/h
Sensor: Nr:Datum:Temp:Abs-Feuchte:Windchill:Wind:
Aussen-T/F 1726 21-06-2003 09:26:25 14 C 7.6 g/m*3 14 C 0 km/h
1727 21-06-2003 09:48:25 15.1 C 7.74 g/m*3 15.1 C 0 km/h
1728 21-06-2003 10:10:25 16.5 C 7.44 g/m*3 16.5 C 0 km/h
1729 21-06-2003 10:32:25 17.2 C 6.59 g/m*3 17.2 C 0 km/h
1730 21-06-2003 10:54:25 17.9 C 6.26 g/m*3 17.9 C 0 km/h
1731 21-06-2003 11:16:25 18.5 C 6.01 g/m*3 18.5 C 0 km/h
1732 21-06-2003 11:38:25 19.8 C 6.32 g/m*3 19.8 C 0 km/h
1733 21-06-2003 12:00:25 20.3 C 6.16 g/m*3 20.3 C 0 km/h
1734 21-06-2003 12:22:25 21.8 C 5.95 g/m*3 21.8 C 0 km/h
1735 21-06-2003 12:44:25 23.3 C 6.27 g/m*3 23.3 C 0 km/h
1736 21-06-2003 13:06:25 24.1 C 5.69 g/m*3 24.1 C 0 km/h
1737 21-06-2003 13:28:25 23.4 C 5.68 g/m*3 23.4 C 0 km/h
1738 21-06-2003 13:50:25 25.6 C 5.95 g/m*3 25.6 C 0 km/h
1739 21-06-2003 14:12:25 25.1 C 5.79 g/m*3 25.1 C 0 km/h
1740 21-06-2003 14:34:25 25 C 6.45 g/m*3 25 C 0 km/h
1741 21-06-2003 14:56:25 25.3 C 5.85 g/m*3 25.3 C 0 km/h
1742 21-06-2003 15:18:25 26.1 C 6.12 g/m*3 26.1 C 0 km/h
1743 21-06-2003 15:40:25 26.7 C 5.57 g/m*3 26.7 C 0 km/h
1744 21-06-2003 16:02:25 24.6 C 5.63 g/m*3 24.6 C 0 km/h
1745 21-06-2003 16:24:25 24.7 C 5.88 g/m*3 24.7 C 0 km/h
1746 21-06-2003 16:46:25 26.7 C 6.07 g/m*3 26.7 C 0 km/h
1747 21-06-2003 17:08:25 27.5 C 5.82 g/m*3 27.5 C 0 km/h
1748 21-06-2003 17:30:25 26.4 C 5.73 g/m*3 26.4 C 0 km/h
1749 21-06-2003 17:52:25 26.9 C 5.89 g/m*3 26.9 C 0 km/h
1750 21-06-2003 18:14:25 28.1 C 5.74 g/m*3 28.1 C 0 km/h
Sensor: Nr:Datum:Temp:Abs-Feuchte:Windchill:Wind:
Aussen-T/F 1751 21-06-2003 18:36:25 26.8 C 5.85 g/m*3 26.8 C 0 km/h
1752 21-06-2003 18:58:25 25.1 C 6.02 g/m*3 25.1 C 0 km/h
1753 21-06-2003 19:20:25 26.9 C 6.65 g/m*3 26.9 C 0 km/h
1754 21-06-2003 19:42:25 27.3 C 6.28 g/m*3 27.3 C 0 km/h
1755 21-06-2003 20:04:25 26.4 C 6.47 g/m*3 26.4 C 0 km/h
1756 21-06-2003 20:26:25 25.7 C 6.7 g/m*3 25.7 C 0 km/h
1757 21-06-2003 20:48:25 24.5 C 6.94 g/m*3 24.5 C 0 km/h
1758 21-06-2003 21:10:25 23.4 C 7.15 g/m*3 23.4 C 0 km/h
1759 21-06-2003 21:32:25 21.9 C 8.1 g/m*3 21.9 C 0 km/h
1760 21-06-2003 21:54:25 20.1 C 7.47 g/m*3 20.1 C 0 km/h
1761 21-06-2003 22:16:25 18.9 C 7.61 g/m*3 18.9 C 0 km/h
1762 21-06-2003 22:38:25 18.1 C 7.57 g/m*3 18.1 C 0 km/h
1763 21-06-2003 23:00:25 17.8 C 7.59 g/m*3 17.8 C 0 km/h
1764 21-06-2003 23:22:25 17.5 C 7.6 g/m*3 17.5 C 0 km/h
1765 21-06-2003 23:44:25 17.2 C 7.76 g/m*3 17.2 C 0 km/h
1766 22-06-2003 00:06:25 16.8 C 7.72 g/m*3 16.8 C 0 km/h
1767 22-06-2003 00:28:25 16.6 C 8.19 g/m*3 16.6 C 0 km/h
1768 22-06-2003 00:50:25 16.4 C 7.82 g/m*3 16.4 C 0 km/h
1769 22-06-2003 01:12:25 16.2 C 7.86 g/m*3 16.2 C 0 km/h
1770 22-06-2003 01:34:25 15.9 C 7.99 g/m*3 15.9 C 0 km/h
1771 22-06-2003 01:56:25 15.8 C 8.08 g/m*3 15.8 C 0 km/h
1772 22-06-2003 02:18:25 15.1 C 8.13 g/m*3 15.1 C 0 km/h
1773 22-06-2003 02:40:25 14.8 C 8.11 g/m*3 14.8 C 0 km/h
1774 22-06-2003 03:02:25 14.3 C 8.11 g/m*3 14.3 C 0 km/h
1775 22-06-2003 03:24:25 14.1 C 8.13 g/m*3 14.1 C 0 km/h
Sensor: Nr:Datum:Temp:Abs-Feuchte:Windchill:Wind:
Aussen-T/F 1776 22-06-2003 03:46:25 13.7 C 8.17 g/m*3 13.7 C 0 km/h
1777 22-06-2003 04:08:25 13.4 C 8.02 g/m*3 13.4 C 0 km/h
1778 22-06-2003 04:30:25 13.1 C 7.99 g/m*3 13.1 C 0 km/h
1779 22-06-2003 04:52:25 12.9 C 8.11 g/m*3 12.9 C 0 km/h
1780 22-06-2003 05:14:25 12.5 C 8.03 g/m*3 12.5 C 0 km/h
1781 22-06-2003 05:36:25 12.4 C 7.98 g/m*3 12.4 C 0 km/h
1782 22-06-2003 05:58:25 12.4 C 8.3 g/m*3 12.4 C 0 km/h
1783 22-06-2003 06:20:25 12.4 C 8.41 g/m*3 12.4 C 0 km/h
1784 22-06-2003 06:42:25 12.8 C 8.51 g/m*3 12.8 C 0 km/h
1785 22-06-2003 07:04:25 13.1 C 8.44 g/m*3 13.1 C 0 km/h
1786 22-06-2003 07:26:25 13 C 8.62 g/m*3 13 C 0 km/h
1787 22-06-2003 07:48:25 13.9 C 8.75 g/m*3 13.9 C 0 km/h
1788 22-06-2003 08:10:25 14.3 C 8.85 g/m*3 14.3 C 0 km/h
1789 22-06-2003 08:32:25 14.7 C 9.07 g/m*3 14.7 C 0 km/h
1790 22-06-2003 08:54:25 15.5 C 9.25 g/m*3 15.5 C 0 km/h
1791 22-06-2003 09:16:25 17 C 9.55 g/m*3 17 C 0 km/h
1792 22-06-2003 09:38:25 18.6 C 9.55 g/m*3 18.6 C 0 km/h
1793 22-06-2003 10:00:25 19.9 C 9.79 g/m*3 19.9 C 0 km/h
1794 22-06-2003 10:22:25 20.9 C 8.56 g/m*3 20.9 C 0 km/h
1795 22-06-2003 10:44:25 22.3 C 8.89 g/m*3 22.3 C 0 km/h
1796 22-06-2003 11:06:25 23.2 C 7.9 g/m*3 23.2 C 0 km/h
1797 22-06-2003 11:28:25 24 C 8.05 g/m*3 24 C 0 km/h
1798 22-06-2003 11:50:25 25.2 C 7.92 g/m*3 25.2 C 0 km/h
1799 22-06-2003 12:12:25 26.8 C 7.89 g/m*3 26.8 C 0 km/h
1800 22-06-2003 12:34:25 27.2 C 7.29 g/m*3 27.2 C 0 km/h
Sensor: Nr:Datum:Temp:Abs-Feuchte:Windchill:Wind:
Aussen-T/F 1801 22-06-2003 12:56:25 28.7 C 7.63 g/m*3 28.7 C 0 km/h
1802 22-06-2003 13:18:25 30 C 7.58 g/m*3 30 C 0 km/h
1803 22-06-2003 13:40:25 30.1 C 7.62 g/m*3 30.1 C 0 km/h
1804 22-06-2003 14:02:25 30.2 C 8.28 g/m*3 30.2 C 0 km/h
1805 22-06-2003 14:24:25 30.2 C 8.28 g/m*3 30.2 C 0 km/h
1806 22-06-2003 14:46:25 30.1 C 8.84 g/m*3 30.1 C 0 km/h
1807 22-06-2003 15:08:25 30.4 C 9.3 g/m*3 30.4 C 0 km/h
1808 22-06-2003 15:30:25 31.4 C 8.17 g/m*3 31.4 C 0 km/h
1809 22-06-2003 15:52:25 31.7 C 6.98 g/m*3 31.7 C 0 km/h
1810 22-06-2003 16:14:25 31.8 C 7.68 g/m*3 31.8 C 0 km/h
1811 22-06-2003 16:36:25 32.4 C 7.93 g/m*3 32.4 C 0 km/h
1812 22-06-2003 16:58:25 32.4 C 7.59 g/m*3 32.4 C 0 km/h
1813 22-06-2003 17:20:25 32.1 C 7.81 g/m*3 32.1 C 0 km/h
1814 22-06-2003 17:42:25 31.8 C 10.02 g/m*3 31.8 C 0 km/h
1815 22-06-2003 18:04:25 32.6 C 8.71 g/m*3 32.6 C 0 km/h
1816 22-06-2003 18:26:25 33.3 C 7.96 g/m*3 33.3 C 0 km/h
1817 22-06-2003 18:48:25 32.9 C 7.44 g/m*3 32.9 C 0 km/h
1818 22-06-2003 19:10:25 32.7 C 9.81 g/m*3 32.7 C 0 km/h
1819 22-06-2003 19:32:25 30.7 C 10.71 g/m*3 30.7 C 0 km/h
1820 22-06-2003 19:54:25 29.8 C 11.1 g/m*3 29.8 C 0 km/h
1821 22-06-2003 20:16:25 28.5 C 10.06 g/m*3 28.5 C 0 km/h
1822 22-06-2003 20:38:25 29.2 C 9.87 g/m*3 29.2 C 0 km/h
1823 22-06-2003 21:00:25 28.5 C 10.9 g/m*3 28.5 C 0 km/h
1824 22-06-2003 21:22:25 26.7 C 10.88 g/m*3 26.7 C 0 km/h
1825 22-06-2003 21:44:25 25.9 C 10.41 g/m*3 25.9 C 0 km/h
Sensor: Nr:Datum:Temp:Abs-Feuchte:Windchill:Wind:
Aussen-T/F 1826 22-06-2003 22:06:25 24.7 C 10.41 g/m*3 24.7 C 0 km/h
1827 22-06-2003 22:28:25 23.9 C 10.38 g/m*3 23.9 C 0 km/h
1828 22-06-2003 22:50:25 23.5 C 10.36 g/m*3 23.5 C 0 km/h
1829 22-06-2003 23:12:25 22.9 C 10.22 g/m*3 22.9 C 0 km/h
1830 22-06-2003 23:34:25 22.5 C 10.19 g/m*3 22.5 C 0 km/h
1831 22-06-2003 23:56:25 22.3 C 9.87 g/m*3 22.3 C 0 km/h
1832 23-06-2003 00:18:25 21.7 C 10.11 g/m*3 21.7 C 0 km/h
1833 23-06-2003 00:40:25 21.3 C 10.25 g/m*3 21.3 C 0 km/h
1834 23-06-2003 01:02:25 20.8 C 10.5 g/m*3 20.8 C 0 km/h
1835 23-06-2003 01:24:25 20.4 C 10.61 g/m*3 20.4 C 0 km/h
1836 23-06-2003 01:46:25 20 C 10.71 g/m*3 20 C 0 km/h
1837 23-06-2003 02:08:25 19.5 C 10.91 g/m*3 19.5 C 0 km/h
1838 23-06-2003 02:30:25 19 C 10.59 g/m*3 19 C 0 km/h
1839 23-06-2003 02:52:25 18.5 C 10.92 g/m*3 18.5 C 0 km/h
1840 23-06-2003 03:14:25 18.1 C 10.97 g/m*3 18.1 C 0 km/h
1841 23-06-2003 03:36:25 17.9 C 10.99 g/m*3 17.9 C 0 km/h
1842 23-06-2003 03:58:25 17.5 C 11.03 g/m*3 17.5 C 0 km/h
1843 23-06-2003 04:20:25 17.1 C 10.92 g/m*3 17.1 C 0 km/h
1844 23-06-2003 04:42:25 16.9 C 10.93 g/m*3 16.9 C 0 km/h
1845 23-06-2003 05:04:25 16.7 C 10.8 g/m*3 16.7 C 0 km/h
1846 23-06-2003 05:26:25 16.7 C 11.08 g/m*3 16.7 C 0 km/h
1847 23-06-2003 05:48:25 16.5 C 10.95 g/m*3 16.5 C 0 km/h
1848 23-06-2003 06:10:25 16.6 C 11.02 g/m*3 16.6 C 0 km/h
1849 23-06-2003 06:32:25 16.9 C 11.22 g/m*3 16.9 C 0 km/h
1850 23-06-2003 06:54:25 18.3 C 10.79 g/m*3 18.3 C 0 km/h
Sensor: Nr:Datum:Temp:Abs-Feuchte:Windchill:Wind:
Aussen-T/F 1851 23-06-2003 07:16:25 20.4 C 10.26 g/m*3 20.4 C 0 km/h
1852 23-06-2003 07:38:25 20.2 C 11.02 g/m*3 20.2 C 0 km/h
1853 23-06-2003 08:00:25 19.5 C 11.58 g/m*3 19.5 C 0 km/h
1854 23-06-2003 08:22:25 19.9 C 11.85 g/m*3 19.9 C 0 km/h
1855 23-06-2003 08:44:25 21.2 C 10.56 g/m*3 21.2 C 0 km/h
1856 23-06-2003 09:06:25 22.2 C 10.41 g/m*3 22.2 C 0 km/h
1857 23-06-2003 09:28:25 23 C 10.69 g/m*3 23 C 0 km/h
1858 23-06-2003 09:50:25 24.7 C 10.64 g/m*3 24.7 C 0 km/h
1859 23-06-2003 10:12:25 24.8 C 10.7 g/m*3 24.8 C 0 km/h
1860 23-06-2003 10:34:25 24.9 C 11.45 g/m*3 24.9 C 0 km/h
1861 23-06-2003 10:56:25 25.5 C 11.13 g/m*3 25.5 C 0 km/h
1862 23-06-2003 11:18:25 27.1 C 11.65 g/m*3 27.1 C 0 km/h
1863 23-06-2003 11:40:25 28.6 C 11.8 g/m*3 28.6 C 0 km/h
1864 23-06-2003 12:02:25 28.1 C 12.85 g/m*3 28.1 C 0 km/h
1865 23-06-2003 12:24:25 28.9 C 12 g/m*3 28.9 C 0 km/h
1866 23-06-2003 12:46:25 28.7 C 12.15 g/m*3 28.7 C 0 km/h
1867 23-06-2003 13:08:25 30.2 C 11.96 g/m*3 30.2 C 0 km/h
1868 23-06-2003 13:30:25 29.2 C 11.91 g/m*3 29.2 C 0 km/h
1869 23-06-2003 13:52:25 30.7 C 11.34 g/m*3 30.7 C 0 km/h
1870 23-06-2003 14:14:25 30.7 C 11.34 g/m*3 30.7 C 0 km/h
1871 23-06-2003 14:36:25 31 C 11.2 g/m*3 31 C 0 km/h
1872 23-06-2003 14:58:25 30.6 C 10.96 g/m*3 30.6 C 0 km/h
1873 23-06-2003 15:20:25 30.3 C 9.86 g/m*3 30.3 C 0 km/h
1874 23-06-2003 15:42:25 29.5 C 10.03 g/m*3 29.5 C 0 km/h
1875 23-06-2003 16:04:25 28.6 C 10.4 g/m*3 28.6 C 0 km/h
Sensor: Nr:Datum:Temp:Abs-Feuchte:Windchill:Wind:
Aussen-T/F 1876 23-06-2003 16:26:25 28.2 C 11 g/m*3 28.2 C 0 km/h
1877 23-06-2003 16:48:25 28.2 C 11.27 g/m*3 28.2 C 0 km/h
1878 23-06-2003 17:10:25 28.6 C 11.24 g/m*3 28.6 C 0 km/h
1879 23-06-2003 17:32:25 28.2 C 11.27 g/m*3 28.2 C 0 km/h
1880 23-06-2003 17:54:25 28 C 11.69 g/m*3 28 C 0 km/h
1881 23-06-2003 18:16:25 28.3 C 11.89 g/m*3 28.3 C 0 km/h
1882 23-06-2003 18:38:25 28.2 C 12.1 g/m*3 28.2 C 0 km/h
1883 23-06-2003 19:00:25 28.1 C 12.3 g/m*3 28.1 C 0 km/h
1884 23-06-2003 19:22:25 27.1 C 11.39 g/m*3 27.1 C 0 km/h
1885 23-06-2003 19:44:25 27.9 C 11.36 g/m*3 27.9 C 0 km/h
1886 23-06-2003 20:06:25 27 C 10.29 g/m*3 27 C 0 km/h
1887 23-06-2003 20:28:25 26.8 C 10.18 g/m*3 26.8 C 0 km/h
1888 23-06-2003 20:50:25 26.1 C 8.81 g/m*3 26.1 C 0 km/h
1889 23-06-2003 21:12:25 25.2 C 8.85 g/m*3 25.2 C 0 km/h
1890 23-06-2003 21:34:25 24.4 C 8.9 g/m*3 24.4 C 0 km/h
1891 23-06-2003 21:56:25 23.3 C 9.2 g/m*3 23.3 C 0 km/h
1892 23-06-2003 22:18:25 22.6 C 9.04 g/m*3 22.6 C 0 km/h
1893 23-06-2003 23:02:25 21.6 C 8.91 g/m*3 21.6 C 0 km/h
1894 23-06-2003 23:24:25 21.1 C 8.84 g/m*3 21.1 C 0 km/h
1895 23-06-2003 23:46:25 20.8 C 9.23 g/m*3 20.8 C 0 km/h
1896 24-06-2003 00:08:25 20.3 C 9.15 g/m*3 20.3 C 0 km/h
1897 24-06-2003 00:30:25 19.6 C 9.12 g/m*3 19.6 C 0 km/h
1898 24-06-2003 00:52:25 19.4 C 9.34 g/m*3 19.4 C 0 km/h
1899 24-06-2003 01:14:25 19 C 9.45 g/m*3 19 C 0 km/h
1900 24-06-2003 01:36:25 18.5 C 9.49 g/m*3 18.5 C 0 km/h
Sensor: Nr:Datum:Temp:Abs-Feuchte:Windchill:Wind:
Aussen-T/F 1901 24-06-2003 01:58:25 18.1 C 9.73 g/m*3 18.1 C 0 km/h
1902 24-06-2003 02:20:25 17.6 C 9.75 g/m*3 17.6 C 0 km/h
1903 24-06-2003 02:42:25 17.2 C 9.81 g/m*3 17.2 C 0 km/h
1904 24-06-2003 03:04:25 16.8 C 9.87 g/m*3 16.8 C 0 km/h
1905 24-06-2003 03:26:25 16.2 C 10.07 g/m*3 16.2 C 0 km/h
1906 24-06-2003 03:48:25 15.7 C 10.03 g/m*3 15.7 C 0 km/h
1907 24-06-2003 04:10:25 15.4 C 9.85 g/m*3 15.4 C 0 km/h
1908 24-06-2003 04:32:25 15 C 9.87 g/m*3 15 C 0 km/h
1909 24-06-2003 04:54:25 14.5 C 9.95 g/m*3 14.5 C 0 km/h
1910 24-06-2003 05:16:25 14.2 C 10.01 g/m*3 14.2 C 0 km/h
1911 24-06-2003 05:38:25 14 C 9.89 g/m*3 14 C 0 km/h
1912 24-06-2003 06:00:25 14 C 9.89 g/m*3 14 C 0 km/h
1913 24-06-2003 06:22:25 14.1 C 9.83 g/m*3 14.1 C 0 km/h
1914 24-06-2003 06:44:25 14.3 C 9.95 g/m*3 14.3 C 0 km/h
1915 24-06-2003 07:06:25 14.6 C 10.01 g/m*3 14.6 C 0 km/h
1916 24-06-2003 07:28:25 15 C 10 g/m*3 15 C 0 km/h
1917 24-06-2003 07:50:25 15.4 C 10.25 g/m*3 15.4 C 0 km/h
1918 24-06-2003 08:12:25 15.8 C 10.36 g/m*3 15.8 C 0 km/h
1919 24-06-2003 08:34:25 16.4 C 10.19 g/m*3 16.4 C 0 km/h
1920 24-06-2003 08:56:25 17.2 C 10.4 g/m*3 17.2 C 0 km/h
1921 24-06-2003 09:18:25 17.9 C 10.38 g/m*3 17.9 C 0 km/h
1922 24-06-2003 09:40:25 19.1 C 10.33 g/m*3 19.1 C 0 km/h
1923 24-06-2003 10:02:25 20.8 C 10.5 g/m*3 20.8 C 0 km/h
1924 24-06-2003 10:24:25 21.4 C 9.56 g/m*3 21.4 C 0 km/h
1925 24-06-2003 10:46:25 22 C 9.7 g/m*3 22 C 0 km/h
Sensor: Nr:Datum:Temp:Abs-Feuchte:Windchill:Wind:
Aussen-T/F 1926 24-06-2003 11:08:25 23.6 C 9.57 g/m*3 23.6 C 0 km/h
1927 24-06-2003 11:30:25 23.2 C 9.36 g/m*3 23.2 C 0 km/h
1928 24-06-2003 11:52:25 25.2 C 9.54 g/m*3 25.2 C 0 km/h
1929 24-06-2003 12:14:25 26.4 C 9.46 g/m*3 26.4 C 0 km/h
1930 24-06-2003 12:36:25 26.3 C 8.91 g/m*3 26.3 C 0 km/h
1931 24-06-2003 12:58:25 27.8 C 9.41 g/m*3 27.8 C 0 km/h
1932 24-06-2003 13:20:25 26.9 C 8.19 g/m*3 26.9 C 0 km/h
1933 24-06-2003 13:42:25 29.1 C 7.8 g/m*3 29.1 C 0 km/h
1934 24-06-2003 14:04:25 28.1 C 8.48 g/m*3 28.1 C 0 km/h
1935 24-06-2003 14:26:25 29.4 C 8.51 g/m*3 29.4 C 0 km/h
1936 24-06-2003 14:48:25 29.6 C 8.9 g/m*3 29.6 C 0 km/h
1937 24-06-2003 15:10:25 29.5 C 7.97 g/m*3 29.5 C 0 km/h
1938 24-06-2003 15:32:25 30.7 C 8.19 g/m*3 30.7 C 0 km/h
1939 24-06-2003 15:54:25 30.3 C 9.25 g/m*3 30.3 C 0 km/h
1940 24-06-2003 16:16:25 30.4 C 8.68 g/m*3 30.4 C 0 km/h
1941 24-06-2003 16:38:25 30.1 C 8.23 g/m*3 30.1 C 0 km/h
1942 24-06-2003 17:00:25 30.1 C 8.84 g/m*3 30.1 C 0 km/h
1943 24-06-2003 17:22:25 28.5 C 8.66 g/m*3 28.5 C 0 km/h
1944 24-06-2003 17:44:25 28.3 C 9.12 g/m*3 28.3 C 0 km/h
1945 24-06-2003 18:06:25 29 C 9.19 g/m*3 29 C 0 km/h
1946 24-06-2003 18:28:25 28.3 C 9.4 g/m*3 28.3 C 0 km/h
1947 24-06-2003 18:50:25 28.6 C 8.99 g/m*3 28.6 C 0 km/h
1948 24-06-2003 19:12:25 28.4 C 8.9 g/m*3 28.4 C 0 km/h
1949 24-06-2003 19:34:25 27.8 C 8.61 g/m*3 27.8 C 0 km/h
1950 24-06-2003 19:56:25 26.5 C 8.76 g/m*3 26.5 C 0 km/h
Sensor: Nr:Datum:Temp:Abs-Feuchte:Windchill:Wind:
Aussen-T/F 1951 24-06-2003 20:18:25 25.7 C 8.86 g/m*3 25.7 C 0 km/h
1952 24-06-2003 20:40:25 24.6 C 8.78 g/m*3 24.6 C 0 km/h
1953 24-06-2003 21:02:25 24.1 C 8.75 g/m*3 24.1 C 0 km/h
1954 24-06-2003 21:24:25 23 C 8.63 g/m*3 23 C 0 km/h
1955 24-06-2003 21:46:25 22.7 C 8.89 g/m*3 22.7 C 0 km/h
1956 24-06-2003 22:08:25 21.8 C 8.83 g/m*3 21.8 C 0 km/h
1957 24-06-2003 22:30:25 21.5 C 8.86 g/m*3 21.5 C 0 km/h
1958 24-06-2003 22:52:25 20.9 C 8.92 g/m*3 20.9 C 0 km/h
1959 24-06-2003 23:14:25 20.5 C 8.9 g/m*3 20.5 C 0 km/h
1960 24-06-2003 23:36:25 20 C 8.99 g/m*3 20 C 0 km/h
1961 24-06-2003 23:58:25 19.4 C 9.01 g/m*3 19.4 C 0 km/h
1962 25-06-2003 00:20:25 19.1 C 8.85 g/m*3 19.1 C 0 km/h
1963 25-06-2003 00:42:25 18.7 C 8.97 g/m*3 18.7 C 0 km/h
1964 25-06-2003 01:04:25 18.4 C 9.12 g/m*3 18.4 C 0 km/h
1965 25-06-2003 01:26:25 18 C 9.06 g/m*3 18 C 0 km/h
1966 25-06-2003 01:48:25 17.6 C 9.15 g/m*3 17.6 C 0 km/h
1967 25-06-2003 02:10:25 17.3 C 9.13 g/m*3 17.3 C 0 km/h
1968 25-06-2003 02:32:25 16.5 C 9.27 g/m*3 16.5 C 0 km/h
1969 25-06-2003 02:54:25 16.2 C 9.24 g/m*3 16.2 C 0 km/h
1970 25-06-2003 03:16:25 16 C 9.26 g/m*3 16 C 0 km/h
1971 25-06-2003 03:38:25 15.6 C 9.31 g/m*3 15.6 C 0 km/h
1972 25-06-2003 04:00:25 15.2 C 9.22 g/m*3 15.2 C 0 km/h
1973 25-06-2003 04:22:25 14.8 C 9.25 g/m*3 14.8 C 0 km/h
1974 25-06-2003 04:44:25 14.4 C 9.27 g/m*3 14.4 C 0 km/h
1975 25-06-2003 05:06:25 14.1 C 9.22 g/m*3 14.1 C 0 km/h
Sensor: Nr:Datum:Temp:Abs-Feuchte:Windchill:Wind:
Aussen-T/F 1976 25-06-2003 05:28:25 13.8 C 9.17 g/m*3 13.8 C 0 km/h
1977 25-06-2003 05:50:25 13.8 C 9.29 g/m*3 13.8 C 0 km/h
1978 25-06-2003 06:12:25 13.9 C 9.35 g/m*3 13.9 C 0 km/h
1979 25-06-2003 06:34:25 13.8 C 9.29 g/m*3 13.8 C 0 km/h
1980 25-06-2003 06:56:25 14.2 C 9.52 g/m*3 14.2 C 0 km/h
1981 25-06-2003 07:18:25 14.4 C 9.52 g/m*3 14.4 C 0 km/h
1982 25-06-2003 07:40:25 14.8 C 9.5 g/m*3 14.8 C 0 km/h
1983 25-06-2003 08:02:25 15.1 C 9.29 g/m*3 15.1 C 0 km/h
1984 25-06-2003 08:24:25 15.5 C 9.39 g/m*3 15.5 C 0 km/h
1985 25-06-2003 08:46:25 15.8 C 9.29 g/m*3 15.8 C 0 km/h
1986 25-06-2003 09:08:25 16.2 C 9.1 g/m*3 16.2 C 0 km/h
1987 25-06-2003 09:30:25 17.6 C 9.45 g/m*3 17.6 C 0 km/h
1988 25-06-2003 09:52:25 18.8 C 9.02 g/m*3 18.8 C 0 km/h
1989 25-06-2003 10:14:25 19.9 C 8.93 g/m*3 19.9 C 0 km/h
1990 25-06-2003 10:36:25 20.6 C 8.77 g/m*3 20.6 C 0 km/h
1991 25-06-2003 10:58:25 21.5 C 9.05 g/m*3 21.5 C 0 km/h
1992 25-06-2003 11:20:25 21.6 C 8.53 g/m*3 21.6 C 0 km/h
1993 25-06-2003 11:42:25 23.3 C 8.57 g/m*3 23.3 C 0 km/h
1994 25-06-2003 12:04:25 23.7 C 8.13 g/m*3 23.7 C 0 km/h
1995 25-06-2003 12:26:25 25 C 7.14 g/m*3 25 C 0 km/h
1996 25-06-2003 12:48:25 25.8 C 7.22 g/m*3 25.8 C 0 km/h
1997 25-06-2003 13:10:25 27.1 C 6.73 g/m*3 27.1 C 0 km/h
1998 25-06-2003 13:32:25 26 C 6.33 g/m*3 26 C 0 km/h
1999 25-06-2003 13:54:25 26.8 C 6.62 g/m*3 26.8 C 0 km/h
2000 25-06-2003 14:16:25 27.4 C 6.84 g/m*3 27.4 C 0 km/h
Sensor: Nr:Datum:Temp:Abs-Feuchte:Windchill:Wind:
Aussen-T/F 2001 25-06-2003 14:38:25 28.1 C 7.11 g/m*3 28.1 C 0 km/h
2002 25-06-2003 15:00:25 27.7 C 7.49 g/m*3 27.7 C 0 km/h
2003 25-06-2003 15:22:25 29.5 C 7.38 g/m*3 29.5 C 0 km/h
2004 25-06-2003 15:44:25 29.5 C 6.79 g/m*3 29.5 C 0 km/h
2005 25-06-2003 16:06:25 29.4 C 6.75 g/m*3 29.4 C 0 km/h
2006 25-06-2003 16:28:25 29.7 C 6.86 g/m*3 29.7 C 0 km/h
2007 25-06-2003 16:50:25 30.1 C 6.4 g/m*3 30.1 C 0 km/h
2008 25-06-2003 17:12:25 30 C 6.37 g/m*3 30 C 0 km/h
2009 25-06-2003 17:34:25 30.4 C 6.51 g/m*3 30.4 C 0 km/h
2010 25-06-2003 17:56:25 30.3 C 7.09 g/m*3 30.3 C 0 km/h
2011 25-06-2003 18:18:25 30 C 6.97 g/m*3 30 C 0 km/h
2012 25-06-2003 18:40:25 30.5 C 6.23 g/m*3 30.5 C 0 km/h
2013 25-06-2003 19:02:25 30.8 C 6.33 g/m*3 30.8 C 0 km/h
2014 25-06-2003 19:24:25 28.6 C 6.18 g/m*3 28.6 C 0 km/h
2015 25-06-2003 19:46:25 27.2 C 6.51 g/m*3 27.2 C 0 km/h
2016 25-06-2003 20:08:25 26.2 C 7.14 g/m*3 26.2 C 0 km/h
2017 25-06-2003 20:30:25 25.9 C 7.26 g/m*3 25.9 C 0 km/h
2018 25-06-2003 20:52:25 26.7 C 7.85 g/m*3 26.7 C 0 km/h
2019 25-06-2003 21:14:25 25.6 C 8.57 g/m*3 25.6 C 0 km/h
2020 25-06-2003 21:36:25 24 C 8.49 g/m*3 24 C 0 km/h
2021 25-06-2003 21:58:25 23.1 C 8.48 g/m*3 23.1 C 0 km/h
2022 25-06-2003 22:20:25 22.3 C 8.69 g/m*3 22.3 C 0 km/h
2023 25-06-2003 22:42:25 21.8 C 8.63 g/m*3 21.8 C 0 km/h
2024 25-06-2003 23:04:25 20.8 C 8.87 g/m*3 20.8 C 0 km/h
2025 25-06-2003 23:26:25 20.4 C 9.02 g/m*3 20.4 C 0 km/h
Sensor: Nr:Datum:Temp:Abs-Feuchte:Windchill:Wind:
Aussen-T/F 2026 25-06-2003 23:48:25 20.1 C 8.87 g/m*3 20.1 C 0 km/h
2027 26-06-2003 00:10:25 19.8 C 8.88 g/m*3 19.8 C 0 km/h
2028 26-06-2003 00:32:25 19.3 C 9.12 g/m*3 19.3 C 0 km/h
2029 26-06-2003 00:54:25 18.7 C 9.29 g/m*3 18.7 C 0 km/h
2030 26-06-2003 01:16:25 18 C 9.06 g/m*3 18 C 0 km/h
2031 26-06-2003 01:38:25 17.7 C 9.35 g/m*3 17.7 C 0 km/h
2032 26-06-2003 02:00:25 17.3 C 9.28 g/m*3 17.3 C 0 km/h
2033 26-06-2003 02:22:25 16.9 C 9.35 g/m*3 16.9 C 0 km/h
2034 26-06-2003 02:44:25 16.5 C 9.55 g/m*3 16.5 C 0 km/h
2035 26-06-2003 03:06:25 16.2 C 9.38 g/m*3 16.2 C 0 km/h
2036 26-06-2003 03:28:25 16.1 C 9.05 g/m*3 16.1 C 0 km/h
2037 26-06-2003 03:50:25 15.9 C 9.07 g/m*3 15.9 C 0 km/h
2038 26-06-2003 04:12:25 15.6 C 9.04 g/m*3 15.6 C 0 km/h
2039 26-06-2003 04:34:25 15.3 C 9.01 g/m*3 15.3 C 0 km/h
2040 26-06-2003 04:56:25 15 C 8.98 g/m*3 15 C 0 km/h
2041 26-06-2003 05:18:25 14.7 C 8.94 g/m*3 14.7 C 0 km/h
2042 26-06-2003 05:40:25 14.5 C 8.95 g/m*3 14.5 C 0 km/h
2043 26-06-2003 06:02:25 14.4 C 9.15 g/m*3 14.4 C 0 km/h
2044 26-06-2003 06:24:25 14.5 C 9.33 g/m*3 14.5 C 0 km/h
2045 26-06-2003 06:46:25 14.5 C 9.2 g/m*3 14.5 C 0 km/h
2046 26-06-2003 07:08:25 14.8 C 9.5 g/m*3 14.8 C 0 km/h
2047 26-06-2003 07:30:25 15.4 C 9.59 g/m*3 15.4 C 0 km/h
2048 26-06-2003 07:52:25 15.8 C 9.42 g/m*3 15.8 C 0 km/h
2049 26-06-2003 08:14:25 16.8 C 9.15 g/m*3 16.8 C 0 km/h
2050 26-06-2003 08:36:25 17.9 C 9.31 g/m*3 17.9 C 0 km/h
Sensor: Nr:Datum:Temp:Abs-Feuchte:Windchill:Wind:
Aussen-T/F 2051 26-06-2003 08:58:25 19.1 C 9.18 g/m*3 19.1 C 0 km/h
2052 26-06-2003 09:20:25 19.7 C 9 g/m*3 19.7 C 0 km/h
2053 26-06-2003 09:42:25 20.6 C 8.95 g/m*3 20.6 C 0 km/h
2054 26-06-2003 10:04:25 21.6 C 9.1 g/m*3 21.6 C 0 km/h
2055 26-06-2003 10:26:25 22.3 C 9.28 g/m*3 22.3 C 0 km/h
2056 26-06-2003 10:48:25 23.6 C 9.36 g/m*3 23.6 C 0 km/h
2057 26-06-2003 11:10:25 24.8 C 9.56 g/m*3 24.8 C 0 km/h
2058 26-06-2003 11:32:25 25.3 C 8.9 g/m*3 25.3 C 0 km/h
2059 26-06-2003 11:54:25 26.2 C 8.62 g/m*3 26.2 C 0 km/h
2060 26-06-2003 12:16:25 27.7 C 8.83 g/m*3 27.7 C 0 km/h
2061 26-06-2003 12:38:25 28.2 C 7.97 g/m*3 28.2 C 0 km/h
2062 26-06-2003 13:00:25 30 C 8.19 g/m*3 30 C 0 km/h
2063 26-06-2003 13:22:25 30.4 C 7.75 g/m*3 30.4 C 0 km/h
2064 26-06-2003 13:44:25 30.6 C 7.2 g/m*3 30.6 C 0 km/h
2065 26-06-2003 14:06:25 31.2 C 7.44 g/m*3 31.2 C 0 km/h
2066 26-06-2003 14:28:25 30.1 C 7.93 g/m*3 30.1 C 0 km/h
2067 26-06-2003 14:50:25 30.7 C 7.24 g/m*3 30.7 C 0 km/h
2068 26-06-2003 15:12:25 31 C 7.36 g/m*3 31 C 0 km/h
2069 26-06-2003 15:34:25 31.6 C 6.94 g/m*3 31.6 C 0 km/h
2070 26-06-2003 15:56:25 31.5 C 6.57 g/m*3 31.5 C 0 km/h
2071 26-06-2003 16:18:25 32.4 C 6.9 g/m*3 32.4 C 0 km/h
2072 26-06-2003 16:40:25 32.5 C 6.93 g/m*3 32.5 C 0 km/h
2073 26-06-2003 17:02:25 32.4 C 6.9 g/m*3 32.4 C 0 km/h
2074 26-06-2003 17:24:25 32.5 C 6.93 g/m*3 32.5 C 0 km/h
2075 26-06-2003 17:46:25 32.5 C 6.93 g/m*3 32.5 C 0 km/h
Sensor: Nr:Datum:Temp:Abs-Feuchte:Windchill:Wind:
Aussen-T/F 2076 26-06-2003 18:08:25 32.1 C 6.79 g/m*3 32.1 C 0 km/h
2077 26-06-2003 18:30:25 32.7 C 7.01 g/m*3 32.7 C 0 km/h
2078 26-06-2003 18:52:25 31.3 C 7.81 g/m*3 31.3 C 0 km/h
2079 26-06-2003 19:14:25 30.9 C 8.91 g/m*3 30.9 C 0 km/h
2080 26-06-2003 19:36:25 30.6 C 8.14 g/m*3 30.6 C 0 km/h
2081 26-06-2003 19:58:25 30.4 C 7.75 g/m*3 30.4 C 0 km/h
2082 26-06-2003 20:20:25 30.1 C 7.93 g/m*3 30.1 C 0 km/h
2083 26-06-2003 20:42:25 29.4 C 7.93 g/m*3 29.4 C 0 km/h
2084 26-06-2003 21:04:25 28.1 C 8.2 g/m*3 28.1 C 0 km/h
2085 26-06-2003 21:26:25 26.1 C 8.08 g/m*3 26.1 C 0 km/h
2086 26-06-2003 21:48:25 25.2 C 6.98 g/m*3 25.2 C 0 km/h
2087 26-06-2003 22:10:25 24.3 C 6.86 g/m*3 24.3 C 0 km/h
2088 26-06-2003 22:32:25 23.7 C 7.49 g/m*3 23.7 C 0 km/h
2089 26-06-2003 22:54:25 23.2 C 7.9 g/m*3 23.2 C 0 km/h
2090 26-06-2003 23:16:25 22.5 C 8.19 g/m*3 22.5 C 0 km/h
2091 26-06-2003 23:38:25 22 C 8.35 g/m*3 22 C 0 km/h
2092 27-06-2003 00:00:25 21.5 C 8.49 g/m*3 21.5 C 0 km/h
2093 27-06-2003 00:22:25 20.9 C 8.38 g/m*3 20.9 C 0 km/h
2094 27-06-2003 00:44:25 20.2 C 8.04 g/m*3 20.2 C 0 km/h
2095 27-06-2003 01:06:25 19.9 C 7.9 g/m*3 19.9 C 0 km/h
2096 27-06-2003 01:28:25 19.6 C 7.77 g/m*3 19.6 C 0 km/h
2097 27-06-2003 01:50:25 19.2 C 7.75 g/m*3 19.2 C 0 km/h
2098 27-06-2003 02:12:25 18.9 C 8.1 g/m*3 18.9 C 0 km/h
2099 27-06-2003 02:34:25 18.5 C 8.07 g/m*3 18.5 C 0 km/h
2100 27-06-2003 02:56:25 18.1 C 8.03 g/m*3 18.1 C 0 km/h
Sensor: Nr:Datum:Temp:Abs-Feuchte:Windchill:Wind:
Aussen-T/F 2101 27-06-2003 03:18:25 17.9 C 8.09 g/m*3 17.9 C 0 km/h
2102 27-06-2003 03:40:25 17.9 C 8.09 g/m*3 17.9 C 0 km/h
2103 27-06-2003 04:02:25 17.7 C 8.15 g/m*3 17.7 C 0 km/h
2104 27-06-2003 04:24:25 17.2 C 8.2 g/m*3 17.2 C 0 km/h
2105 27-06-2003 04:46:25 16.7 C 8.24 g/m*3 16.7 C 0 km/h
2106 27-06-2003 05:08:25 16.4 C 8.37 g/m*3 16.4 C 0 km/h
2107 27-06-2003 05:30:25 16.1 C 8.22 g/m*3 16.1 C 0 km/h
2108 27-06-2003 05:52:25 16 C 8.45 g/m*3 16 C 0 km/h
2109 27-06-2003 06:14:25 16 C 8.72 g/m*3 16 C 0 km/h
2110 27-06-2003 06:35:25 16 C 8.99 g/m*3 16 C 0 km/h
2111 27-06-2003 06:57:25 16.2 C 9.1 g/m*3 16.2 C 0 km/h
2112 27-06-2003 07:19:25 16.6 C 9.46 g/m*3 16.6 C 0 km/h
2113 27-06-2003 07:41:25 16.8 C 9.15 g/m*3 16.8 C 0 km/h
2114 27-06-2003 08:03:25 17.4 C 9.48 g/m*3 17.4 C 0 km/h
2115 27-06-2003 08:25:25 18.1 C 9.58 g/m*3 18.1 C 0 km/h
2116 27-06-2003 08:47:25 18.8 C 9.02 g/m*3 18.8 C 0 km/h
2117 27-06-2003 09:09:25 19.6 C 9.12 g/m*3 19.6 C 0 km/h
2118 27-06-2003 09:31:25 20.7 C 9.18 g/m*3 20.7 C 0 km/h
2119 27-06-2003 09:53:25 21.9 C 9.26 g/m*3 21.9 C 0 km/h
2120 27-06-2003 10:15:25 22.9 C 9.2 g/m*3 22.9 C 0 km/h
2121 27-06-2003 10:37:25 24.1 C 8.97 g/m*3 24.1 C 0 km/h
2122 27-06-2003 10:59:25 24.7 C 9.05 g/m*3 24.7 C 0 km/h
2123 27-06-2003 11:21:25 25.8 C 8.67 g/m*3 25.8 C 0 km/h
2124 27-06-2003 11:43:25 26.6 C 9.06 g/m*3 26.6 C 0 km/h
2125 27-06-2003 12:05:25 28.1 C 8.75 g/m*3 28.1 C 0 km/h
Sensor: Nr:Datum:Temp:Abs-Feuchte:Windchill:Wind:
Aussen-T/F 2126 27-06-2003 12:27:25 28.9 C 8.86 g/m*3 28.9 C 0 km/h
2127 27-06-2003 12:49:25 28.9 C 8.86 g/m*3 28.9 C 0 km/h
2128 27-06-2003 13:11:25 30.6 C 8.77 g/m*3 30.6 C 0 km/h
2129 27-06-2003 13:33:25 30.4 C 9.3 g/m*3 30.4 C 0 km/h
2130 27-06-2003 13:55:25 30.7 C 8.5 g/m*3 30.7 C 0 km/h
2131 27-06-2003 14:17:25 30 C 8.79 g/m*3 30 C 0 km/h
2132 27-06-2003 14:39:25 31.2 C 8.41 g/m*3 31.2 C 0 km/h
2133 27-06-2003 15:01:25 31 C 8.96 g/m*3 31 C 0 km/h
2134 27-06-2003 15:23:25 31.9 C 9.07 g/m*3 31.9 C 0 km/h
2135 27-06-2003 15:45:25 31.7 C 8.31 g/m*3 31.7 C 0 km/h
2136 27-06-2003 16:07:25 30.5 C 8.72 g/m*3 30.5 C 0 km/h
2137 27-06-2003 16:29:25 30.3 C 10.79 g/m*3 30.3 C 0 km/h
2138 27-06-2003 16:51:25 28.1 C 10.12 g/m*3 28.1 C 0 km/h
2139 27-06-2003 17:13:25 25.8 C 11.8 g/m*3 25.8 C 0 km/h
2140 27-06-2003 17:35:25 26 C 11.2 g/m*3 26 C 0 km/h
2141 27-06-2003 17:57:25 25.4 C 10.83 g/m*3 25.4 C 0 km/h
2142 27-06-2003 18:19:25 25.2 C 10.71 g/m*3 25.2 C 0 km/h
2143 27-06-2003 18:41:25 24.2 C 11.44 g/m*3 24.2 C 0 km/h
2144 27-06-2003 19:03:25 23.9 C 12.11 g/m*3 23.9 C 0 km/h
2145 27-06-2003 19:25:25 23.2 C 12.27 g/m*3 23.2 C 0 km/h
2146 27-06-2003 19:47:25 22.9 C 12.26 g/m*3 22.9 C 0 km/h
2147 27-06-2003 20:09:25 22.8 C 12.8 g/m*3 22.8 C 0 km/h
2148 27-06-2003 20:53:25 22.4 C 12.31 g/m*3 22.4 C 0 km/h
2149 27-06-2003 21:15:25 22.4 C 12.11 g/m*3 22.4 C 0 km/h
2150 27-06-2003 21:37:25 22.1 C 11.91 g/m*3 22.1 C 0 km/h
Sensor: Nr:Datum:Temp:Abs-Feuchte:Windchill:Wind:
Aussen-T/F 2151 27-06-2003 21:59:25 21.9 C 11.96 g/m*3 21.9 C 0 km/h
2152 27-06-2003 22:21:25 21.8 C 12.09 g/m*3 21.8 C 0 km/h
2153 27-06-2003 22:43:25 21.7 C 12.21 g/m*3 21.7 C 0 km/h
2154 27-06-2003 23:05:25 21.2 C 12.23 g/m*3 21.2 C 0 km/h
2155 27-06-2003 23:27:25 21.1 C 12.34 g/m*3 21.1 C 0 km/h
2156 27-06-2003 23:49:25 21 C 12.46 g/m*3 21 C 0 km/h
2157 28-06-2003 00:11:25 20.8 C 12.31 g/m*3 20.8 C 0 km/h
2158 28-06-2003 00:33:25 20.6 C 12.53 g/m*3 20.6 C 0 km/h
2159 28-06-2003 00:55:25 20.2 C 12.76 g/m*3 20.2 C 0 km/h
2160 28-06-2003 01:17:25 20.4 C 12.74 g/m*3 20.4 C 0 km/h
2161 28-06-2003 01:39:25 20 C 12.79 g/m*3 20 C 0 km/h
2162 28-06-2003 02:01:25 19.9 C 13.06 g/m*3 19.9 C 0 km/h
2163 28-06-2003 02:23:25 19.7 C 13.08 g/m*3 19.7 C 0 km/h
2164 28-06-2003 02:45:25 19.7 C 13.08 g/m*3 19.7 C 0 km/h
2165 28-06-2003 03:07:25 19.5 C 13.26 g/m*3 19.5 C 0 km/h
2166 28-06-2003 03:29:25 19.5 C 13.26 g/m*3 19.5 C 0 km/h
2167 28-06-2003 03:51:25 19.4 C 12.68 g/m*3 19.4 C 0 km/h
2168 28-06-2003 04:13:25 19 C 12.55 g/m*3 19 C 0 km/h
2169 28-06-2003 04:35:25 18.8 C 12.56 g/m*3 18.8 C 0 km/h
2170 28-06-2003 04:57:25 18.8 C 12.88 g/m*3 18.8 C 0 km/h
2171 28-06-2003 05:19:25 18.8 C 13.21 g/m*3 18.8 C 0 km/h
2172 28-06-2003 05:41:25 19.3 C 13.1 g/m*3 19.3 C 0 km/h
2173 28-06-2003 06:03:25 19.3 C 13.1 g/m*3 19.3 C 0 km/h
2174 28-06-2003 06:25:25 19.3 C 13.1 g/m*3 19.3 C 0 km/h
2175 28-06-2003 06:47:25 19.2 C 13.03 g/m*3 19.2 C 0 km/h
Sensor: Nr:Datum:Temp:Abs-Feuchte:Windchill:Wind:
Aussen-T/F 2176 28-06-2003 07:09:25 19.2 C 13.03 g/m*3 19.2 C 0 km/h
2177 28-06-2003 07:31:25 19.3 C 13.1 g/m*3 19.3 C 0 km/h
2178 28-06-2003 07:53:25 19.6 C 12.83 g/m*3 19.6 C 0 km/h
2179 28-06-2003 08:15:25 19.4 C 12.85 g/m*3 19.4 C 0 km/h
2180 28-06-2003 08:37:25 20 C 12.62 g/m*3 20 C 0 km/h
2181 28-06-2003 08:59:25 20 C 12.44 g/m*3 20 C 0 km/h
2182 28-06-2003 09:21:25 20 C 11.92 g/m*3 20 C 0 km/h
2183 28-06-2003 09:43:25 20.4 C 12.03 g/m*3 20.4 C 0 km/h
2184 28-06-2003 10:05:25 20.7 C 11.88 g/m*3 20.7 C 0 km/h
2185 28-06-2003 10:27:25 21.1 C 11.79 g/m*3 21.1 C 0 km/h
2186 28-06-2003 10:49:25 23.2 C 11.85 g/m*3 23.2 C 0 km/h
2187 28-06-2003 11:11:25 23.4 C 11.57 g/m*3 23.4 C 0 km/h
2188 28-06-2003 11:33:25 23.5 C 11.84 g/m*3 23.5 C 0 km/h
2189 28-06-2003 11:55:25 24.1 C 11.6 g/m*3 24.1 C 0 km/h
2190 28-06-2003 12:17:25 25.7 C 11.49 g/m*3 25.7 C 0 km/h
2191 28-06-2003 12:39:25 25.8 C 11.32 g/m*3 25.8 C 0 km/h
2192 28-06-2003 13:01:25 26.3 C 10.89 g/m*3 26.3 C 0 km/h
2193 28-06-2003 13:23:25 27.8 C 9.95 g/m*3 27.8 C 0 km/h
2194 28-06-2003 13:45:25 26.2 C 10.34 g/m*3 26.2 C 0 km/h
2195 28-06-2003 14:07:25 26.4 C 10.46 g/m*3 26.4 C 0 km/h
2196 28-06-2003 14:29:25 25.5 C 10.65 g/m*3 25.5 C 0 km/h
2197 28-06-2003 14:51:25 24.5 C 10.97 g/m*3 24.5 C 0 km/h
2198 28-06-2003 15:13:25 26.1 C 10.53 g/m*3 26.1 C 0 km/h
2199 28-06-2003 15:35:25 26.8 C 10.18 g/m*3 26.8 C 0 km/h
2200 28-06-2003 15:57:25 27.5 C 10.32 g/m*3 27.5 C 0 km/h
Sensor: Nr:Datum:Temp:Abs-Feuchte:Windchill:Wind:
Aussen-T/F 2201 28-06-2003 16:19:25 28.3 C 9.95 g/m*3 28.3 C 0 km/h
2202 28-06-2003 16:41:25 28.4 C 10.01 g/m*3 28.4 C 0 km/h
2203 28-06-2003 17:03:25 30 C 9.7 g/m*3 30 C 0 km/h
2204 28-06-2003 17:25:25 30.4 C 9.92 g/m*3 30.4 C 0 km/h
2205 28-06-2003 17:47:25 30.6 C 9.71 g/m*3 30.6 C 0 km/h
2206 28-06-2003 18:09:25 30 C 9.7 g/m*3 30 C 0 km/h
2207 28-06-2003 18:31:25 28.7 C 9.89 g/m*3 28.7 C 0 km/h
2208 28-06-2003 18:53:25 26.8 C 9.93 g/m*3 26.8 C 0 km/h
2209 28-06-2003 19:15:25 26.6 C 10.32 g/m*3 26.6 C 0 km/h
2210 28-06-2003 19:37:25 25.8 C 10.35 g/m*3 25.8 C 0 km/h
2211 28-06-2003 19:59:25 26.7 C 10.12 g/m*3 26.7 C 0 km/h
2212 28-06-2003 20:21:25 25.7 C 10.29 g/m*3 25.7 C 0 km/h
2213 28-06-2003 20:43:25 24.5 C 10.52 g/m*3 24.5 C 0 km/h
2214 28-06-2003 21:05:25 23.6 C 10.63 g/m*3 23.6 C 0 km/h
2215 28-06-2003 21:27:25 23.5 C 11 g/m*3 23.5 C 0 km/h
2216 28-06-2003 21:49:25 22.8 C 11.18 g/m*3 22.8 C 0 km/h
2217 28-06-2003 22:11:25 21.7 C 11.06 g/m*3 21.7 C 0 km/h
2218 28-06-2003 22:33:25 21 C 10.99 g/m*3 21 C 0 km/h
2219 28-06-2003 22:55:25 20.6 C 11.1 g/m*3 20.6 C 0 km/h
2220 28-06-2003 23:17:25 20.5 C 11.03 g/m*3 20.5 C 0 km/h
2221 28-06-2003 23:39:25 20.4 C 11.14 g/m*3 20.4 C 0 km/h
2222 29-06-2003 00:01:25 19.8 C 11.27 g/m*3 19.8 C 0 km/h
2223 29-06-2003 00:23:25 19.6 C 11.31 g/m*3 19.6 C 0 km/h
2224 29-06-2003 00:45:25 19.3 C 11.28 g/m*3 19.3 C 0 km/h
2225 29-06-2003 01:07:25 19.2 C 11.21 g/m*3 19.2 C 0 km/h
Sensor: Nr:Datum:Temp:Abs-Feuchte:Windchill:Wind:
Aussen-T/F 2226 29-06-2003 01:29:25 19.2 C 11.05 g/m*3 19.2 C 0 km/h
2227 29-06-2003 01:51:25 19.1 C 11.15 g/m*3 19.1 C 0 km/h
2228 29-06-2003 02:13:25 18.9 C 11.18 g/m*3 18.9 C 0 km/h
2229 29-06-2003 02:35:25 18.7 C 10.73 g/m*3 18.7 C 0 km/h
2230 29-06-2003 02:57:25 18.3 C 10.79 g/m*3 18.3 C 0 km/h
2231 29-06-2003 03:19:25 18.4 C 10.54 g/m*3 18.4 C 0 km/h
2232 29-06-2003 03:41:25 18 C 9.98 g/m*3 18 C 0 km/h
2233 29-06-2003 04:03:25 17.7 C 10.11 g/m*3 17.7 C 0 km/h
2234 29-06-2003 04:25:25 17.5 C 10.29 g/m*3 17.5 C 0 km/h
2235 29-06-2003 04:47:25 17.1 C 10.19 g/m*3 17.1 C 0 km/h
2236 29-06-2003 05:09:25 16.6 C 10.45 g/m*3 16.6 C 0 km/h
2237 29-06-2003 05:31:25 16.2 C 10.07 g/m*3 16.2 C 0 km/h
2238 29-06-2003 05:53:25 16.1 C 10.28 g/m*3 16.1 C 0 km/h
2239 29-06-2003 06:15:25 15.9 C 10.56 g/m*3 15.9 C 0 km/h
2240 29-06-2003 06:37:25 16 C 10.63 g/m*3 16 C 0 km/h
2241 29-06-2003 06:59:25 16.1 C 10.55 g/m*3 16.1 C 0 km/h
2242 29-06-2003 07:21:25 16.2 C 10.62 g/m*3 16.2 C 0 km/h
2243 29-06-2003 07:43:25 16.5 C 10.81 g/m*3 16.5 C 0 km/h
2244 29-06-2003 08:05:25 17.7 C 10.71 g/m*3 17.7 C 0 km/h
2245 29-06-2003 08:27:25 19 C 10.1 g/m*3 19 C 0 km/h
2246 29-06-2003 08:49:25 18.9 C 10.53 g/m*3 18.9 C 0 km/h
2247 29-06-2003 09:11:25 19.7 C 11.04 g/m*3 19.7 C 0 km/h
2248 29-06-2003 09:33:25 21 C 11.17 g/m*3 21 C 0 km/h
2249 29-06-2003 09:55:25 22.4 C 11.52 g/m*3 22.4 C 0 km/h
2250 29-06-2003 10:17:25 23.5 C 11.42 g/m*3 23.5 C 0 km/h
Sensor: Nr:Datum:Temp:Abs-Feuchte:Windchill:Wind:
Aussen-T/F 2251 29-06-2003 10:39:25 24.5 C 11.19 g/m*3 24.5 C 0 km/h
2252 29-06-2003 11:01:25 25.6 C 10.95 g/m*3 25.6 C 0 km/h
2253 29-06-2003 11:23:25 26.5 C 10.51 g/m*3 26.5 C 0 km/h
2254 29-06-2003 11:45:25 27.5 C 10.05 g/m*3 27.5 C 0 km/h
2255 29-06-2003 12:07:25 29 C 10.05 g/m*3 29 C 0 km/h
2256 29-06-2003 12:29:25 30 C 10.01 g/m*3 30 C 0 km/h
2257 29-06-2003 12:51:25 29.6 C 9.5 g/m*3 29.6 C 0 km/h
2258 29-06-2003 13:13:25 29.9 C 9.35 g/m*3 29.9 C 0 km/h
2259 29-06-2003 13:35:25 29.2 C 9.29 g/m*3 29.2 C 0 km/h
2260 29-06-2003 13:57:25 30.6 C 8.77 g/m*3 30.6 C 0 km/h
2261 29-06-2003 14:19:25 30.1 C 8.84 g/m*3 30.1 C 0 km/h
2262 29-06-2003 14:41:25 31.1 C 8.69 g/m*3 31.1 C 0 km/h
2263 29-06-2003 15:03:25 32 C 7.43 g/m*3 32 C 0 km/h
2264 29-06-2003 15:25:25 30.9 C 8.28 g/m*3 30.9 C 0 km/h
2265 29-06-2003 15:47:25 31.2 C 8.41 g/m*3 31.2 C 0 km/h
2266 29-06-2003 16:09:25 30.9 C 7.96 g/m*3 30.9 C 0 km/h
2267 29-06-2003 16:31:25 32.2 C 8.53 g/m*3 32.2 C 0 km/h
2268 29-06-2003 16:53:25 32 C 8.1 g/m*3 32 C 0 km/h
2269 29-06-2003 17:21:02 32.8 C 7.04 g/m*3 32.8 C 0 km/h
2270 29-06-2003 17:27:02 32.9 C 7.08 g/m*3 32.9 C 0 km/h
2271 29-06-2003 17:33:01 33.3 C 7.23 g/m*3 33.3 C 0 km/h
2272 29-06-2003 17:39:01 32.7 C 7.01 g/m*3 32.7 C 0 km/h
2273 29-06-2003 17:45:01 32.8 C 7.04 g/m*3 32.8 C 0 km/h
2274 29-06-2003 17:51:01 33.1 C 7.16 g/m*3 33.1 C 0 km/h
2275 29-06-2003 17:57:01 33.3 C 7.23 g/m*3 33.3 C 0 km/h
Sensor: Nr:Datum:Temp:Abs-Feuchte:Windchill:Wind:
Aussen-T/F 2276 29-06-2003 18:03:01 32.9 C 7.08 g/m*3 32.9 C 0 km/h
2277 29-06-2003 18:09:01 32.6 C 7.32 g/m*3 32.6 C 0 km/h
2278 29-06-2003 18:15:01 32 C 8.1 g/m*3 32 C 0 km/h
2279 29-06-2003 18:21:01 31.9 C 8.73 g/m*3 31.9 C 0 km/h
2280 29-06-2003 18:27:01 31.7 C 7.64 g/m*3 31.7 C 0 km/h
2281 29-06-2003 18:33:02 31.5 C 9.2 g/m*3 31.5 C 0 km/h
2282 29-06-2003 18:39:02 31.4 C 9.81 g/m*3 31.4 C 0 km/h
2283 29-06-2003 18:45:02 31.3 C 10.08 g/m*3 31.3 C 0 km/h
2284 29-06-2003 18:51:02 31 C 8.64 g/m*3 31 C 0 km/h
2285 29-06-2003 19:03:02 31.3 C 8.13 g/m*3 31.3 C 0 km/h
2286 29-06-2003 19:09:02 31.4 C 8.17 g/m*3 31.4 C 0 km/h
2287 29-06-2003 19:15:02 31.3 C 7.81 g/m*3 31.3 C 0 km/h
2288 29-06-2003 19:21:02 31.3 C 7.81 g/m*3 31.3 C 0 km/h
2289 29-06-2003 19:27:02 31.3 C 7.81 g/m*3 31.3 C 0 km/h
2290 29-06-2003 19:33:01 31 C 8 g/m*3 31 C 0 km/h
2291 29-06-2003 19:39:01 30.7 C 8.19 g/m*3 30.7 C 0 km/h
2292 29-06-2003 19:45:01 30.8 C 8.55 g/m*3 30.8 C 0 km/h
2293 29-06-2003 19:51:01 30.6 C 8.14 g/m*3 30.6 C 0 km/h
2294 29-06-2003 19:57:01 30.6 C 8.77 g/m*3 30.6 C 0 km/h
2295 29-06-2003 20:03:02 30.6 C 8.77 g/m*3 30.6 C 0 km/h
2296 29-06-2003 20:09:02 30.2 C 9.2 g/m*3 30.2 C 0 km/h
2297 29-06-2003 20:15:02 29.8 C 9.6 g/m*3 29.8 C 0 km/h
2298 29-06-2003 20:21:02 29.8 C 10.5 g/m*3 29.8 C 0 km/h
2299 29-06-2003 20:27:02 30 C 10.31 g/m*3 30 C 0 km/h
2300 29-06-2003 20:33:02 29.9 C 9.65 g/m*3 29.9 C 0 km/h
Sensor: Nr:Datum:Temp:Abs-Feuchte:Windchill:Wind:
Aussen-T/F 2301 29-06-2003 20:39:02 29.8 C 10.2 g/m*3 29.8 C 0 km/h
2302 29-06-2003 20:45:02 29.7 C 10.14 g/m*3 29.7 C 0 km/h
2303 29-06-2003 20:51:02 29.6 C 10.39 g/m*3 29.6 C 0 km/h
2304 29-06-2003 20:57:02 29.1 C 10.11 g/m*3 29.1 C 0 km/h
2305 29-06-2003 21:03:02 28.5 C 10.62 g/m*3 28.5 C 0 km/h
2306 29-06-2003 21:09:02 27.6 C 10.64 g/m*3 27.6 C 0 km/h
2307 29-06-2003 21:15:02 26.6 C 10.32 g/m*3 26.6 C 0 km/h
2308 29-06-2003 21:21:02 26.2 C 10.59 g/m*3 26.2 C 0 km/h
2309 29-06-2003 21:27:02 25.8 C 10.35 g/m*3 25.8 C 0 km/h
2310 29-06-2003 21:34:01 25.6 C 10.24 g/m*3 25.6 C 0 km/h
2311 29-06-2003 21:40:01 25.4 C 10.12 g/m*3 25.4 C 0 km/h
2312 29-06-2003 21:46:01 24.9 C 10.3 g/m*3 24.9 C 0 km/h
2313 29-06-2003 21:52:01 24.8 C 10.24 g/m*3 24.8 C 0 km/h
2314 29-06-2003 21:58:01 24.8 C 10.47 g/m*3 24.8 C 0 km/h
2315 29-06-2003 22:04:01 24.5 C 10.07 g/m*3 24.5 C 0 km/h
2316 29-06-2003 22:10:01 24.5 C 10.3 g/m*3 24.5 C 0 km/h
2317 29-06-2003 22:16:01 24.3 C 9.96 g/m*3 24.3 C 0 km/h
2318 29-06-2003 22:22:01 23.9 C 10.38 g/m*3 23.9 C 0 km/h
2319 29-06-2003 22:28:01 23.8 C 10.33 g/m*3 23.8 C 0 km/h
2320 29-06-2003 22:34:01 23.7 C 10.27 g/m*3 23.7 C 0 km/h
2321 29-06-2003 22:40:01 23.6 C 10.21 g/m*3 23.6 C 0 km/h
2322 29-06-2003 22:46:01 23.3 C 10.25 g/m*3 23.3 C 0 km/h
2323 29-06-2003 22:52:01 23.1 C 9.92 g/m*3 23.1 C 0 km/h
2324 29-06-2003 22:58:01 23 C 10.07 g/m*3 23 C 0 km/h
2325 29-06-2003 23:04:01 22.8 C 9.75 g/m*3 22.8 C 0 km/h
Sensor: Nr:Datum:Temp:Abs-Feuchte:Windchill:Wind:
Aussen-T/F 2326 29-06-2003 23:10:01 22.8 C 9.35 g/m*3 22.8 C 0 km/h
2327 29-06-2003 23:16:01 22.8 C 9.35 g/m*3 22.8 C 0 km/h
2328 29-06-2003 23:22:01 22.7 C 9.5 g/m*3 22.7 C 0 km/h
2329 29-06-2003 23:28:01 22.4 C 9.14 g/m*3 22.4 C 0 km/h
2330 29-06-2003 23:34:01 22.3 C 9.48 g/m*3 22.3 C 0 km/h
2331 29-06-2003 23:40:01 22.1 C 8.98 g/m*3 22.1 C 0 km/h
2332 29-06-2003 23:46:01 21.9 C 9.26 g/m*3 21.9 C 0 km/h
2333 29-06-2003 23:52:01 21.9 C 9.26 g/m*3 21.9 C 0 km/h
2334 29-06-2003 23:58:01 21.8 C 9.02 g/m*3 21.8 C 0 km/h
2335 30-06-2003 00:04:01 21.6 C 9.1 g/m*3 21.6 C 0 km/h
2336 30-06-2003 00:10:01 21.6 C 8.91 g/m*3 21.6 C 0 km/h
2337 30-06-2003 00:16:01 21.6 C 8.91 g/m*3 21.6 C 0 km/h
2338 30-06-2003 00:22:01 21.4 C 8.62 g/m*3 21.4 C 0 km/h
2339 30-06-2003 00:28:01 21.3 C 8.76 g/m*3 21.3 C 0 km/h
2340 30-06-2003 00:34:01 21.1 C 8.84 g/m*3 21.1 C 0 km/h
2341 30-06-2003 00:40:01 20.9 C 8.74 g/m*3 20.9 C 0 km/h
2342 30-06-2003 00:46:01 20.8 C 9.05 g/m*3 20.8 C 0 km/h
2343 30-06-2003 00:52:01 20.7 C 9.18 g/m*3 20.7 C 0 km/h
2344 30-06-2003 00:58:01 20.6 C 9.13 g/m*3 20.6 C 0 km/h
2345 30-06-2003 01:04:01 20.5 C 9.25 g/m*3 20.5 C 0 km/h
2346 30-06-2003 01:10:01 20.4 C 9.2 g/m*3 20.4 C 0 km/h
2347 30-06-2003 01:16:01 20.3 C 9.5 g/m*3 20.3 C 0 km/h
2348 30-06-2003 01:22:01 20.2 C 9.09 g/m*3 20.2 C 0 km/h
2349 30-06-2003 01:28:01 20 C 9.33 g/m*3 20 C 0 km/h
2350 30-06-2003 01:34:01 19.8 C 9.57 g/m*3 19.8 C 0 km/h
Sensor: Nr:Datum:Temp:Abs-Feuchte:Windchill:Wind:
Aussen-T/F 2351 30-06-2003 01:40:01 19.7 C 9.51 g/m*3 19.7 C 0 km/h
2352 30-06-2003 01:46:01 19.5 C 9.4 g/m*3 19.5 C 0 km/h
2353 30-06-2003 01:52:01 19.5 C 9.4 g/m*3 19.5 C 0 km/h
2354 30-06-2003 01:58:01 19.4 C 9.51 g/m*3 19.4 C 0 km/h
2355 30-06-2003 02:04:01 19.3 C 9.45 g/m*3 19.3 C 0 km/h
2356 30-06-2003 02:10:01 19 C 9.45 g/m*3 19 C 0 km/h
2357 30-06-2003 02:16:01 18.9 C 9.56 g/m*3 18.9 C 0 km/h
2358 30-06-2003 02:22:01 18.8 C 9.66 g/m*3 18.8 C 0 km/h
2359 30-06-2003 02:28:01 18.8 C 9.66 g/m*3 18.8 C 0 km/h
2360 30-06-2003 02:34:01 18.8 C 9.66 g/m*3 18.8 C 0 km/h
2361 30-06-2003 02:40:01 18.6 C 9.71 g/m*3 18.6 C 0 km/h
2362 30-06-2003 02:46:01 18.5 C 9.65 g/m*3 18.5 C 0 km/h
2363 30-06-2003 02:52:01 18.5 C 9.81 g/m*3 18.5 C 0 km/h
2364 30-06-2003 02:58:01 18.3 C 9.69 g/m*3 18.3 C 0 km/h
2365 30-06-2003 03:04:01 18.2 C 9.64 g/m*3 18.2 C 0 km/h
2366 30-06-2003 03:10:01 18.3 C 9.69 g/m*3 18.3 C 0 km/h
2367 30-06-2003 03:16:01 18 C 9.68 g/m*3 18 C 0 km/h
2368 30-06-2003 03:22:01 17.9 C 9.92 g/m*3 17.9 C 0 km/h
2369 30-06-2003 03:28:01 17.7 C 9.81 g/m*3 17.7 C 0 km/h
2370 30-06-2003 03:34:01 17.7 C 9.96 g/m*3 17.7 C 0 km/h
2371 30-06-2003 03:40:01 17.7 C 9.96 g/m*3 17.7 C 0 km/h
2372 30-06-2003 03:46:01 17.6 C 9.9 g/m*3 17.6 C 0 km/h
2373 30-06-2003 03:52:01 17.5 C 9.84 g/m*3 17.5 C 0 km/h
2374 30-06-2003 03:58:01 17.6 C 10.05 g/m*3 17.6 C 0 km/h
2375 30-06-2003 04:04:01 17.7 C 9.96 g/m*3 17.7 C 0 km/h
Sensor: Nr:Datum:Temp:Abs-Feuchte:Windchill:Wind:
Aussen-T/F 2376 30-06-2003 04:10:01 17.7 C 9.96 g/m*3 17.7 C 0 km/h
2377 30-06-2003 04:16:01 17.5 C 9.99 g/m*3 17.5 C 0 km/h
2378 30-06-2003 04:22:01 17.4 C 10.08 g/m*3 17.4 C 0 km/h
2379 30-06-2003 04:28:01 17.4 C 10.08 g/m*3 17.4 C 0 km/h
2380 30-06-2003 04:34:01 17.4 C 10.08 g/m*3 17.4 C 0 km/h
2381 30-06-2003 04:40:01 17.4 C 10.08 g/m*3 17.4 C 0 km/h
2382 30-06-2003 04:46:01 17.5 C 10.14 g/m*3 17.5 C 0 km/h
2383 30-06-2003 04:52:01 17.1 C 9.9 g/m*3 17.1 C 0 km/h
2384 30-06-2003 04:58:01 17.5 C 10.14 g/m*3 17.5 C 0 km/h
2385 30-06-2003 05:04:01 17.4 C 10.23 g/m*3 17.4 C 0 km/h
2386 30-06-2003 05:10:01 17.4 C 10.23 g/m*3 17.4 C 0 km/h
2387 30-06-2003 05:16:01 17.4 C 10.23 g/m*3 17.4 C 0 km/h
2388 30-06-2003 05:22:01 17.4 C 10.23 g/m*3 17.4 C 0 km/h
2389 30-06-2003 05:28:01 17.3 C 10.16 g/m*3 17.3 C 0 km/h
2390 30-06-2003 05:34:01 17.3 C 10.31 g/m*3 17.3 C 0 km/h
2391 30-06-2003 05:40:01 17.2 C 10.25 g/m*3 17.2 C 0 km/h
2392 30-06-2003 05:46:01 17.2 C 10.25 g/m*3 17.2 C 0 km/h
2393 30-06-2003 05:52:01 17.2 C 10.4 g/m*3 17.2 C 0 km/h
2394 30-06-2003 05:58:01 17.2 C 10.25 g/m*3 17.2 C 0 km/h
2395 30-06-2003 06:04:01 17.3 C 10.31 g/m*3 17.3 C 0 km/h
2396 30-06-2003 06:10:01 17.4 C 10.37 g/m*3 17.4 C 0 km/h
2397 30-06-2003 06:16:01 17.5 C 10.44 g/m*3 17.5 C 0 km/h
2398 30-06-2003 06:22:01 17.4 C 10.52 g/m*3 17.4 C 0 km/h
2399 30-06-2003 06:28:01 17.3 C 10.46 g/m*3 17.3 C 0 km/h
2400 30-06-2003 06:34:01 17.2 C 10.4 g/m*3 17.2 C 0 km/h
Sensor: Nr:Datum:Temp:Abs-Feuchte:Windchill:Wind:
Aussen-T/F 2401 30-06-2003 06:40:01 17.1 C 10.34 g/m*3 17.1 C 0 km/h
2402 30-06-2003 06:46:01 17.1 C 10.48 g/m*3 17.1 C 0 km/h
2403 30-06-2003 06:52:01 17.2 C 10.54 g/m*3 17.2 C 0 km/h
2404 30-06-2003 06:58:01 17.3 C 10.61 g/m*3 17.3 C 0 km/h
2405 30-06-2003 07:04:01 17.3 C 10.61 g/m*3 17.3 C 0 km/h
2406 30-06-2003 07:10:01 17.3 C 10.61 g/m*3 17.3 C 0 km/h
2407 30-06-2003 07:16:01 17.3 C 10.61 g/m*3 17.3 C 0 km/h
2408 30-06-2003 07:22:01 17.5 C 10.73 g/m*3 17.5 C 0 km/h
2409 30-06-2003 07:28:01 17.7 C 10.86 g/m*3 17.7 C 0 km/h
2410 30-06-2003 07:34:01 17.7 C 10.86 g/m*3 17.7 C 0 km/h
2411 30-06-2003 07:40:01 18.1 C 10.82 g/m*3 18.1 C 0 km/h
2412 30-06-2003 07:46:01 18.1 C 10.82 g/m*3 18.1 C 0 km/h
2413 30-06-2003 07:52:01 18.3 C 10.79 g/m*3 18.3 C 0 km/h
2414 30-06-2003 07:58:01 18.3 C 10.79 g/m*3 18.3 C 0 km/h
2415 30-06-2003 08:04:01 18.6 C 10.98 g/m*3 18.6 C 0 km/h
2416 30-06-2003 08:10:01 18.7 C 10.89 g/m*3 18.7 C 0 km/h
2417 30-06-2003 08:16:01 18.9 C 11.02 g/m*3 18.9 C 0 km/h
2418 30-06-2003 08:22:01 19 C 10.92 g/m*3 19 C 0 km/h
2419 30-06-2003 08:28:01 19.4 C 11.18 g/m*3 19.4 C 0 km/h
2420 30-06-2003 08:34:01 20.2 C 11.19 g/m*3 20.2 C 0 km/h
2421 30-06-2003 08:40:01 20.8 C 11.05 g/m*3 20.8 C 0 km/h
2422 30-06-2003 08:46:01 21.4 C 11.06 g/m*3 21.4 C 0 km/h
2423 30-06-2003 08:52:01 21.7 C 11.06 g/m*3 21.7 C 0 km/h
2424 30-06-2003 08:58:01 22 C 11.06 g/m*3 22 C 0 km/h
2425 30-06-2003 09:04:01 22.3 C 10.86 g/m*3 22.3 C 0 km/h
Sensor: Nr:Datum:Temp:Abs-Feuchte:Windchill:Wind:
Aussen-T/F 2426 30-06-2003 09:10:01 22.5 C 10.99 g/m*3 22.5 C 0 km/h
2427 30-06-2003 09:16:01 22.6 C 10.65 g/m*3 22.6 C 0 km/h
2428 30-06-2003 09:22:01 22.8 C 10.77 g/m*3 22.8 C 0 km/h
2429 30-06-2003 09:28:01 23 C 10.69 g/m*3 23 C 0 km/h
2430 30-06-2003 09:34:01 23.3 C 10.66 g/m*3 23.3 C 0 km/h
2431 30-06-2003 09:40:01 23.4 C 10.72 g/m*3 23.4 C 0 km/h
2432 30-06-2003 09:46:01 23.7 C 10.69 g/m*3 23.7 C 0 km/h
2433 30-06-2003 09:52:01 23.9 C 10.6 g/m*3 23.9 C 0 km/h
2434 30-06-2003 09:58:01 24.2 C 10.56 g/m*3 24.2 C 0 km/h
2435 30-06-2003 10:04:01 24.1 C 10.5 g/m*3 24.1 C 0 km/h
2436 30-06-2003 10:10:01 24.1 C 10.72 g/m*3 24.1 C 0 km/h
2437 30-06-2003 10:16:01 24.1 C 10.72 g/m*3 24.1 C 0 km/h
2438 30-06-2003 10:22:01 24.3 C 10.62 g/m*3 24.3 C 0 km/h
2439 30-06-2003 10:28:01 24.4 C 10.68 g/m*3 24.4 C 0 km/h
2440 30-06-2003 10:34:01 24.1 C 10.5 g/m*3 24.1 C 0 km/h
2441 30-06-2003 10:40:01 24.3 C 10.62 g/m*3 24.3 C 0 km/h
2442 30-06-2003 10:46:01 24.6 C 11.03 g/m*3 24.6 C 0 km/h
2443 30-06-2003 10:52:01 25.1 C 10.88 g/m*3 25.1 C 0 km/h
2444 30-06-2003 10:58:01 24.5 C 10.52 g/m*3 24.5 C 0 km/h
2445 30-06-2003 11:04:01 24.6 C 11.03 g/m*3 24.6 C 0 km/h
2446 30-06-2003 11:10:01 24.8 C 11.38 g/m*3 24.8 C 0 km/h
2447 30-06-2003 11:16:01 25 C 11.28 g/m*3 25 C 0 km/h
2448 30-06-2003 11:22:01 25.1 C 11.81 g/m*3 25.1 C 0 km/h
2449 30-06-2003 11:28:01 25 C 11.05 g/m*3 25 C 0 km/h
2450 30-06-2003 11:34:01 24.9 C 11.45 g/m*3 24.9 C 0 km/h
Sensor: Nr:Datum:Temp:Abs-Feuchte:Windchill:Wind:
Aussen-T/F 2451 30-06-2003 11:40:01 25 C 11.51 g/m*3 25 C 0 km/h
2452 30-06-2003 11:46:01 25.2 C 11.41 g/m*3 25.2 C 0 km/h
2453 30-06-2003 11:52:01 25.1 C 11.57 g/m*3 25.1 C 0 km/h
2454 30-06-2003 11:58:01 25 C 12.2 g/m*3 25 C 0 km/h
2455 30-06-2003 12:04:01 24.8 C 12.52 g/m*3 24.8 C 0 km/h
2456 30-06-2003 12:10:01 24.8 C 12.75 g/m*3 24.8 C 0 km/h
2457 30-06-2003 12:16:01 24.9 C 12.36 g/m*3 24.9 C 0 km/h
2458 30-06-2003 12:22:01 24.8 C 12.75 g/m*3 24.8 C 0 km/h
2459 30-06-2003 12:28:01 24.6 C 13.05 g/m*3 24.6 C 0 km/h
2460 30-06-2003 12:34:01 24.8 C 13.43 g/m*3 24.8 C 0 km/h
2461 30-06-2003 12:40:01 25 C 12.43 g/m*3 25 C 0 km/h
2462 30-06-2003 12:46:01 25.3 C 12.88 g/m*3 25.3 C 0 km/h
2463 30-06-2003 12:52:01 25.5 C 12.55 g/m*3 25.5 C 0 km/h
2464 30-06-2003 12:58:01 25.6 C 12.62 g/m*3 25.6 C 0 km/h
2465 30-06-2003 13:04:01 25.6 C 12.38 g/m*3 25.6 C 0 km/h
2466 30-06-2003 13:10:01 25.9 C 12.59 g/m*3 25.9 C 0 km/h
2467 30-06-2003 13:16:01 26.3 C 12.63 g/m*3 26.3 C 0 km/h
2468 30-06-2003 13:22:01 27.1 C 12.16 g/m*3 27.1 C 0 km/h
2469 30-06-2003 13:28:01 26.9 C 12.03 g/m*3 26.9 C 0 km/h
2470 30-06-2003 13:34:01 27 C 12.1 g/m*3 27 C 0 km/h
2471 30-06-2003 13:40:01 27.8 C 12.1 g/m*3 27.8 C 0 km/h
2472 30-06-2003 13:46:01 28.4 C 11.95 g/m*3 28.4 C 0 km/h
2473 30-06-2003 13:52:01 29.2 C 11.61 g/m*3 29.2 C 0 km/h
2474 30-06-2003 13:58:01 29.1 C 11.84 g/m*3 29.1 C 0 km/h
2475 30-06-2003 14:04:01 28.6 C 11.8 g/m*3 28.6 C 0 km/h
Sensor: Nr:Datum:Temp:Abs-Feuchte:Windchill:Wind:
Aussen-T/F 2476 30-06-2003 14:10:01 28.4 C 11.95 g/m*3 28.4 C 0 km/h
2477 30-06-2003 14:16:01 28.5 C 12.02 g/m*3 28.5 C 0 km/h
2478 30-06-2003 14:22:01 28.7 C 11.87 g/m*3 28.7 C 0 km/h
2479 30-06-2003 14:28:01 28.5 C 11.74 g/m*3 28.5 C 0 km/h
2480 30-06-2003 14:34:01 27.4 C 11.31 g/m*3 27.4 C 0 km/h
2481 30-06-2003 14:40:01 27 C 11.58 g/m*3 27 C 0 km/h
2482 30-06-2003 14:46:01 26.4 C 11.7 g/m*3 26.4 C 0 km/h
2483 30-06-2003 14:52:01 26 C 11.69 g/m*3 26 C 0 km/h
2484 30-06-2003 14:58:01 25.7 C 11.97 g/m*3 25.7 C 0 km/h
2485 30-06-2003 15:04:58 25.4 C 12.01 g/m*3 25.4 C 0 km/h
2486 30-06-2003 15:10:58 25.5 C 12.31 g/m*3 25.5 C 0 km/h
2487 30-06-2003 15:16:58 24.9 C 12.13 g/m*3 24.9 C 0 km/h
2488 30-06-2003 15:22:58 24.5 C 12.53 g/m*3 24.5 C 0 km/h
2489 30-06-2003 15:28:58 23.4 C 13.04 g/m*3 23.4 C 0 km/h
2490 30-06-2003 15:34:58 22.2 C 14.14 g/m*3 22.2 C 0 km/h
2491 30-06-2003 15:40:58 21.9 C 14.67 g/m*3 21.9 C 0 km/h
2492 30-06-2003 15:46:02 22.2 C 15.12 g/m*3 22.2 C 0 km/h
2493 30-06-2003 15:52:02 22.6 C 15.47 g/m*3 22.6 C 0 km/h
2494 30-06-2003 15:58:02 23 C 15.42 g/m*3 23 C 0 km/h
2495 30-06-2003 16:04:02 23.3 C 15.47 g/m*3 23.3 C 0 km/h
2496 30-06-2003 16:10:02 23.3 C 14.84 g/m*3 23.3 C 0 km/h
2497 30-06-2003 16:16:02 23 C 14.39 g/m*3 23 C 0 km/h
2498 30-06-2003 16:22:02 22.4 C 15.49 g/m*3 22.4 C 0 km/h
2499 30-06-2003 16:28:02 21.5 C 15.84 g/m*3 21.5 C 0 km/h
2500 30-06-2003 16:34:01 21.6 C 16.31 g/m*3 21.6 C 0 km/h
Sensor: Nr:Datum:Temp:Abs-Feuchte:Windchill:Wind:
Aussen-T/F 2501 30-06-2003 16:40:01 21.9 C 16.79 g/m*3 21.9 C 0 km/h
2502 30-06-2003 16:46:01 22.2 C 16.69 g/m*3 22.2 C 0 km/h
2503 30-06-2003 16:52:01 22.4 C 16.28 g/m*3 22.4 C 0 km/h
2504 30-06-2003 16:58:01 22.8 C 16.87 g/m*3 22.8 C 0 km/h
2505 30-06-2003 17:04:02 23.7 C 16.68 g/m*3 23.7 C 0 km/h
2506 30-06-2003 17:10:02 23.5 C 15.44 g/m*3 23.5 C 0 km/h
2507 30-06-2003 17:16:02 23.3 C 15.68 g/m*3 23.3 C 0 km/h
2508 30-06-2003 17:22:02 23.1 C 15.71 g/m*3 23.1 C 0 km/h
2509 30-06-2003 17:28:02 23.5 C 16.5 g/m*3 23.5 C 0 km/h
2510 30-06-2003 17:34:00 23.7 C 15.83 g/m*3 23.7 C 0 km/h
2511 30-06-2003 17:40:00 23.8 C 15.49 g/m*3 23.8 C 0 km/h
2512 30-06-2003 17:46:00 24 C 16.1 g/m*3 24 C 0 km/h
2513 30-06-2003 17:52:00 24.1 C 16.19 g/m*3 24.1 C 0 km/h
2514 30-06-2003 17:58:00 25.2 C 16.06 g/m*3 25.2 C 0 km/h
2515 30-06-2003 18:04:01 26.2 C 15.51 g/m*3 26.2 C 0 km/h
2516 30-06-2003 18:10:01 26.7 C 15.19 g/m*3 26.7 C 0 km/h
2517 30-06-2003 18:16:01 26.5 C 14.77 g/m*3 26.5 C 0 km/h
2518 30-06-2003 18:22:01 26.2 C 14.77 g/m*3 26.2 C 0 km/h
2519 30-06-2003 18:28:01 25.4 C 14.83 g/m*3 25.4 C 0 km/h
2520 30-06-2003 18:34:00 25.4 C 15.3 g/m*3 25.4 C 0 km/h
2521 30-06-2003 18:40:00 25.3 C 15.92 g/m*3 25.3 C 0 km/h
2522 30-06-2003 18:46:00 25.2 C 16.06 g/m*3 25.2 C 0 km/h
2523 30-06-2003 18:52:00 25.8 C 16.37 g/m*3 25.8 C 0 km/h
2524 30-06-2003 18:58:00 27 C 15.18 g/m*3 27 C 0 km/h
2525 30-06-2003 19:04:00 27.3 C 14.39 g/m*3 27.3 C 0 km/h
Sensor: Nr:Datum:Temp:Abs-Feuchte:Windchill:Wind:
Aussen-T/F 2526 30-06-2003 19:10:00 27.5 C 14.29 g/m*3 27.5 C 0 km/h
2527 30-06-2003 19:16:00 26.8 C 14.76 g/m*3 26.8 C 0 km/h
2528 30-06-2003 19:22:00 26.4 C 14.69 g/m*3 26.4 C 0 km/h
2529 30-06-2003 19:28:00 25.9 C 15.74 g/m*3 25.9 C 0 km/h
2530 30-06-2003 19:34:01 25.5 C 15.63 g/m*3 25.5 C 0 km/h
2531 30-06-2003 19:40:01 25.1 C 15.51 g/m*3 25.1 C 0 km/h
2532 30-06-2003 19:46:01 24.7 C 15.16 g/m*3 24.7 C 0 km/h
2533 30-06-2003 19:52:01 24.5 C 15.44 g/m*3 24.5 C 0 km/h
2534 30-06-2003 19:58:01 24.1 C 15.1 g/m*3 24.1 C 0 km/h
2535 30-06-2003 20:04:01 24 C 15.01 g/m*3 24 C 0 km/h
2536 30-06-2003 20:10:01 24.1 C 15.1 g/m*3 24.1 C 0 km/h
2537 30-06-2003 20:16:01 23.9 C 15.58 g/m*3 23.9 C 0 km/h
2538 30-06-2003 20:22:01 23.6 C 15.1 g/m*3 23.6 C 0 km/h
2539 30-06-2003 20:28:01 23.4 C 15.14 g/m*3 23.4 C 0 km/h
2540 30-06-2003 20:40:01 22.6 C 15.27 g/m*3 22.6 C 0 km/h
2541 30-06-2003 20:46:01 22.6 C 15.47 g/m*3 22.6 C 0 km/h
2542 30-06-2003 20:52:01 22.8 C 15.65 g/m*3 22.8 C 0 km/h
2543 30-06-2003 20:58:01 22.9 C 15.33 g/m*3 22.9 C 0 km/h
2544 30-06-2003 21:04:01 22.9 C 15.12 g/m*3 22.9 C 0 km/h
2545 30-06-2003 21:10:01 22.9 C 14.92 g/m*3 22.9 C 0 km/h
2546 30-06-2003 21:16:01 22.9 C 14.92 g/m*3 22.9 C 0 km/h
2547 30-06-2003 21:22:01 22.9 C 14.92 g/m*3 22.9 C 0 km/h
2548 30-06-2003 21:28:01 22.9 C 14.92 g/m*3 22.9 C 0 km/h
2549 30-06-2003 21:34:01 22.9 C 14.92 g/m*3 22.9 C 0 km/h
2550 30-06-2003 21:40:01 22.9 C 14.71 g/m*3 22.9 C 0 km/h
Sensor: Nr:Datum:Temp:Abs-Feuchte:Windchill:Wind:
Aussen-T/F 2551 30-06-2003 21:46:01 22.8 C 14.83 g/m*3 22.8 C 0 km/h
2552 30-06-2003 21:52:01 22.6 C 14.66 g/m*3 22.6 C 0 km/h
2553 30-06-2003 21:58:01 22.5 C 14.58 g/m*3 22.5 C 0 km/h
2554 30-06-2003 22:04:02 22.5 C 14.58 g/m*3 22.5 C 0 km/h
2555 30-06-2003 22:10:02 22.4 C 14.5 g/m*3 22.4 C 0 km/h
2556 30-06-2003 22:16:02 22.4 C 14.5 g/m*3 22.4 C 0 km/h
2557 30-06-2003 22:22:02 22.2 C 14.14 g/m*3 22.2 C 0 km/h
2558 30-06-2003 22:28:02 22.1 C 14.05 g/m*3 22.1 C 0 km/h
2559 30-06-2003 22:34:02 22 C 13.78 g/m*3 22 C 0 km/h
2560 30-06-2003 22:40:02 22 C 13.78 g/m*3 22 C 0 km/h
2561 30-06-2003 22:46:02 22 C 13.78 g/m*3 22 C 0 km/h
2562 30-06-2003 22:52:02 21.9 C 14.09 g/m*3 21.9 C 0 km/h
2563 30-06-2003 22:58:02 21.8 C 14.01 g/m*3 21.8 C 0 km/h
2564 30-06-2003 23:05:02 21.9 C 14.09 g/m*3 21.9 C 0 km/h
2565 30-06-2003 23:11:02 21.8 C 13.81 g/m*3 21.8 C 0 km/h
2566 30-06-2003 23:17:02 21.8 C 14.01 g/m*3 21.8 C 0 km/h
2567 30-06-2003 23:23:02 21.6 C 13.85 g/m*3 21.6 C 0 km/h
2568 30-06-2003 23:29:02 21.3 C 13.79 g/m*3 21.3 C 0 km/h
2569 30-06-2003 23:35:02 21.1 C 13.63 g/m*3 21.1 C 0 km/h
2570 30-06-2003 23:41:02 21 C 13.74 g/m*3 21 C 0 km/h
2571 30-06-2003 23:47:02 20.8 C 13.76 g/m*3 20.8 C 0 km/h
2572 30-06-2003 23:53:02 20.7 C 13.68 g/m*3 20.7 C 0 km/h
2573 30-06-2003 23:59:02 20.7 C 13.68 g/m*3 20.7 C 0 km/h
2574 01-07-2003 00:05:02 20.7 C 13.68 g/m*3 20.7 C 0 km/h
2575 01-07-2003 00:11:02 20.6 C 13.42 g/m*3 20.6 C 0 km/h
Sensor: Nr:Datum:Temp:Abs-Feuchte:Windchill:Wind:
Aussen-T/F 2576 01-07-2003 00:17:02 20.5 C 13.35 g/m*3 20.5 C 0 km/h
2577 01-07-2003 00:23:02 20.5 C 13.52 g/m*3 20.5 C 0 km/h
2578 01-07-2003 00:29:02 20.4 C 13.44 g/m*3 20.4 C 0 km/h
2579 01-07-2003 00:35:02 20 C 13.31 g/m*3 20 C 0 km/h
2580 01-07-2003 00:41:02 19.8 C 13.49 g/m*3 19.8 C 0 km/h
2581 01-07-2003 00:47:02 19.7 C 13.58 g/m*3 19.7 C 0 km/h
2582 01-07-2003 00:53:02 19.7 C 13.58 g/m*3 19.7 C 0 km/h
2583 01-07-2003 00:59:02 19.7 C 13.58 g/m*3 19.7 C 0 km/h
2584 01-07-2003 01:05:02 19.7 C 13.58 g/m*3 19.7 C 0 km/h
2585 01-07-2003 01:11:02 19.7 C 13.41 g/m*3 19.7 C 0 km/h
2586 01-07-2003 01:17:02 19.6 C 13.34 g/m*3 19.6 C 0 km/h
2587 01-07-2003 01:23:02 19.5 C 13.43 g/m*3 19.5 C 0 km/h
2588 01-07-2003 01:29:02 19.5 C 13.26 g/m*3 19.5 C 0 km/h
2589 01-07-2003 01:35:02 19.9 C 13.06 g/m*3 19.9 C 0 km/h
2590 01-07-2003 01:41:02 20.2 C 12.76 g/m*3 20.2 C 0 km/h
2591 01-07-2003 01:47:02 20.3 C 12.66 g/m*3 20.3 C 0 km/h
2592 01-07-2003 01:53:02 20.3 C 12.49 g/m*3 20.3 C 0 km/h
2593 01-07-2003 01:59:02 20.3 C 12.49 g/m*3 20.3 C 0 km/h
2594 01-07-2003 02:05:02 20.4 C 12.56 g/m*3 20.4 C 0 km/h
2595 01-07-2003 02:11:02 20.3 C 12.49 g/m*3 20.3 C 0 km/h
2596 01-07-2003 02:17:02 20.2 C 12.41 g/m*3 20.2 C 0 km/h
2597 01-07-2003 02:23:02 20.1 C 12.34 g/m*3 20.1 C 0 km/h
2598 01-07-2003 02:29:02 20 C 12.1 g/m*3 20 C 0 km/h
2599 01-07-2003 02:35:02 19.8 C 12.13 g/m*3 19.8 C 0 km/h
2600 01-07-2003 02:41:02 19.7 C 12.06 g/m*3 19.7 C 0 km/h
Sensor: Nr:Datum:Temp:Abs-Feuchte:Windchill:Wind:
Aussen-T/F 2601 01-07-2003 02:47:02 19.5 C 12.08 g/m*3 19.5 C 0 km/h
2602 01-07-2003 02:53:02 19.4 C 11.85 g/m*3 19.4 C 0 km/h
2603 01-07-2003 02:59:02 19.2 C 11.87 g/m*3 19.2 C 0 km/h
2604 01-07-2003 03:05:02 19.1 C 11.8 g/m*3 19.1 C 0 km/h
2605 01-07-2003 03:11:02 19 C 11.73 g/m*3 19 C 0 km/h
2606 01-07-2003 03:17:02 18.9 C 11.66 g/m*3 18.9 C 0 km/h
2607 01-07-2003 03:23:02 18.7 C 11.69 g/m*3 18.7 C 0 km/h
2608 01-07-2003 03:29:02 18.6 C 11.62 g/m*3 18.6 C 0 km/h
2609 01-07-2003 03:35:02 18.5 C 11.55 g/m*3 18.5 C 0 km/h
2610 01-07-2003 03:41:02 18.5 C 11.55 g/m*3 18.5 C 0 km/h
2611 01-07-2003 03:47:02 18.4 C 11.32 g/m*3 18.4 C 0 km/h
2612 01-07-2003 03:53:02 18.3 C 10.94 g/m*3 18.3 C 0 km/h
2613 01-07-2003 03:59:02 18.2 C 10.88 g/m*3 18.2 C 0 km/h
2614 01-07-2003 04:05:02 18.1 C 10.66 g/m*3 18.1 C 0 km/h
2615 01-07-2003 04:11:02 18 C 10.6 g/m*3 18 C 0 km/h
2616 01-07-2003 04:17:02 17.9 C 10.69 g/m*3 17.9 C 0 km/h
2617 01-07-2003 04:23:02 17.8 C 10.62 g/m*3 17.8 C 0 km/h
2618 01-07-2003 04:29:02 17.6 C 10.5 g/m*3 17.6 C 0 km/h
2619 01-07-2003 04:35:02 17.5 C 10.59 g/m*3 17.5 C 0 km/h
2620 01-07-2003 04:41:02 17.6 C 10.65 g/m*3 17.6 C 0 km/h
2621 01-07-2003 04:47:02 17.5 C 10.88 g/m*3 17.5 C 0 km/h
2622 01-07-2003 04:53:02 17.4 C 10.82 g/m*3 17.4 C 0 km/h
2623 01-07-2003 04:59:02 17.5 C 11.03 g/m*3 17.5 C 0 km/h
2624 01-07-2003 05:05:02 17.5 C 10.88 g/m*3 17.5 C 0 km/h
2625 01-07-2003 05:11:02 17.6 C 10.35 g/m*3 17.6 C 0 km/h
Sensor: Nr:Datum:Temp:Abs-Feuchte:Windchill:Wind:
Aussen-T/F 2626 01-07-2003 05:17:02 17.5 C 10.29 g/m*3 17.5 C 0 km/h
2627 01-07-2003 05:23:02 17.3 C 10.16 g/m*3 17.3 C 0 km/h
2628 01-07-2003 05:29:02 17.2 C 10.25 g/m*3 17.2 C 0 km/h
2629 01-07-2003 05:35:02 17 C 10.27 g/m*3 17 C 0 km/h
2630 01-07-2003 05:41:02 16.8 C 10.44 g/m*3 16.8 C 0 km/h
2631 01-07-2003 05:47:02 16.7 C 10.52 g/m*3 16.7 C 0 km/h
2632 01-07-2003 05:53:02 16.6 C 10.45 g/m*3 16.6 C 0 km/h
2633 01-07-2003 05:59:02 16.6 C 10.45 g/m*3 16.6 C 0 km/h
2634 01-07-2003 06:05:02 16.6 C 10.59 g/m*3 16.6 C 0 km/h
2635 01-07-2003 06:11:02 16.4 C 10.47 g/m*3 16.4 C 0 km/h
2636 01-07-2003 06:17:02 16.4 C 10.47 g/m*3 16.4 C 0 km/h
2637 01-07-2003 06:23:02 16.5 C 10.53 g/m*3 16.5 C 0 km/h
2638 01-07-2003 06:29:02 16.5 C 10.53 g/m*3 16.5 C 0 km/h
2639 01-07-2003 06:35:02 16.7 C 10.66 g/m*3 16.7 C 0 km/h
2640 01-07-2003 06:41:02 16.8 C 10.58 g/m*3 16.8 C 0 km/h
2641 01-07-2003 06:47:02 16.8 C 10.58 g/m*3 16.8 C 0 km/h
2642 01-07-2003 06:53:02 16.8 C 10.44 g/m*3 16.8 C 0 km/h
2643 01-07-2003 06:59:02 17 C 10.27 g/m*3 17 C 0 km/h
2644 01-07-2003 07:05:02 17.2 C 10.25 g/m*3 17.2 C 0 km/h
2645 01-07-2003 07:11:02 17.3 C 10.31 g/m*3 17.3 C 0 km/h
2646 01-07-2003 07:17:02 17.4 C 10.37 g/m*3 17.4 C 0 km/h
2647 01-07-2003 07:23:02 17.4 C 10.37 g/m*3 17.4 C 0 km/h
2648 01-07-2003 07:29:02 17.5 C 10.44 g/m*3 17.5 C 0 km/h
2649 01-07-2003 07:35:02 17.5 C 10.44 g/m*3 17.5 C 0 km/h
2650 01-07-2003 07:41:02 17.2 C 10.4 g/m*3 17.2 C 0 km/h
Sensor: Nr:Datum:Temp:Abs-Feuchte:Windchill:Wind:
Aussen-T/F 2651 01-07-2003 07:47:02 17.3 C 10.61 g/m*3 17.3 C 0 km/h
2652 01-07-2003 07:53:02 17.6 C 10.8 g/m*3 17.6 C 0 km/h
2653 01-07-2003 07:59:02 17.6 C 10.8 g/m*3 17.6 C 0 km/h
2654 01-07-2003 08:05:02 17.7 C 10.86 g/m*3 17.7 C 0 km/h
2655 01-07-2003 08:11:02 17.7 C 10.71 g/m*3 17.7 C 0 km/h
2656 01-07-2003 08:17:02 17.7 C 10.71 g/m*3 17.7 C 0 km/h
2657 01-07-2003 08:23:02 17.6 C 10.5 g/m*3 17.6 C 0 km/h
2658 01-07-2003 08:29:02 17.7 C 10.56 g/m*3 17.7 C 0 km/h
2659 01-07-2003 08:35:00 17.6 C 10.35 g/m*3 17.6 C 0 km/h
2660 01-07-2003 08:41:00 17.7 C 10.41 g/m*3 17.7 C 0 km/h
2661 01-07-2003 08:47:00 17.7 C 10.26 g/m*3 17.7 C 0 km/h
2662 01-07-2003 08:53:00 17.7 C 10.26 g/m*3 17.7 C 0 km/h
2663 01-07-2003 08:59:00 17.6 C 10.05 g/m*3 17.6 C 0 km/h
2664 01-07-2003 09:05:00 17.6 C 10.2 g/m*3 17.6 C 0 km/h
2665 01-07-2003 09:11:00 17.5 C 10.14 g/m*3 17.5 C 0 km/h
2666 01-07-2003 09:17:00 17.5 C 9.99 g/m*3 17.5 C 0 km/h
2667 01-07-2003 09:23:00 17.9 C 10.23 g/m*3 17.9 C 0 km/h
2668 01-07-2003 09:29:00 18.3 C 10.16 g/m*3 18.3 C 0 km/h
2669 01-07-2003 09:35:00 18.1 C 9.73 g/m*3 18.1 C 0 km/h
2670 01-07-2003 09:41:00 18.2 C 9.79 g/m*3 18.2 C 0 km/h
2671 01-07-2003 09:47:00 18.5 C 9.81 g/m*3 18.5 C 0 km/h
2672 01-07-2003 09:53:00 18.6 C 9.71 g/m*3 18.6 C 0 km/h
2673 01-07-2003 09:59:00 18.7 C 9.77 g/m*3 18.7 C 0 km/h
2674 01-07-2003 10:05:01 18.8 C 9.82 g/m*3 18.8 C 0 km/h
2675 01-07-2003 10:11:01 19 C 9.78 g/m*3 19 C 0 km/h
Sensor: Nr:Datum:Temp:Abs-Feuchte:Windchill:Wind:
Aussen-T/F 2676 01-07-2003 10:17:01 19.3 C 9.95 g/m*3 19.3 C 0 km/h
2677 01-07-2003 10:23:01 19.1 C 9.67 g/m*3 19.1 C 0 km/h
2678 01-07-2003 10:29:01 19.4 C 9.84 g/m*3 19.4 C 0 km/h
2679 01-07-2003 10:35:01 19.4 C 9.51 g/m*3 19.4 C 0 km/h
2680 01-07-2003 10:41:01 19.6 C 9.62 g/m*3 19.6 C 0 km/h
2681 01-07-2003 10:47:01 19.6 C 9.62 g/m*3 19.6 C 0 km/h
2682 01-07-2003 10:53:01 19.4 C 9.34 g/m*3 19.4 C 0 km/h
2683 01-07-2003 10:59:01 19.3 C 9.45 g/m*3 19.3 C 0 km/h
2684 01-07-2003 11:05:01 19.5 C 9.57 g/m*3 19.5 C 0 km/h
2685 01-07-2003 11:11:01 19.7 C 9.51 g/m*3 19.7 C 0 km/h
2686 01-07-2003 11:17:01 19.9 C 9.62 g/m*3 19.9 C 0 km/h
2687 01-07-2003 11:23:01 20.5 C 9.43 g/m*3 20.5 C 0 km/h
2688 01-07-2003 11:29:01 20.9 C 9.83 g/m*3 20.9 C 0 km/h
2689 01-07-2003 11:35:01 21.1 C 9.21 g/m*3 21.1 C 0 km/h
2690 01-07-2003 11:41:01 21.8 C 9.59 g/m*3 21.8 C 0 km/h
2691 01-07-2003 11:47:01 22.5 C 9.39 g/m*3 22.5 C 0 km/h
2692 01-07-2003 11:53:01 21.9 C 9.26 g/m*3 21.9 C 0 km/h
2693 01-07-2003 11:59:01 21.9 C 9.26 g/m*3 21.9 C 0 km/h
2694 01-07-2003 12:05:02 22 C 9.12 g/m*3 22 C 0 km/h
2695 01-07-2003 12:11:02 21.2 C 8.71 g/m*3 21.2 C 0 km/h
2696 01-07-2003 12:17:02 21.1 C 8.84 g/m*3 21.1 C 0 km/h
2697 01-07-2003 12:23:02 21.9 C 9.07 g/m*3 21.9 C 0 km/h
2698 01-07-2003 12:29:02 22.2 C 8.44 g/m*3 22.2 C 0 km/h
2699 01-07-2003 12:35:01 22 C 8.54 g/m*3 22 C 0 km/h
2700 01-07-2003 12:41:01 22.5 C 8.39 g/m*3 22.5 C 0 km/h
Sensor: Nr:Datum:Temp:Abs-Feuchte:Windchill:Wind:
Aussen-T/F 2701 01-07-2003 12:47:01 22.1 C 7.81 g/m*3 22.1 C 0 km/h
2702 01-07-2003 12:53:01 22.1 C 8 g/m*3 22.1 C 0 km/h
2703 01-07-2003 12:59:01 22 C 8.15 g/m*3 22 C 0 km/h
2704 01-07-2003 13:05:01 21.8 C 8.25 g/m*3 21.8 C 0 km/h
2705 01-07-2003 13:11:01 21.7 C 8.39 g/m*3 21.7 C 0 km/h
2706 01-07-2003 13:17:01 23.2 C 8.52 g/m*3 23.2 C 0 km/h
2707 01-07-2003 13:23:01 22.6 C 8.44 g/m*3 22.6 C 0 km/h
2708 01-07-2003 13:29:01 23.7 C 8.13 g/m*3 23.7 C 0 km/h
2709 01-07-2003 13:35:01 23.9 C 8 g/m*3 23.9 C 0 km/h
2710 01-07-2003 13:41:01 23.5 C 7.82 g/m*3 23.5 C 0 km/h
2711 01-07-2003 13:47:01 23.6 C 7.87 g/m*3 23.6 C 0 km/h
2712 01-07-2003 13:53:01 23.8 C 8.17 g/m*3 23.8 C 0 km/h
2713 01-07-2003 13:59:01 23.6 C 8.08 g/m*3 23.6 C 0 km/h
2714 01-07-2003 14:05:01 23.2 C 8.11 g/m*3 23.2 C 0 km/h
2715 01-07-2003 14:11:01 23.2 C 8.32 g/m*3 23.2 C 0 km/h
2716 01-07-2003 14:17:01 23.8 C 8.39 g/m*3 23.8 C 0 km/h
2717 01-07-2003 14:23:01 24 C 7.83 g/m*3 24 C 0 km/h
2718 01-07-2003 14:29:01 23.4 C 7.99 g/m*3 23.4 C 0 km/h
2719 01-07-2003 14:35:02 23.2 C 8.11 g/m*3 23.2 C 0 km/h
2720 01-07-2003 14:41:02 22.7 C 8.08 g/m*3 22.7 C 0 km/h
2721 01-07-2003 14:47:02 22 C 8.35 g/m*3 22 C 0 km/h
2722 01-07-2003 14:53:02 21.9 C 8.88 g/m*3 21.9 C 0 km/h
2723 01-07-2003 14:59:02 21.6 C 8.72 g/m*3 21.6 C 0 km/h
2724 01-07-2003 15:05:01 22 C 8.93 g/m*3 22 C 0 km/h
2725 01-07-2003 15:11:01 22.6 C 9.04 g/m*3 22.6 C 0 km/h
Sensor: Nr:Datum:Temp:Abs-Feuchte:Windchill:Wind:
Aussen-T/F 2726 01-07-2003 15:17:01 22.8 C 8.94 g/m*3 22.8 C 0 km/h
2727 01-07-2003 15:23:01 23.5 C 9.09 g/m*3 23.5 C 0 km/h
2728 01-07-2003 15:29:01 23.8 C 9.03 g/m*3 23.8 C 0 km/h
2729 01-07-2003 15:35:02 24.4 C 8.9 g/m*3 24.4 C 0 km/h
2730 01-07-2003 15:41:02 24.2 C 8.8 g/m*3 24.2 C 0 km/h
2731 01-07-2003 15:47:02 23.9 C 9.09 g/m*3 23.9 C 0 km/h
2732 01-07-2003 15:53:02 23.4 C 8.83 g/m*3 23.4 C 0 km/h
2733 01-07-2003 15:59:02 23.1 C 9.1 g/m*3 23.1 C 0 km/h
2734 01-07-2003 16:05:02 23.6 C 9.36 g/m*3 23.6 C 0 km/h
2735 01-07-2003 16:11:02 22.7 C 9.5 g/m*3 22.7 C 0 km/h
2736 01-07-2003 16:17:02 22.5 C 9.59 g/m*3 22.5 C 0 km/h
2737 01-07-2003 16:23:02 22.8 C 10.16 g/m*3 22.8 C 0 km/h
2738 01-07-2003 16:29:02 22.6 C 10.04 g/m*3 22.6 C 0 km/h
2739 01-07-2003 16:35:01 22.4 C 10.72 g/m*3 22.4 C 0 km/h
2740 01-07-2003 16:41:01 22.6 C 10.85 g/m*3 22.6 C 0 km/h
2741 01-07-2003 16:47:01 22.9 C 10.01 g/m*3 22.9 C 0 km/h
2742 01-07-2003 16:53:01 23.8 C 9.9 g/m*3 23.8 C 0 km/h
2743 01-07-2003 16:59:01 25 C 9.9 g/m*3 25 C 0 km/h
2744 01-07-2003 17:05:02 25.1 C 9.49 g/m*3 25.1 C 0 km/h
2745 01-07-2003 17:11:02 24.5 C 9.62 g/m*3 24.5 C 0 km/h
2746 01-07-2003 17:17:02 23.9 C 9.74 g/m*3 23.9 C 0 km/h
2747 01-07-2003 17:23:02 23.6 C 9.57 g/m*3 23.6 C 0 km/h
2748 01-07-2003 17:29:02 23.6 C 10.42 g/m*3 23.6 C 0 km/h
2749 01-07-2003 17:35:01 23.1 C 10.96 g/m*3 23.1 C 0 km/h
2750 01-07-2003 17:41:01 22.4 C 10.33 g/m*3 22.4 C 0 km/h
Sensor: Nr:Datum:Temp:Abs-Feuchte:Windchill:Wind:
Aussen-T/F 2751 01-07-2003 17:47:01 22.4 C 10.13 g/m*3 22.4 C 0 km/h
2752 01-07-2003 17:53:01 22.3 C 10.27 g/m*3 22.3 C 0 km/h
2753 01-07-2003 17:59:01 22 C 10.29 g/m*3 22 C 0 km/h
2754 01-07-2003 18:05:01 21.2 C 11.49 g/m*3 21.2 C 0 km/h
2755 01-07-2003 18:11:01 20 C 11.23 g/m*3 20 C 0 km/h
2756 01-07-2003 18:17:01 19 C 12.55 g/m*3 19 C 0 km/h
2757 01-07-2003 18:23:01 18.7 C 12.81 g/m*3 18.7 C 0 km/h
2758 01-07-2003 18:29:01 18.9 C 13.61 g/m*3 18.9 C 0 km/h
2759 01-07-2003 18:35:02 18.5 C 12.66 g/m*3 18.5 C 0 km/h
2760 01-07-2003 18:41:02 18.1 C 12.52 g/m*3 18.1 C 0 km/h
2761 01-07-2003 18:47:02 16.8 C 11.44 g/m*3 16.8 C 0 km/h
2762 01-07-2003 18:53:02 16 C 10.9 g/m*3 16 C 0 km/h
2763 01-07-2003 18:59:02 15.7 C 11.11 g/m*3 15.7 C 0 km/h
2764 01-07-2003 19:05:01 15.9 C 11.51 g/m*3 15.9 C 0 km/h
2765 01-07-2003 19:11:01 16.2 C 12 g/m*3 16.2 C 0 km/h
2766 01-07-2003 19:17:01 17.1 C 12.81 g/m*3 17.1 C 0 km/h
2767 01-07-2003 19:23:01 17.3 C 12.67 g/m*3 17.3 C 0 km/h
2768 01-07-2003 19:29:01 18.2 C 13.21 g/m*3 18.2 C 0 km/h
2769 01-07-2003 19:35:00 18.7 C 12.33 g/m*3 18.7 C 0 km/h
2770 01-07-2003 19:41:00 18.7 C 11.53 g/m*3 18.7 C 0 km/h
2771 01-07-2003 19:47:00 19.5 C 11.58 g/m*3 19.5 C 0 km/h
2772 01-07-2003 19:53:00 19.9 C 11.34 g/m*3 19.9 C 0 km/h
2773 01-07-2003 19:59:00 20 C 11.06 g/m*3 20 C 0 km/h
2774 01-07-2003 20:05:01 20.4 C 11.14 g/m*3 20.4 C 0 km/h
2775 01-07-2003 20:11:01 19.9 C 10.65 g/m*3 19.9 C 0 km/h
Sensor: Nr:Datum:Temp:Abs-Feuchte:Windchill:Wind:
Aussen-T/F 2776 01-07-2003 20:17:01 19.7 C 10.7 g/m*3 19.7 C 0 km/h
2777 01-07-2003 20:23:01 19.1 C 10.33 g/m*3 19.1 C 0 km/h
2778 01-07-2003 20:29:01 18.8 C 10.63 g/m*3 18.8 C 0 km/h
2779 01-07-2003 20:35:01 19 C 10.76 g/m*3 19 C 0 km/h
2780 01-07-2003 20:41:01 19.5 C 11.08 g/m*3 19.5 C 0 km/h
2781 01-07-2003 20:47:01 19.5 C 10.74 g/m*3 19.5 C 0 km/h
2782 01-07-2003 20:53:01 19.2 C 10.72 g/m*3 19.2 C 0 km/h
2783 01-07-2003 20:59:01 18.5 C 10.6 g/m*3 18.5 C 0 km/h
2784 01-07-2003 21:05:01 17.9 C 11.15 g/m*3 17.9 C 0 km/h
2785 01-07-2003 21:11:01 17.2 C 11.28 g/m*3 17.2 C 0 km/h
2786 01-07-2003 21:17:01 16.8 C 11.29 g/m*3 16.8 C 0 km/h
2787 01-07-2003 21:23:01 16.6 C 11.02 g/m*3 16.6 C 0 km/h
2788 01-07-2003 21:29:01 16.6 C 11.16 g/m*3 16.6 C 0 km/h
2789 01-07-2003 21:35:01 16.6 C 11.44 g/m*3 16.6 C 0 km/h
2790 01-07-2003 21:41:01 16.7 C 11.37 g/m*3 16.7 C 0 km/h
2791 01-07-2003 21:47:01 16.6 C 11.02 g/m*3 16.6 C 0 km/h
2792 01-07-2003 21:53:01 16.5 C 10.95 g/m*3 16.5 C 0 km/h
2793 01-07-2003 21:59:01 16.4 C 10.47 g/m*3 16.4 C 0 km/h
2794 01-07-2003 22:05:02 16.3 C 10.41 g/m*3 16.3 C 0 km/h
2795 01-07-2003 22:17:02 16.1 C 10.14 g/m*3 16.1 C 0 km/h
2796 01-07-2003 22:23:02 16 C 10.08 g/m*3 16 C 0 km/h
2797 01-07-2003 22:29:02 16.2 C 10.2 g/m*3 16.2 C 0 km/h
2798 01-07-2003 22:36:02 16.1 C 10.01 g/m*3 16.1 C 0 km/h
2799 01-07-2003 22:42:02 16 C 10.08 g/m*3 16 C 0 km/h
2800 01-07-2003 22:48:02 15.9 C 10.16 g/m*3 15.9 C 0 km/h
Sensor: Nr:Datum:Temp:Abs-Feuchte:Windchill:Wind:
Aussen-T/F 2801 01-07-2003 22:54:02 15.9 C 10.02 g/m*3 15.9 C 0 km/h
2802 01-07-2003 23:00:02 15.8 C 9.96 g/m*3 15.8 C 0 km/h
2803 01-07-2003 23:06:02 15.7 C 10.03 g/m*3 15.7 C 0 km/h
2804 01-07-2003 23:12:02 15.6 C 10.11 g/m*3 15.6 C 0 km/h
2805 01-07-2003 23:18:02 15.5 C 10.05 g/m*3 15.5 C 0 km/h
2806 01-07-2003 23:24:02 15.4 C 10.12 g/m*3 15.4 C 0 km/h
2807 01-07-2003 23:30:02 15.4 C 10.12 g/m*3 15.4 C 0 km/h
2808 01-07-2003 23:36:02 15.3 C 10.06 g/m*3 15.3 C 0 km/h
2809 01-07-2003 23:42:02 15.4 C 9.99 g/m*3 15.4 C 0 km/h
2810 01-07-2003 23:48:02 15.4 C 9.99 g/m*3 15.4 C 0 km/h
2811 01-07-2003 23:54:02 15.4 C 9.99 g/m*3 15.4 C 0 km/h
2812 02-07-2003 00:00:08 15.2 C 9.99 g/m*3 15.2 C 0 km/h
2813 02-07-2003 00:06:08 15.1 C 10.06 g/m*3 15.1 C 0 km/h
2814 02-07-2003 00:12:08 15 C 10 g/m*3 15 C 0 km/h
2815 02-07-2003 00:18:08 15.1 C 10.06 g/m*3 15.1 C 0 km/h
2816 02-07-2003 00:24:08 15.2 C 10.12 g/m*3 15.2 C 0 km/h
2817 02-07-2003 00:30:08 15.2 C 10.12 g/m*3 15.2 C 0 km/h
2818 02-07-2003 00:36:08 15.1 C 10.06 g/m*3 15.1 C 0 km/h
2819 02-07-2003 00:42:08 15.2 C 9.99 g/m*3 15.2 C 0 km/h
2820 02-07-2003 00:48:08 15.4 C 10.12 g/m*3 15.4 C 0 km/h
2821 02-07-2003 00:54:08 15.4 C 9.99 g/m*3 15.4 C 0 km/h
2822 02-07-2003 01:00:08 15.5 C 10.05 g/m*3 15.5 C 0 km/h
2823 02-07-2003 01:06:08 15.5 C 10.05 g/m*3 15.5 C 0 km/h
2824 02-07-2003 01:12:08 15.5 C 10.05 g/m*3 15.5 C 0 km/h
2825 02-07-2003 01:18:08 15.6 C 10.11 g/m*3 15.6 C 0 km/h
Sensor: Nr:Datum:Temp:Abs-Feuchte:Windchill:Wind:
Aussen-T/F 2826 02-07-2003 01:24:08 15.6 C 10.11 g/m*3 15.6 C 0 km/h
2827 02-07-2003 01:30:08 15.6 C 9.97 g/m*3 15.6 C 0 km/h
2828 02-07-2003 01:36:08 15.6 C 9.97 g/m*3 15.6 C 0 km/h
2829 02-07-2003 01:42:08 15.5 C 9.91 g/m*3 15.5 C 0 km/h
2830 02-07-2003 01:48:08 15.4 C 9.85 g/m*3 15.4 C 0 km/h
2831 02-07-2003 01:54:08 15.4 C 9.85 g/m*3 15.4 C 0 km/h
2832 02-07-2003 02:00:08 15.4 C 9.85 g/m*3 15.4 C 0 km/h
2833 02-07-2003 02:06:08 15.5 C 9.78 g/m*3 15.5 C 0 km/h
2834 02-07-2003 02:12:08 15.5 C 9.78 g/m*3 15.5 C 0 km/h
2835 02-07-2003 02:18:08 15.4 C 9.72 g/m*3 15.4 C 0 km/h
2836 02-07-2003 02:24:08 15.4 C 9.72 g/m*3 15.4 C 0 km/h
2837 02-07-2003 02:30:08 15.2 C 9.73 g/m*3 15.2 C 0 km/h
2838 02-07-2003 02:36:08 15.1 C 9.68 g/m*3 15.1 C 0 km/h
2839 02-07-2003 02:42:08 15.1 C 9.68 g/m*3 15.1 C 0 km/h
2840 02-07-2003 02:48:08 15.2 C 9.73 g/m*3 15.2 C 0 km/h
2841 02-07-2003 02:54:08 15.2 C 9.73 g/m*3 15.2 C 0 km/h
2842 02-07-2003 03:00:08 15.3 C 9.79 g/m*3 15.3 C 0 km/h
2843 02-07-2003 03:06:08 15.3 C 9.92 g/m*3 15.3 C 0 km/h
2844 02-07-2003 03:12:08 15.1 C 9.8 g/m*3 15.1 C 0 km/h
2845 02-07-2003 03:18:08 15.1 C 9.8 g/m*3 15.1 C 0 km/h
2846 02-07-2003 03:24:08 15 C 9.87 g/m*3 15 C 0 km/h
2847 02-07-2003 03:30:08 15 C 9.75 g/m*3 15 C 0 km/h
2848 02-07-2003 03:36:08 15.1 C 9.8 g/m*3 15.1 C 0 km/h
2849 02-07-2003 03:42:08 15.1 C 9.8 g/m*3 15.1 C 0 km/h
2850 02-07-2003 03:48:08 15.1 C 9.68 g/m*3 15.1 C 0 km/h
Sensor: Nr:Datum:Temp:Abs-Feuchte:Windchill:Wind:
Aussen-T/F 2851 02-07-2003 03:54:08 15.2 C 9.73 g/m*3 15.2 C 0 km/h
2852 02-07-2003 04:00:08 15.1 C 9.68 g/m*3 15.1 C 0 km/h
2853 02-07-2003 04:06:08 15.1 C 9.68 g/m*3 15.1 C 0 km/h
2854 02-07-2003 04:12:08 15.1 C 9.68 g/m*3 15.1 C 0 km/h
2855 02-07-2003 04:18:08 15.1 C 9.68 g/m*3 15.1 C 0 km/h
2856 02-07-2003 04:24:08 15.1 C 9.68 g/m*3 15.1 C 0 km/h
2857 02-07-2003 04:30:08 15 C 9.62 g/m*3 15 C 0 km/h
2858 02-07-2003 04:36:08 15 C 9.62 g/m*3 15 C 0 km/h
2859 02-07-2003 04:42:08 15 C 9.62 g/m*3 15 C 0 km/h
2860 02-07-2003 04:48:08 15.1 C 9.68 g/m*3 15.1 C 0 km/h
2861 02-07-2003 04:54:08 15.1 C 9.68 g/m*3 15.1 C 0 km/h
2862 02-07-2003 05:00:08 15 C 9.62 g/m*3 15 C 0 km/h
2863 02-07-2003 05:06:08 15 C 9.62 g/m*3 15 C 0 km/h
2864 02-07-2003 05:12:08 15 C 9.62 g/m*3 15 C 0 km/h
2865 02-07-2003 05:18:08 15 C 9.62 g/m*3 15 C 0 km/h
2866 02-07-2003 05:24:08 15 C 9.49 g/m*3 15 C 0 km/h
2867 02-07-2003 05:30:08 15.1 C 9.55 g/m*3 15.1 C 0 km/h
2868 02-07-2003 05:36:08 15 C 9.49 g/m*3 15 C 0 km/h
2869 02-07-2003 05:42:08 15 C 9.49 g/m*3 15 C 0 km/h
2870 02-07-2003 05:48:08 15.1 C 9.55 g/m*3 15.1 C 0 km/h
2871 02-07-2003 05:54:08 15.1 C 9.55 g/m*3 15.1 C 0 km/h
2872 02-07-2003 06:00:08 15.2 C 9.61 g/m*3 15.2 C 0 km/h
2873 02-07-2003 06:06:08 15.2 C 9.61 g/m*3 15.2 C 0 km/h
2874 02-07-2003 06:12:08 15.3 C 9.66 g/m*3 15.3 C 0 km/h
2875 02-07-2003 06:18:08 15.4 C 9.59 g/m*3 15.4 C 0 km/h
Sensor: Nr:Datum:Temp:Abs-Feuchte:Windchill:Wind:
Aussen-T/F 2876 02-07-2003 06:24:08 15.5 C 9.65 g/m*3 15.5 C 0 km/h
2877 02-07-2003 06:30:08 15.5 C 9.65 g/m*3 15.5 C 0 km/h
2878 02-07-2003 06:36:08 15.5 C 9.78 g/m*3 15.5 C 0 km/h
2879 02-07-2003 06:42:08 15.5 C 9.78 g/m*3 15.5 C 0 km/h
2880 02-07-2003 06:48:08 15.5 C 9.91 g/m*3 15.5 C 0 km/h
2881 02-07-2003 06:54:08 15.6 C 9.97 g/m*3 15.6 C 0 km/h
2882 02-07-2003 07:00:08 15.6 C 9.84 g/m*3 15.6 C 0 km/h
2883 02-07-2003 07:06:08 15.7 C 9.77 g/m*3 15.7 C 0 km/h
2884 02-07-2003 07:12:08 15.7 C 9.77 g/m*3 15.7 C 0 km/h
2885 02-07-2003 07:18:08 15.7 C 9.77 g/m*3 15.7 C 0 km/h
2886 02-07-2003 07:24:08 15.8 C 9.69 g/m*3 15.8 C 0 km/h
2887 02-07-2003 07:30:08 15.8 C 9.69 g/m*3 15.8 C 0 km/h
2888 02-07-2003 07:36:08 15.9 C 9.75 g/m*3 15.9 C 0 km/h
2889 02-07-2003 07:42:08 15.8 C 9.69 g/m*3 15.8 C 0 km/h
2890 02-07-2003 07:48:08 15.8 C 9.69 g/m*3 15.8 C 0 km/h
2891 02-07-2003 07:54:08 15.8 C 9.69 g/m*3 15.8 C 0 km/h
2892 02-07-2003 08:00:08 16 C 9.67 g/m*3 16 C 0 km/h
2893 02-07-2003 08:06:08 16 C 9.67 g/m*3 16 C 0 km/h
2894 02-07-2003 08:12:08 16 C 9.81 g/m*3 16 C 0 km/h
2895 02-07-2003 08:18:08 16.1 C 9.73 g/m*3 16.1 C 0 km/h
2896 02-07-2003 08:24:08 16.2 C 9.65 g/m*3 16.2 C 0 km/h
2897 02-07-2003 08:30:08 16.4 C 9.63 g/m*3 16.4 C 0 km/h
2898 02-07-2003 08:36:08 16.6 C 9.75 g/m*3 16.6 C 0 km/h
2899 02-07-2003 08:42:08 16.6 C 9.75 g/m*3 16.6 C 0 km/h
2900 02-07-2003 08:48:08 16.8 C 9.72 g/m*3 16.8 C 0 km/h
Sensor: Nr:Datum:Temp:Abs-Feuchte:Windchill:Wind:
Aussen-T/F 2901 02-07-2003 08:54:08 16.8 C 9.72 g/m*3 16.8 C 0 km/h
2902 02-07-2003 09:00:08 16.8 C 9.72 g/m*3 16.8 C 0 km/h
2903 02-07-2003 09:06:08 16.9 C 9.64 g/m*3 16.9 C 0 km/h
2904 02-07-2003 09:12:08 16.9 C 9.64 g/m*3 16.9 C 0 km/h
2905 02-07-2003 09:18:08 17 C 9.55 g/m*3 17 C 0 km/h
2906 02-07-2003 09:24:08 17 C 9.41 g/m*3 17 C 0 km/h
2907 02-07-2003 09:30:08 17.3 C 9.58 g/m*3 17.3 C 0 km/h
2908 02-07-2003 09:36:01 17.5 C 9.54 g/m*3 17.5 C 0 km/h
2909 02-07-2003 09:42:01 17.9 C 9.47 g/m*3 17.9 C 0 km/h
2910 02-07-2003 09:48:01 17.8 C 9.41 g/m*3 17.8 C 0 km/h
2911 02-07-2003 09:54:01 17.9 C 9.47 g/m*3 17.9 C 0 km/h
2912 02-07-2003 10:00:01 17.7 C 9.51 g/m*3 17.7 C 0 km/h
2913 02-07-2003 10:06:00 17.7 C 9.51 g/m*3 17.7 C 0 km/h
2914 02-07-2003 10:12:00 17.5 C 9.39 g/m*3 17.5 C 0 km/h
2915 02-07-2003 10:18:00 17.9 C 9.47 g/m*3 17.9 C 0 km/h
2916 02-07-2003 10:24:00 18.3 C 9.38 g/m*3 18.3 C 0 km/h
2917 02-07-2003 10:30:00 18.8 C 9.5 g/m*3 18.8 C 0 km/h
2918 02-07-2003 10:36:01 19.1 C 9.34 g/m*3 19.1 C 0 km/h
2919 02-07-2003 10:42:01 19.5 C 9.57 g/m*3 19.5 C 0 km/h
2920 02-07-2003 10:48:01 19.5 C 9.23 g/m*3 19.5 C 0 km/h
2921 02-07-2003 10:54:01 19.9 C 9.62 g/m*3 19.9 C 0 km/h
2922 02-07-2003 11:00:01 19.7 C 9.34 g/m*3 19.7 C 0 km/h
2923 02-07-2003 11:06:01 20.1 C 9.56 g/m*3 20.1 C 0 km/h
2924 02-07-2003 11:12:01 20.5 C 9.43 g/m*3 20.5 C 0 km/h
2925 02-07-2003 11:18:01 19.9 C 9.28 g/m*3 19.9 C 0 km/h
Sensor: Nr:Datum:Temp:Abs-Feuchte:Windchill:Wind:
Aussen-T/F 2926 02-07-2003 11:24:01 20.6 C 9.49 g/m*3 20.6 C 0 km/h
2927 02-07-2003 11:30:01 20.6 C 9.66 g/m*3 20.6 C 0 km/h
2928 02-07-2003 11:36:01 20.7 C 9.36 g/m*3 20.7 C 0 km/h
2929 02-07-2003 11:42:01 21.1 C 9.03 g/m*3 21.1 C 0 km/h
2930 02-07-2003 11:48:01 21 C 8.79 g/m*3 21 C 0 km/h
2931 02-07-2003 11:54:01 20.6 C 8.95 g/m*3 20.6 C 0 km/h
2932 02-07-2003 12:00:01 20.4 C 9.2 g/m*3 20.4 C 0 km/h
2933 02-07-2003 12:06:02 20.3 C 8.97 g/m*3 20.3 C 0 km/h
2934 02-07-2003 12:12:02 21.2 C 8.71 g/m*3 21.2 C 0 km/h
2935 02-07-2003 12:18:02 21.2 C 8.71 g/m*3 21.2 C 0 km/h
2936 02-07-2003 12:24:02 22 C 8.93 g/m*3 22 C 0 km/h
2937 02-07-2003 12:30:02 22.5 C 8.59 g/m*3 22.5 C 0 km/h
2938 02-07-2003 12:36:01 21.9 C 8.3 g/m*3 21.9 C 0 km/h
2939 02-07-2003 12:42:01 22.5 C 8.79 g/m*3 22.5 C 0 km/h
2940 02-07-2003 12:48:01 23.3 C 8.57 g/m*3 23.3 C 0 km/h
2941 02-07-2003 12:54:01 23.1 C 8.27 g/m*3 23.1 C 0 km/h
2942 02-07-2003 13:00:01 22.7 C 8.69 g/m*3 22.7 C 0 km/h
2943 02-07-2003 13:06:01 23.3 C 8.36 g/m*3 23.3 C 0 km/h
2944 02-07-2003 13:12:01 23.3 C 8.15 g/m*3 23.3 C 0 km/h
2945 02-07-2003 13:18:01 23.6 C 8.51 g/m*3 23.6 C 0 km/h
2946 02-07-2003 13:24:01 24.3 C 8.19 g/m*3 24.3 C 0 km/h
2947 02-07-2003 13:30:01 24.2 C 8.36 g/m*3 24.2 C 0 km/h
2948 02-07-2003 13:36:01 24.4 C 8.01 g/m*3 24.4 C 0 km/h
2949 02-07-2003 13:42:01 23 C 7.4 g/m*3 23 C 0 km/h
2950 02-07-2003 13:48:01 23.2 C 7.48 g/m*3 23.2 C 0 km/h
Sensor: Nr:Datum:Temp:Abs-Feuchte:Windchill:Wind:
Aussen-T/F 2951 02-07-2003 13:54:01 23.4 C 7.36 g/m*3 23.4 C 0 km/h
2952 02-07-2003 14:00:01 23.2 C 7.69 g/m*3 23.2 C 0 km/h
2953 02-07-2003 14:06:01 23.2 C 7.48 g/m*3 23.2 C 0 km/h
2954 02-07-2003 14:12:01 22.9 C 7.56 g/m*3 22.9 C 0 km/h
2955 02-07-2003 14:18:01 22.6 C 7.63 g/m*3 22.6 C 0 km/h
2956 02-07-2003 14:24:01 22.5 C 7.99 g/m*3 22.5 C 0 km/h
2957 02-07-2003 14:30:01 22.7 C 8.08 g/m*3 22.7 C 0 km/h
2958 02-07-2003 14:36:01 22.8 C 8.13 g/m*3 22.8 C 0 km/h
2959 02-07-2003 14:42:01 22.2 C 8.05 g/m*3 22.2 C 0 km/h
2960 02-07-2003 14:48:01 22.9 C 8.38 g/m*3 22.9 C 0 km/h
2961 02-07-2003 14:54:01 23.6 C 8.08 g/m*3 23.6 C 0 km/h
2962 02-07-2003 15:00:01 24 C 7.83 g/m*3 24 C 0 km/h
2963 02-07-2003 15:06:07 23.2 C 7.28 g/m*3 23.2 C 0 km/h
2964 02-07-2003 15:12:07 23.4 C 7.57 g/m*3 23.4 C 0 km/h
2965 02-07-2003 15:18:07 23.4 C 7.57 g/m*3 23.4 C 0 km/h
2966 02-07-2003 15:24:07 24 C 7.83 g/m*3 24 C 0 km/h
2967 02-07-2003 15:30:07 23.6 C 7.44 g/m*3 23.6 C 0 km/h
2968 02-07-2003 15:36:01 22.7 C 7.48 g/m*3 22.7 C 0 km/h
2969 02-07-2003 15:42:01 22.3 C 7.5 g/m*3 22.3 C 0 km/h
2970 02-07-2003 15:48:01 22.6 C 7.83 g/m*3 22.6 C 0 km/h
2971 02-07-2003 15:54:01 23 C 7.6 g/m*3 23 C 0 km/h
2972 02-07-2003 16:00:01 23.4 C 7.99 g/m*3 23.4 C 0 km/h
2973 02-07-2003 16:06:01 24.2 C 7.92 g/m*3 24.2 C 0 km/h
2974 02-07-2003 16:12:01 24.8 C 7.51 g/m*3 24.8 C 0 km/h
2975 02-07-2003 16:18:01 24.3 C 7.3 g/m*3 24.3 C 0 km/h
Sensor: Nr:Datum:Temp:Abs-Feuchte:Windchill:Wind:
Aussen-T/F 2976 02-07-2003 16:24:01 24.5 C 7.61 g/m*3 24.5 C 0 km/h
2977 02-07-2003 16:30:01 25.2 C 7.68 g/m*3 25.2 C 0 km/h
2978 02-07-2003 16:36:00 25.7 C 7.9 g/m*3 25.7 C 0 km/h
2979 02-07-2003 16:42:00 24.8 C 7.74 g/m*3 24.8 C 0 km/h
2980 02-07-2003 16:48:00 24.8 C 7.97 g/m*3 24.8 C 0 km/h
2981 02-07-2003 16:54:00 24.6 C 7.65 g/m*3 24.6 C 0 km/h
2982 02-07-2003 17:00:00 23.8 C 7.74 g/m*3 23.8 C 0 km/h
2983 02-07-2003 17:06:02 23.3 C 7.95 g/m*3 23.3 C 0 km/h
2984 02-07-2003 17:12:02 21.9 C 7.72 g/m*3 21.9 C 0 km/h
2985 02-07-2003 17:18:02 20.5 C 7.65 g/m*3 20.5 C 0 km/h
2986 02-07-2003 17:24:02 20.3 C 8.09 g/m*3 20.3 C 0 km/h
2987 02-07-2003 17:30:02 19.6 C 8.1 g/m*3 19.6 C 0 km/h
2988 02-07-2003 17:36:02 19.5 C 8.56 g/m*3 19.5 C 0 km/h
2989 02-07-2003 17:42:02 18.7 C 8.97 g/m*3 18.7 C 0 km/h
2990 02-07-2003 17:48:02 19.2 C 9.07 g/m*3 19.2 C 0 km/h
2991 02-07-2003 17:54:02 19.5 C 8.89 g/m*3 19.5 C 0 km/h
2992 02-07-2003 18:00:02 19.1 C 9.34 g/m*3 19.1 C 0 km/h
2993 02-07-2003 18:06:02 17.2 C 10.84 g/m*3 17.2 C 0 km/h
2994 02-07-2003 18:12:02 16.4 C 10.89 g/m*3 16.4 C 0 km/h
2995 02-07-2003 18:18:02 16.3 C 11.24 g/m*3 16.3 C 0 km/h
2996 02-07-2003 18:24:02 16.4 C 11.17 g/m*3 16.4 C 0 km/h
2997 02-07-2003 18:30:02 16.8 C 11.15 g/m*3 16.8 C 0 km/h
2998 02-07-2003 18:36:01 16.9 C 11.08 g/m*3 16.9 C 0 km/h
2999 02-07-2003 18:42:01 17 C 10.71 g/m*3 17 C 0 km/h
3000 02-07-2003 18:48:01 17 C 10.27 g/m*3 17 C 0 km/h
Sensor: Nr:Datum:Temp:Abs-Feuchte:Windchill:Wind:
Aussen-T/F 3001 02-07-2003 18:54:01 16.8 C 10.15 g/m*3 16.8 C 0 km/h
3002 02-07-2003 19:00:01 16.8 C 10.29 g/m*3 16.8 C 0 km/h
3003 02-07-2003 19:06:00 16.8 C 10.29 g/m*3 16.8 C 0 km/h
3004 02-07-2003 19:12:00 17 C 10.27 g/m*3 17 C 0 km/h
3005 02-07-2003 19:18:00 17 C 10.27 g/m*3 17 C 0 km/h
3006 02-07-2003 19:24:00 17.2 C 9.96 g/m*3 17.2 C 0 km/h
3007 02-07-2003 19:30:00 17.3 C 10.16 g/m*3 17.3 C 0 km/h
3008 02-07-2003 19:36:01 17.4 C 9.78 g/m*3 17.4 C 0 km/h
3009 02-07-2003 19:42:01 18.3 C 9.85 g/m*3 18.3 C 0 km/h
3010 02-07-2003 19:48:01 18.6 C 9.87 g/m*3 18.6 C 0 km/h
3011 02-07-2003 19:54:01 19.2 C 9.73 g/m*3 19.2 C 0 km/h
3012 02-07-2003 20:00:01 19 C 9.61 g/m*3 19 C 0 km/h
3013 02-07-2003 20:06:02 18.9 C 9.88 g/m*3 18.9 C 0 km/h
3014 02-07-2003 20:12:02 18.5 C 9.97 g/m*3 18.5 C 0 km/h
3015 02-07-2003 20:18:02 18.2 C 9.95 g/m*3 18.2 C 0 km/h
3016 02-07-2003 20:24:02 18 C 9.83 g/m*3 18 C 0 km/h
3017 02-07-2003 20:30:02 17.9 C 10.08 g/m*3 17.9 C 0 km/h
3018 02-07-2003 20:36:01 17.9 C 10.23 g/m*3 17.9 C 0 km/h
3019 02-07-2003 20:42:01 17.6 C 10.35 g/m*3 17.6 C 0 km/h
3020 02-07-2003 20:48:01 17.2 C 10.1 g/m*3 17.2 C 0 km/h
3021 02-07-2003 20:54:01 17.2 C 9.96 g/m*3 17.2 C 0 km/h
3022 02-07-2003 21:00:01 17.1 C 9.9 g/m*3 17.1 C 0 km/h
3023 02-07-2003 21:06:01 17.1 C 9.9 g/m*3 17.1 C 0 km/h
3024 02-07-2003 21:12:01 17.2 C 9.81 g/m*3 17.2 C 0 km/h
3025 02-07-2003 21:18:01 17.2 C 9.81 g/m*3 17.2 C 0 km/h
Sensor: Nr:Datum:Temp:Abs-Feuchte:Windchill:Wind:
Aussen-T/F 3026 02-07-2003 21:24:01 16.6 C 10.31 g/m*3 16.6 C 0 km/h
3027 02-07-2003 21:30:01 16.1 C 10.69 g/m*3 16.1 C 0 km/h
3028 02-07-2003 21:36:01 15.8 C 10.63 g/m*3 15.8 C 0 km/h
3029 02-07-2003 21:42:01 15.8 C 10.77 g/m*3 15.8 C 0 km/h
3030 02-07-2003 21:48:01 15.9 C 10.7 g/m*3 15.9 C 0 km/h
3031 02-07-2003 21:54:01 16 C 10.63 g/m*3 16 C 0 km/h
3032 02-07-2003 22:00:01 15.9 C 10.43 g/m*3 15.9 C 0 km/h
3033 02-07-2003 22:06:01 15.8 C 10.5 g/m*3 15.8 C 0 km/h
3034 02-07-2003 22:12:01 15.7 C 10.57 g/m*3 15.7 C 0 km/h
3035 02-07-2003 22:18:01 15.6 C 10.64 g/m*3 15.6 C 0 km/h
3036 02-07-2003 22:24:01 15.5 C 10.71 g/m*3 15.5 C 0 km/h
3037 02-07-2003 22:30:01 15.4 C 10.64 g/m*3 15.4 C 0 km/h
3038 02-07-2003 22:36:00 15.4 C 10.64 g/m*3 15.4 C 0 km/h
3039 02-07-2003 22:42:00 15.2 C 10.64 g/m*3 15.2 C 0 km/h
3040 02-07-2003 22:48:00 15.2 C 10.77 g/m*3 15.2 C 0 km/h
3041 02-07-2003 22:54:00 15.1 C 10.71 g/m*3 15.1 C 0 km/h
3042 02-07-2003 23:00:00 15.1 C 10.71 g/m*3 15.1 C 0 km/h
3043 02-07-2003 23:06:01 15.1 C 10.71 g/m*3 15.1 C 0 km/h
3044 02-07-2003 23:12:01 15.2 C 10.77 g/m*3 15.2 C 0 km/h
3045 02-07-2003 23:18:01 15.3 C 10.71 g/m*3 15.3 C 0 km/h
3046 02-07-2003 23:24:01 15.4 C 10.64 g/m*3 15.4 C 0 km/h
3047 02-07-2003 23:30:01 15.4 C 10.64 g/m*3 15.4 C 0 km/h
3048 02-07-2003 23:36:01 15.4 C 10.64 g/m*3 15.4 C 0 km/h
3049 02-07-2003 23:42:01 15.3 C 10.58 g/m*3 15.3 C 0 km/h
3050 02-07-2003 23:54:01 15.2 C 10.64 g/m*3 15.2 C 0 km/h
Sensor: Nr:Datum:Temp:Abs-Feuchte:Windchill:Wind:
Aussen-T/F 3051 03-07-2003 00:00:01 15.2 C 10.64 g/m*3 15.2 C 0 km/h
3052 03-07-2003 00:06:02 15.1 C 10.58 g/m*3 15.1 C 0 km/h
3053 03-07-2003 00:12:02 15.1 C 10.58 g/m*3 15.1 C 0 km/h
3054 03-07-2003 00:18:02 15.2 C 10.64 g/m*3 15.2 C 0 km/h
3055 03-07-2003 00:24:02 15.2 C 10.64 g/m*3 15.2 C 0 km/h
3056 03-07-2003 00:30:02 15.2 C 10.64 g/m*3 15.2 C 0 km/h
3057 03-07-2003 00:37:02 15.3 C 10.71 g/m*3 15.3 C 0 km/h
3058 03-07-2003 00:43:02 15.3 C 10.71 g/m*3 15.3 C 0 km/h
3059 03-07-2003 00:49:02 15.3 C 10.71 g/m*3 15.3 C 0 km/h
3060 03-07-2003 00:55:02 15.2 C 10.64 g/m*3 15.2 C 0 km/h
3061 03-07-2003 01:01:02 15.2 C 10.64 g/m*3 15.2 C 0 km/h
3062 03-07-2003 01:07:02 15.2 C 10.64 g/m*3 15.2 C 0 km/h
3063 03-07-2003 01:13:02 15.2 C 10.64 g/m*3 15.2 C 0 km/h
3064 03-07-2003 01:19:02 15.1 C 10.58 g/m*3 15.1 C 0 km/h
3065 03-07-2003 01:25:02 15 C 10.51 g/m*3 15 C 0 km/h
3066 03-07-2003 01:31:02 15.1 C 10.58 g/m*3 15.1 C 0 km/h
3067 03-07-2003 01:37:02 15 C 10.51 g/m*3 15 C 0 km/h
3068 03-07-2003 01:43:02 15.1 C 10.58 g/m*3 15.1 C 0 km/h
3069 03-07-2003 01:49:02 15.1 C 10.58 g/m*3 15.1 C 0 km/h
3070 03-07-2003 01:55:02 15.2 C 10.64 g/m*3 15.2 C 0 km/h
3071 03-07-2003 02:01:02 15.2 C 10.64 g/m*3 15.2 C 0 km/h
3072 03-07-2003 02:07:02 15.2 C 10.51 g/m*3 15.2 C 0 km/h
3073 03-07-2003 02:13:02 15.1 C 10.58 g/m*3 15.1 C 0 km/h
3074 03-07-2003 02:19:02 15.2 C 10.64 g/m*3 15.2 C 0 km/h
3075 03-07-2003 02:25:02 15.1 C 10.58 g/m*3 15.1 C 0 km/h
Sensor: Nr:Datum:Temp:Abs-Feuchte:Windchill:Wind:
Aussen-T/F 3076 03-07-2003 02:31:02 15.2 C 10.51 g/m*3 15.2 C 0 km/h
3077 03-07-2003 02:37:02 15.1 C 10.45 g/m*3 15.1 C 0 km/h
3078 03-07-2003 02:43:02 15.1 C 10.45 g/m*3 15.1 C 0 km/h
3079 03-07-2003 02:49:02 15.1 C 10.32 g/m*3 15.1 C 0 km/h
3080 03-07-2003 02:55:02 15.1 C 10.32 g/m*3 15.1 C 0 km/h
3081 03-07-2003 03:01:02 15.1 C 10.32 g/m*3 15.1 C 0 km/h
3082 03-07-2003 03:07:02 15.1 C 10.32 g/m*3 15.1 C 0 km/h
3083 03-07-2003 03:13:02 15.1 C 10.32 g/m*3 15.1 C 0 km/h
3084 03-07-2003 03:19:02 15.1 C 10.19 g/m*3 15.1 C 0 km/h
3085 03-07-2003 03:25:02 15.2 C 10.12 g/m*3 15.2 C 0 km/h
3086 03-07-2003 03:31:02 15.2 C 10.25 g/m*3 15.2 C 0 km/h
3087 03-07-2003 03:37:02 15.1 C 10.19 g/m*3 15.1 C 0 km/h
3088 03-07-2003 03:43:02 15.1 C 10.19 g/m*3 15.1 C 0 km/h
3089 03-07-2003 03:49:02 15.1 C 10.19 g/m*3 15.1 C 0 km/h
3090 03-07-2003 03:55:02 15.1 C 10.19 g/m*3 15.1 C 0 km/h
3091 03-07-2003 04:01:02 15.1 C 10.19 g/m*3 15.1 C 0 km/h
3092 03-07-2003 04:07:02 15.1 C 10.19 g/m*3 15.1 C 0 km/h
3093 03-07-2003 04:13:02 15.1 C 10.32 g/m*3 15.1 C 0 km/h
3094 03-07-2003 04:19:02 15 C 10.26 g/m*3 15 C 0 km/h
3095 03-07-2003 04:25:02 15 C 10.26 g/m*3 15 C 0 km/h
3096 03-07-2003 04:31:02 14.7 C 10.45 g/m*3 14.7 C 0 km/h
3097 03-07-2003 04:37:02 14.6 C 10.39 g/m*3 14.6 C 0 km/h
3098 03-07-2003 04:43:02 14.7 C 10.58 g/m*3 14.7 C 0 km/h
3099 03-07-2003 04:49:02 14.7 C 10.58 g/m*3 14.7 C 0 km/h
3100 03-07-2003 04:55:02 14.5 C 10.57 g/m*3 14.5 C 0 km/h
Sensor: Nr:Datum:Temp:Abs-Feuchte:Windchill:Wind:
Aussen-T/F 3101 03-07-2003 05:01:02 14.3 C 10.57 g/m*3 14.3 C 0 km/h
3102 03-07-2003 05:07:02 14.3 C 10.57 g/m*3 14.3 C 0 km/h
3103 03-07-2003 05:13:02 14.3 C 10.69 g/m*3 14.3 C 0 km/h
3104 03-07-2003 05:19:02 14.2 C 10.62 g/m*3 14.2 C 0 km/h
3105 03-07-2003 05:25:02 14.2 C 10.62 g/m*3 14.2 C 0 km/h
3106 03-07-2003 05:31:02 14.2 C 10.62 g/m*3 14.2 C 0 km/h
3107 03-07-2003 05:37:02 14.2 C 10.62 g/m*3 14.2 C 0 km/h
3108 03-07-2003 05:43:02 14.2 C 10.62 g/m*3 14.2 C 0 km/h
3109 03-07-2003 05:49:02 14.3 C 10.69 g/m*3 14.3 C 0 km/h
3110 03-07-2003 05:55:02 14.4 C 10.63 g/m*3 14.4 C 0 km/h
3111 03-07-2003 06:01:02 14.4 C 10.63 g/m*3 14.4 C 0 km/h
3112 03-07-2003 06:07:02 14.5 C 10.57 g/m*3 14.5 C 0 km/h
3113 03-07-2003 06:13:02 14.5 C 10.45 g/m*3 14.5 C 0 km/h
3114 03-07-2003 06:19:02 14.6 C 10.51 g/m*3 14.6 C 0 km/h
3115 03-07-2003 06:25:02 14.6 C 10.39 g/m*3 14.6 C 0 km/h
3116 03-07-2003 06:31:02 14.7 C 10.32 g/m*3 14.7 C 0 km/h
3117 03-07-2003 06:37:02 14.7 C 10.32 g/m*3 14.7 C 0 km/h
3118 03-07-2003 06:43:02 14.8 C 10.39 g/m*3 14.8 C 0 km/h
3119 03-07-2003 06:49:02 14.6 C 10.39 g/m*3 14.6 C 0 km/h
3120 03-07-2003 06:55:02 14.5 C 10.45 g/m*3 14.5 C 0 km/h
3121 03-07-2003 07:01:02 14.4 C 10.51 g/m*3 14.4 C 0 km/h
3122 03-07-2003 07:07:02 14.4 C 10.51 g/m*3 14.4 C 0 km/h
3123 03-07-2003 07:13:02 14.4 C 10.51 g/m*3 14.4 C 0 km/h
3124 03-07-2003 07:19:02 14.4 C 10.63 g/m*3 14.4 C 0 km/h
3125 03-07-2003 07:25:02 14.3 C 10.57 g/m*3 14.3 C 0 km/h
Sensor: Nr:Datum:Temp:Abs-Feuchte:Windchill:Wind:
Aussen-T/F 3126 03-07-2003 07:31:02 14.4 C 10.63 g/m*3 14.4 C 0 km/h
3127 03-07-2003 07:37:02 14.4 C 10.63 g/m*3 14.4 C 0 km/h
3128 03-07-2003 07:43:02 14.6 C 10.76 g/m*3 14.6 C 0 km/h
3129 03-07-2003 07:49:02 14.7 C 10.7 g/m*3 14.7 C 0 km/h
3130 03-07-2003 07:55:02 14.8 C 10.64 g/m*3 14.8 C 0 km/h
3131 03-07-2003 08:01:02 14.9 C 10.71 g/m*3 14.9 C 0 km/h
3132 03-07-2003 08:07:02 15.1 C 10.58 g/m*3 15.1 C 0 km/h
3133 03-07-2003 08:13:02 15.3 C 10.58 g/m*3 15.3 C 0 km/h
3134 03-07-2003 08:19:02 15.5 C 10.57 g/m*3 15.5 C 0 km/h
3135 03-07-2003 08:25:02 15.8 C 10.77 g/m*3 15.8 C 0 km/h
3136 03-07-2003 08:31:02 15.9 C 10.7 g/m*3 15.9 C 0 km/h
3137 03-07-2003 08:37:02 16 C 10.49 g/m*3 16 C 0 km/h
3138 03-07-2003 08:43:02 16 C 10.35 g/m*3 16 C 0 km/h
3139 03-07-2003 08:49:02 16.3 C 10.68 g/m*3 16.3 C 0 km/h
3140 03-07-2003 08:55:02 16.2 C 10.48 g/m*3 16.2 C 0 km/h
3141 03-07-2003 09:01:02 16.2 C 10.34 g/m*3 16.2 C 0 km/h
3142 03-07-2003 09:07:01 16 C 10.22 g/m*3 16 C 0 km/h
3143 03-07-2003 09:13:01 15.9 C 10.16 g/m*3 15.9 C 0 km/h
3144 03-07-2003 09:19:01 15.9 C 10.16 g/m*3 15.9 C 0 km/h
3145 03-07-2003 09:25:01 16 C 10.08 g/m*3 16 C 0 km/h
3146 03-07-2003 09:31:01 16.1 C 10.14 g/m*3 16.1 C 0 km/h
3147 03-07-2003 09:37:01 16.3 C 9.99 g/m*3 16.3 C 0 km/h
3148 03-07-2003 09:43:01 16.4 C 10.05 g/m*3 16.4 C 0 km/h
3149 03-07-2003 09:49:01 16.4 C 10.19 g/m*3 16.4 C 0 km/h
3150 03-07-2003 09:55:01 16 C 10.22 g/m*3 16 C 0 km/h
Sensor: Nr:Datum:Temp:Abs-Feuchte:Windchill:Wind:
Aussen-T/F 3151 03-07-2003 10:01:01 15.9 C 10.56 g/m*3 15.9 C 0 km/h
3152 03-07-2003 10:07:01 16.2 C 10.48 g/m*3 16.2 C 0 km/h
3153 03-07-2003 10:13:01 16.5 C 10.67 g/m*3 16.5 C 0 km/h
3154 03-07-2003 10:19:01 16.4 C 10.47 g/m*3 16.4 C 0 km/h
3155 03-07-2003 10:25:01 16.3 C 10.68 g/m*3 16.3 C 0 km/h
3156 03-07-2003 10:31:01 16 C 10.49 g/m*3 16 C 0 km/h
3157 03-07-2003 10:37:01 16 C 10.63 g/m*3 16 C 0 km/h
3158 03-07-2003 10:43:01 15.9 C 10.56 g/m*3 15.9 C 0 km/h
3159 03-07-2003 10:49:01 15.8 C 10.5 g/m*3 15.8 C 0 km/h
3160 03-07-2003 10:55:01 16 C 10.35 g/m*3 16 C 0 km/h
3161 03-07-2003 11:01:01 16.2 C 10.34 g/m*3 16.2 C 0 km/h
3162 03-07-2003 11:07:01 16.4 C 10.33 g/m*3 16.4 C 0 km/h
3163 03-07-2003 11:13:01 16.8 C 10.44 g/m*3 16.8 C 0 km/h
3164 03-07-2003 11:19:01 17.5 C 10.59 g/m*3 17.5 C 0 km/h
3165 03-07-2003 11:25:01 17.4 C 10.08 g/m*3 17.4 C 0 km/h
3166 03-07-2003 11:31:01 17.8 C 10.32 g/m*3 17.8 C 0 km/h
3167 03-07-2003 11:37:01 18.4 C 10.22 g/m*3 18.4 C 0 km/h
3168 03-07-2003 11:43:01 18.5 C 9.49 g/m*3 18.5 C 0 km/h
3169 03-07-2003 11:49:01 18.2 C 9.48 g/m*3 18.2 C 0 km/h
3170 03-07-2003 11:55:01 18.5 C 9.81 g/m*3 18.5 C 0 km/h
3171 03-07-2003 12:01:01 19.4 C 10.01 g/m*3 19.4 C 0 km/h
3172 03-07-2003 12:07:00 20 C 10.02 g/m*3 20 C 0 km/h
3173 03-07-2003 12:13:00 20.7 C 9.9 g/m*3 20.7 C 0 km/h
3174 03-07-2003 12:19:00 20.1 C 9.39 g/m*3 20.1 C 0 km/h
3175 03-07-2003 12:25:00 19.9 C 9.79 g/m*3 19.9 C 0 km/h
Sensor: Nr:Datum:Temp:Abs-Feuchte:Windchill:Wind:
Aussen-T/F 3176 03-07-2003 12:31:00 20.6 C 9.66 g/m*3 20.6 C 0 km/h
3177 03-07-2003 12:37:01 20 C 9.33 g/m*3 20 C 0 km/h
3178 03-07-2003 12:43:01 19.8 C 9.57 g/m*3 19.8 C 0 km/h
3179 03-07-2003 12:49:01 20 C 9.51 g/m*3 20 C 0 km/h
3180 03-07-2003 12:55:01 20.3 C 9.67 g/m*3 20.3 C 0 km/h
3181 03-07-2003 13:01:01 19.6 C 9.62 g/m*3 19.6 C 0 km/h
3182 03-07-2003 13:07:02 20.6 C 9.66 g/m*3 20.6 C 0 km/h
3183 03-07-2003 13:13:02 20.9 C 9.47 g/m*3 20.9 C 0 km/h
3184 03-07-2003 13:19:02 21.1 C 9.4 g/m*3 21.1 C 0 km/h
3185 03-07-2003 13:25:02 21.1 C 9.4 g/m*3 21.1 C 0 km/h
3186 03-07-2003 13:31:02 21.2 C 9.08 g/m*3 21.2 C 0 km/h
3187 03-07-2003 13:37:01 21.2 C 8.71 g/m*3 21.2 C 0 km/h
3188 03-07-2003 13:43:01 21.3 C 8.95 g/m*3 21.3 C 0 km/h
3189 03-07-2003 13:49:01 21.4 C 9.19 g/m*3 21.4 C 0 km/h
3190 03-07-2003 13:55:01 22 C 9.12 g/m*3 22 C 0 km/h
3191 03-07-2003 14:01:01 22.1 C 8.78 g/m*3 22.1 C 0 km/h
3192 03-07-2003 14:07:02 21.4 C 8.81 g/m*3 21.4 C 0 km/h
3193 03-07-2003 14:13:02 21.7 C 8.97 g/m*3 21.7 C 0 km/h
3194 03-07-2003 14:19:02 21.3 C 8.95 g/m*3 21.3 C 0 km/h
3195 03-07-2003 14:25:02 21.6 C 9.1 g/m*3 21.6 C 0 km/h
3196 03-07-2003 14:31:02 21.4 C 9 g/m*3 21.4 C 0 km/h
3197 03-07-2003 14:37:01 21.1 C 8.84 g/m*3 21.1 C 0 km/h
3198 03-07-2003 14:43:01 21.2 C 9.08 g/m*3 21.2 C 0 km/h
3199 03-07-2003 14:49:01 20.9 C 9.29 g/m*3 20.9 C 0 km/h
3200 03-07-2003 14:55:01 21.1 C 8.84 g/m*3 21.1 C 0 km/h
Sensor: Nr:Datum:Temp:Abs-Feuchte:Windchill:Wind:
Aussen-T/F 3201 03-07-2003 15:01:01 20.4 C 8.85 g/m*3 20.4 C 0 km/h
3202 03-07-2003 15:07:01 20 C 9.51 g/m*3 20 C 0 km/h
3203 03-07-2003 15:13:01 18.6 C 10.98 g/m*3 18.6 C 0 km/h
3204 03-07-2003 15:19:01 18.3 C 11.41 g/m*3 18.3 C 0 km/h
3205 03-07-2003 15:25:01 18.2 C 12.28 g/m*3 18.2 C 0 km/h
3206 03-07-2003 15:31:01 18.5 C 12.34 g/m*3 18.5 C 0 km/h
3207 03-07-2003 15:37:01 19.1 C 11.64 g/m*3 19.1 C 0 km/h
3208 03-07-2003 15:43:01 19.4 C 11.18 g/m*3 19.4 C 0 km/h
3209 03-07-2003 15:49:01 19.5 C 10.91 g/m*3 19.5 C 0 km/h
3210 03-07-2003 15:55:01 20.1 C 10.6 g/m*3 20.1 C 0 km/h
3211 03-07-2003 16:01:01 20.6 C 10.74 g/m*3 20.6 C 0 km/h
3212 03-07-2003 16:07:01 20.5 C 11.03 g/m*3 20.5 C 0 km/h
3213 03-07-2003 16:13:01 20.8 C 10.68 g/m*3 20.8 C 0 km/h
3214 03-07-2003 16:19:01 21.1 C 10.32 g/m*3 21.1 C 0 km/h
3215 03-07-2003 16:25:01 20.6 C 10.2 g/m*3 20.6 C 0 km/h
3216 03-07-2003 16:31:01 20.1 C 8.69 g/m*3 20.1 C 0 km/h
3217 03-07-2003 16:37:01 19.9 C 8.42 g/m*3 19.9 C 0 km/h
3218 03-07-2003 16:43:01 19.8 C 8.37 g/m*3 19.8 C 0 km/h
3219 03-07-2003 16:49:01 20 C 8.12 g/m*3 20 C 0 km/h
3220 03-07-2003 16:55:01 20.3 C 8.62 g/m*3 20.3 C 0 km/h
3221 03-07-2003 17:01:01 20.6 C 8.77 g/m*3 20.6 C 0 km/h
3222 03-07-2003 17:07:00 20.6 C 8.77 g/m*3 20.6 C 0 km/h
3223 03-07-2003 17:13:00 20.6 C 8.77 g/m*3 20.6 C 0 km/h
3224 03-07-2003 17:19:00 20.6 C 8.77 g/m*3 20.6 C 0 km/h
3225 03-07-2003 17:25:00 20.6 C 8.77 g/m*3 20.6 C 0 km/h
Sensor: Nr:Datum:Temp:Abs-Feuchte:Windchill:Wind:
Aussen-T/F 3226 03-07-2003 17:31:00 20.9 C 8.92 g/m*3 20.9 C 0 km/h
3227 03-07-2003 17:37:02 21.3 C 8.95 g/m*3 </